Hecht, A; MEDAR Group (2012): Physical oceanography during SHIKMONA cruise POEM01IS [dataset]. Israel Oceanographic and Limnological Research Ltd., PANGAEA, https://doi.org/10.1594/PANGAEA.787868
Always quote citation above when using data! You can download the citation in several formats below.
Published: 2012-08-28 • DOI registered: 2012-09-25
Related to:
MEDAR Group (2002): MEDATLAS/2002 database. Mediterranean and Black Sea database of temperature salinity and bio-chemical parameters. Climatological Atlas. Institut Français de Recherche pour L´Exploitation de la Mer, (IFREMER) Edition & Instituto Nazionale di Oceanografia e di Geofisica Sperimentale (OGS), 4 CD-ROM
Further details:
Quality flag conversion MEDATLAS PANGAEA. hdl:10013/epic.26895.d001
Project(s):
Mediterranean Data Archaeology and Rescue (MEDAR/MEDATLAS)
Funding:
European Commission (EC), grant/award no. ERBIC20-CT98-0103: Mediterranean Data Archaeology and Rescue
Coverage:
Median Latitude: 33.325000 * Median Longitude: 29.637500 * South-bound Latitude: 32.500000 * West-bound Longitude: 23.500000 * North-bound Latitude: 34.000000 * East-bound Longitude: 34.500000
Date/Time Start: 1985-10-15T19:10:00 * Date/Time End: 1985-11-07T07:11:00
Minimum DEPTH, water: 0.00 m * Maximum DEPTH, water: 2019.35 m
Event(s):
IL4719850002800010 * Latitude Start: 34.000000 * Longitude Start: 34.500000 * Latitude End: 34.000000 * Longitude End: 34.500000 * Date/Time Start: 1985-10-15T19:10:00 * Date/Time End: 1985-10-15T19:10:00 * Location: Mediterranean Sea * Campaign: POEM01IS * Basis: Shikmona * Method/Device: CTD/Rosette (CTD-RO)
IL4719850002800020 * Latitude Start: 34.000000 * Longitude Start: 34.000000 * Latitude End: 34.000000 * Longitude End: 34.000000 * Date/Time Start: 1985-10-16T00:10:00 * Date/Time End: 1985-10-16T00:10:00 * Location: Mediterranean Sea * Campaign: POEM01IS * Basis: Shikmona * Method/Device: CTD/Rosette (CTD-RO)
IL4719850002800030 * Latitude Start: 34.000000 * Longitude Start: 33.500000 * Latitude End: 34.000000 * Longitude End: 33.500000 * Date/Time Start: 1985-10-16T04:10:00 * Date/Time End: 1985-10-16T04:10:00 * Location: Mediterranean Sea * Campaign: POEM01IS * Basis: Shikmona * Method/Device: CTD/Rosette (CTD-RO)
Parameter(s):
| # | Name | Short Name | Unit | Principal Investigator | Method/Device | Comment |
|---|---|---|---|---|---|---|
| 1 | Event label | Event | ||||
| 2 | Date/Time of event | Date/Time | ||||
| 3 | Latitude of event | Latitude | ||||
| 4 | Longitude of event | Longitude | ||||
| 5 | DEPTH, water | Depth water | m | Geocode | ||
| 6 | Pressure, water | Press | dbar | Hecht, A | CTD | |
| 7 | Temperature, water | Temp | °C | Hecht, A | CTD | |
| 8 | Salinity | Sal | Hecht, A | CTD |
License:
Creative Commons Attribution 3.0 Unported (CC-BY-3.0)
Size:
303378 data points
Data
| 1 Event | 2 Date/Time | 3 Latitude | 4 Longitude | 5 Depth water [m] | 6 Press [dbar] | 7 Temp [°C] | 8 Sal |
|---|---|---|---|---|---|---|---|
| IL4719850002800010 | 1985-10-15T19:10 | 34.0000 | 34.5000 | 0.00 | 0 | 24.165 | 39.491 |
| IL4719850002800010 | 1985-10-15T19:10 | 34.0000 | 34.5000 | 0.99 | 1 | 24.165 | 39.491 |
| IL4719850002800010 | 1985-10-15T19:10 | 34.0000 | 34.5000 | 1.98 | 2 | 24.165 | 39.491 |
| IL4719850002800010 | 1985-10-15T19:10 | 34.0000 | 34.5000 | 2.98 | 3 | 24.165 | 39.491 |
| IL4719850002800010 | 1985-10-15T19:10 | 34.0000 | 34.5000 | 3.97 | 4 | 24.165 | 39.491 |
| IL4719850002800010 | 1985-10-15T19:10 | 34.0000 | 34.5000 | 4.96 | 5 | 24.165 | 39.491 |
| IL4719850002800010 | 1985-10-15T19:10 | 34.0000 | 34.5000 | 5.95 | 6 | 24.163 | 39.491 |
| IL4719850002800010 | 1985-10-15T19:10 | 34.0000 | 34.5000 | 6.95 | 7 | 24.159 | 39.491 |
| IL4719850002800010 | 1985-10-15T19:10 | 34.0000 | 34.5000 | 7.94 | 8 | 24.163 | 39.488 |
| IL4719850002800010 | 1985-10-15T19:10 | 34.0000 | 34.5000 | 8.93 | 9 | 24.159 | 39.490 |
| IL4719850002800010 | 1985-10-15T19:10 | 34.0000 | 34.5000 | 9.92 | 10 | 24.163 | 39.490 |
| IL4719850002800010 | 1985-10-15T19:10 | 34.0000 | 34.5000 | 10.92 | 11 | 24.163 | 39.490 |
| IL4719850002800010 | 1985-10-15T19:10 | 34.0000 | 34.5000 | 11.91 | 12 | 24.163 | 39.490 |
| IL4719850002800010 | 1985-10-15T19:10 | 34.0000 | 34.5000 | 12.90 | 13 | 24.163 | 39.490 |
| IL4719850002800010 | 1985-10-15T19:10 | 34.0000 | 34.5000 | 13.89 | 14 | 24.162 | 39.490 |
| IL4719850002800010 | 1985-10-15T19:10 | 34.0000 | 34.5000 | 14.89 | 15 | 24.163 | 39.490 |
| IL4719850002800010 | 1985-10-15T19:10 | 34.0000 | 34.5000 | 15.88 | 16 | 24.160 | 39.490 |
| IL4719850002800010 | 1985-10-15T19:10 | 34.0000 | 34.5000 | 16.87 | 17 | 24.162 | 39.490 |
| IL4719850002800010 | 1985-10-15T19:10 | 34.0000 | 34.5000 | 17.86 | 18 | 24.162 | 39.490 |
| IL4719850002800010 | 1985-10-15T19:10 | 34.0000 | 34.5000 | 18.86 | 19 | 24.163 | 39.490 |
| IL4719850002800010 | 1985-10-15T19:10 | 34.0000 | 34.5000 | 19.85 | 20 | 24.163 | 39.490 |
| IL4719850002800010 | 1985-10-15T19:10 | 34.0000 | 34.5000 | 20.84 | 21 | 24.163 | 39.490 |
| IL4719850002800010 | 1985-10-15T19:10 | 34.0000 | 34.5000 | 21.83 | 22 | 24.160 | 39.490 |
| IL4719850002800010 | 1985-10-15T19:10 | 34.0000 | 34.5000 | 22.83 | 23 | 24.160 | 39.488 |
| IL4719850002800010 | 1985-10-15T19:10 | 34.0000 | 34.5000 | 23.82 | 24 | 24.160 | 39.488 |
| IL4719850002800010 | 1985-10-15T19:10 | 34.0000 | 34.5000 | 24.81 | 25 | 24.162 | 39.488 |
| IL4719850002800010 | 1985-10-15T19:10 | 34.0000 | 34.5000 | 25.80 | 26 | 24.160 | 39.488 |
| IL4719850002800010 | 1985-10-15T19:10 | 34.0000 | 34.5000 | 26.80 | 27 | 24.156 | 39.487 |
| IL4719850002800010 | 1985-10-15T19:10 | 34.0000 | 34.5000 | 27.79 | 28 | 24.149 | 39.486 |
| IL4719850002800010 | 1985-10-15T19:10 | 34.0000 | 34.5000 | 28.78 | 29 | 24.138 | 39.484 |
| IL4719850002800010 | 1985-10-15T19:10 | 34.0000 | 34.5000 | 29.77 | 30 | 24.131 | 39.483 |
| IL4719850002800010 | 1985-10-15T19:10 | 34.0000 | 34.5000 | 30.76 | 31 | 24.107 | 39.472 |
| IL4719850002800010 | 1985-10-15T19:10 | 34.0000 | 34.5000 | 31.76 | 32 | 23.666 | 39.328 |
| IL4719850002800010 | 1985-10-15T19:10 | 34.0000 | 34.5000 | 32.75 | 33 | 22.749 | 39.189 |
| IL4719850002800010 | 1985-10-15T19:10 | 34.0000 | 34.5000 | 33.74 | 34 | 21.926 | 39.132 |
| IL4719850002800010 | 1985-10-15T19:10 | 34.0000 | 34.5000 | 34.73 | 35 | 21.253 | 38.980 |
| IL4719850002800010 | 1985-10-15T19:10 | 34.0000 | 34.5000 | 35.73 | 36 | 20.607 | 38.952 |
| IL4719850002800010 | 1985-10-15T19:10 | 34.0000 | 34.5000 | 36.72 | 37 | 20.288 | 38.877 |
| IL4719850002800010 | 1985-10-15T19:10 | 34.0000 | 34.5000 | 37.71 | 38 | 19.802 | 38.826 |
| IL4719850002800010 | 1985-10-15T19:10 | 34.0000 | 34.5000 | 38.70 | 39 | 19.606 | 38.819 |
| IL4719850002800010 | 1985-10-15T19:10 | 34.0000 | 34.5000 | 39.70 | 40 | 19.433 | 38.797 |
| IL4719850002800010 | 1985-10-15T19:10 | 34.0000 | 34.5000 | 40.69 | 41 | 19.412 | 38.847 |
| IL4719850002800010 | 1985-10-15T19:10 | 34.0000 | 34.5000 | 41.68 | 42 | 19.444 | 38.887 |
| IL4719850002800010 | 1985-10-15T19:10 | 34.0000 | 34.5000 | 42.67 | 43 | 19.408 | 38.896 |
| IL4719850002800010 | 1985-10-15T19:10 | 34.0000 | 34.5000 | 43.67 | 44 | 19.287 | 38.893 |
| IL4719850002800010 | 1985-10-15T19:10 | 34.0000 | 34.5000 | 44.66 | 45 | 19.174 | 38.903 |
| IL4719850002800010 | 1985-10-15T19:10 | 34.0000 | 34.5000 | 45.65 | 46 | 19.142 | 38.938 |
| IL4719850002800010 | 1985-10-15T19:10 | 34.0000 | 34.5000 | 46.64 | 47 | 19.115 | 38.970 |
| IL4719850002800010 | 1985-10-15T19:10 | 34.0000 | 34.5000 | 47.63 | 48 | 19.059 | 38.973 |
| IL4719850002800010 | 1985-10-15T19:10 | 34.0000 | 34.5000 | 48.63 | 49 | 18.955 | 38.967 |
| IL4719850002800010 | 1985-10-15T19:10 | 34.0000 | 34.5000 | 49.62 | 50 | 18.847 | 38.965 |
| IL4719850002800010 | 1985-10-15T19:10 | 34.0000 | 34.5000 | 50.61 | 51 | 18.777 | 38.960 |
| IL4719850002800010 | 1985-10-15T19:10 | 34.0000 | 34.5000 | 51.60 | 52 | 18.687 | 38.972 |
| IL4719850002800010 | 1985-10-15T19:10 | 34.0000 | 34.5000 | 52.60 | 53 | 18.645 | 38.979 |
| IL4719850002800010 | 1985-10-15T19:10 | 34.0000 | 34.5000 | 53.59 | 54 | 18.590 | 38.987 |
| IL4719850002800010 | 1985-10-15T19:10 | 34.0000 | 34.5000 | 54.58 | 55 | 18.513 | 38.984 |
| IL4719850002800010 | 1985-10-15T19:10 | 34.0000 | 34.5000 | 55.57 | 56 | 18.406 | 38.979 |
| IL4719850002800010 | 1985-10-15T19:10 | 34.0000 | 34.5000 | 56.56 | 57 | 18.315 | 38.987 |
| IL4719850002800010 | 1985-10-15T19:10 | 34.0000 | 34.5000 | 57.56 | 58 | 18.256 | 38.986 |
| IL4719850002800010 | 1985-10-15T19:10 | 34.0000 | 34.5000 | 58.55 | 59 | 18.174 | 38.993 |
| IL4719850002800010 | 1985-10-15T19:10 | 34.0000 | 34.5000 | 59.54 | 60 | 18.090 | 38.995 |
| IL4719850002800010 | 1985-10-15T19:10 | 34.0000 | 34.5000 | 60.53 | 61 | 17.990 | 38.998 |
| IL4719850002800010 | 1985-10-15T19:10 | 34.0000 | 34.5000 | 61.53 | 62 | 17.924 | 39.005 |
| IL4719850002800010 | 1985-10-15T19:10 | 34.0000 | 34.5000 | 62.52 | 63 | 17.875 | 39.007 |
| IL4719850002800010 | 1985-10-15T19:10 | 34.0000 | 34.5000 | 63.51 | 64 | 17.819 | 39.005 |
| IL4719850002800010 | 1985-10-15T19:10 | 34.0000 | 34.5000 | 64.50 | 65 | 17.757 | 39.005 |
| IL4719850002800010 | 1985-10-15T19:10 | 34.0000 | 34.5000 | 65.49 | 66 | 17.729 | 39.009 |
| IL4719850002800010 | 1985-10-15T19:10 | 34.0000 | 34.5000 | 66.49 | 67 | 17.705 | 39.013 |
| IL4719850002800010 | 1985-10-15T19:10 | 34.0000 | 34.5000 | 67.48 | 68 | 17.672 | 39.015 |
| IL4719850002800010 | 1985-10-15T19:10 | 34.0000 | 34.5000 | 68.47 | 69 | 17.643 | 39.015 |
| IL4719850002800010 | 1985-10-15T19:10 | 34.0000 | 34.5000 | 69.46 | 70 | 17.625 | 39.016 |
| IL4719850002800010 | 1985-10-15T19:10 | 34.0000 | 34.5000 | 70.46 | 71 | 17.593 | 39.014 |
| IL4719850002800010 | 1985-10-15T19:10 | 34.0000 | 34.5000 | 71.45 | 72 | 17.552 | 39.018 |
| IL4719850002800010 | 1985-10-15T19:10 | 34.0000 | 34.5000 | 72.44 | 73 | 17.523 | 39.020 |
| IL4719850002800010 | 1985-10-15T19:10 | 34.0000 | 34.5000 | 73.43 | 74 | 17.481 | 39.020 |
| IL4719850002800010 | 1985-10-15T19:10 | 34.0000 | 34.5000 | 74.42 | 75 | 17.440 | 39.022 |
| IL4719850002800010 | 1985-10-15T19:10 | 34.0000 | 34.5000 | 75.42 | 76 | 17.410 | 39.021 |
| IL4719850002800010 | 1985-10-15T19:10 | 34.0000 | 34.5000 | 76.41 | 77 | 17.364 | 39.022 |
| IL4719850002800010 | 1985-10-15T19:10 | 34.0000 | 34.5000 | 77.40 | 78 | 17.332 | 39.023 |
| IL4719850002800010 | 1985-10-15T19:10 | 34.0000 | 34.5000 | 78.39 | 79 | 17.298 | 39.025 |
| IL4719850002800010 | 1985-10-15T19:10 | 34.0000 | 34.5000 | 79.38 | 80 | 17.274 | 39.025 |
| IL4719850002800010 | 1985-10-15T19:10 | 34.0000 | 34.5000 | 80.38 | 81 | 17.252 | 39.026 |
| IL4719850002800010 | 1985-10-15T19:10 | 34.0000 | 34.5000 | 81.37 | 82 | 17.231 | 39.027 |
| IL4719850002800010 | 1985-10-15T19:10 | 34.0000 | 34.5000 | 82.36 | 83 | 17.204 | 39.026 |
| IL4719850002800010 | 1985-10-15T19:10 | 34.0000 | 34.5000 | 83.35 | 84 | 17.153 | 39.025 |
| IL4719850002800010 | 1985-10-15T19:10 | 34.0000 | 34.5000 | 84.35 | 85 | 17.120 | 39.027 |
| IL4719850002800010 | 1985-10-15T19:10 | 34.0000 | 34.5000 | 85.34 | 86 | 17.091 | 39.028 |
| IL4719850002800010 | 1985-10-15T19:10 | 34.0000 | 34.5000 | 86.33 | 87 | 17.066 | 39.029 |
| IL4719850002800010 | 1985-10-15T19:10 | 34.0000 | 34.5000 | 87.32 | 88 | 17.041 | 39.028 |
| IL4719850002800010 | 1985-10-15T19:10 | 34.0000 | 34.5000 | 88.31 | 89 | 17.009 | 39.028 |
| IL4719850002800010 | 1985-10-15T19:10 | 34.0000 | 34.5000 | 89.31 | 90 | 16.979 | 39.034 |
| IL4719850002800010 | 1985-10-15T19:10 | 34.0000 | 34.5000 | 90.30 | 91 | 16.965 | 39.034 |
| IL4719850002800010 | 1985-10-15T19:10 | 34.0000 | 34.5000 | 91.29 | 92 | 16.947 | 39.035 |
| IL4719850002800010 | 1985-10-15T19:10 | 34.0000 | 34.5000 | 92.28 | 93 | 16.916 | 39.035 |
| IL4719850002800010 | 1985-10-15T19:10 | 34.0000 | 34.5000 | 93.27 | 94 | 16.902 | 39.037 |
| IL4719850002800010 | 1985-10-15T19:10 | 34.0000 | 34.5000 | 94.27 | 95 | 16.882 | 39.036 |
| IL4719850002800010 | 1985-10-15T19:10 | 34.0000 | 34.5000 | 95.26 | 96 | 16.867 | 39.041 |
| IL4719850002800010 | 1985-10-15T19:10 | 34.0000 | 34.5000 | 96.25 | 97 | 16.853 | 39.042 |
| IL4719850002800010 | 1985-10-15T19:10 | 34.0000 | 34.5000 | 97.24 | 98 | 16.847 | 39.043 |
| IL4719850002800010 | 1985-10-15T19:10 | 34.0000 | 34.5000 | 98.23 | 99 | 16.833 | 39.043 |
| IL4719850002800010 | 1985-10-15T19:10 | 34.0000 | 34.5000 | 99.23 | 100 | 16.813 | 39.043 |
| IL4719850002800010 | 1985-10-15T19:10 | 34.0000 | 34.5000 | 100.22 | 101 | 16.798 | 39.048 |
| IL4719850002800010 | 1985-10-15T19:10 | 34.0000 | 34.5000 | 101.21 | 102 | 16.802 | 39.055 |
| IL4719850002800010 | 1985-10-15T19:10 | 34.0000 | 34.5000 | 102.20 | 103 | 16.794 | 39.060 |
| IL4719850002800010 | 1985-10-15T19:10 | 34.0000 | 34.5000 | 103.19 | 104 | 16.780 | 39.062 |
| IL4719850002800010 | 1985-10-15T19:10 | 34.0000 | 34.5000 | 104.19 | 105 | 16.770 | 39.062 |
| IL4719850002800010 | 1985-10-15T19:10 | 34.0000 | 34.5000 | 105.18 | 106 | 16.757 | 39.062 |
| IL4719850002800010 | 1985-10-15T19:10 | 34.0000 | 34.5000 | 106.17 | 107 | 16.739 | 39.063 |
| IL4719850002800010 | 1985-10-15T19:10 | 34.0000 | 34.5000 | 107.16 | 108 | 16.729 | 39.064 |
| IL4719850002800010 | 1985-10-15T19:10 | 34.0000 | 34.5000 | 108.15 | 109 | 16.716 | 39.064 |
| IL4719850002800010 | 1985-10-15T19:10 | 34.0000 | 34.5000 | 109.15 | 110 | 16.704 | 39.063 |
| IL4719850002800010 | 1985-10-15T19:10 | 34.0000 | 34.5000 | 110.14 | 111 | 16.688 | 39.064 |
| IL4719850002800010 | 1985-10-15T19:10 | 34.0000 | 34.5000 | 111.13 | 112 | 16.673 | 39.064 |
| IL4719850002800010 | 1985-10-15T19:10 | 34.0000 | 34.5000 | 112.12 | 113 | 16.658 | 39.066 |
| IL4719850002800010 | 1985-10-15T19:10 | 34.0000 | 34.5000 | 113.11 | 114 | 16.638 | 39.066 |
| IL4719850002800010 | 1985-10-15T19:10 | 34.0000 | 34.5000 | 114.11 | 115 | 16.627 | 39.068 |
| IL4719850002800010 | 1985-10-15T19:10 | 34.0000 | 34.5000 | 115.10 | 116 | 16.625 | 39.069 |
| IL4719850002800010 | 1985-10-15T19:10 | 34.0000 | 34.5000 | 116.09 | 117 | 16.618 | 39.068 |
| IL4719850002800010 | 1985-10-15T19:10 | 34.0000 | 34.5000 | 117.08 | 118 | 16.600 | 39.069 |
| IL4719850002800010 | 1985-10-15T19:10 | 34.0000 | 34.5000 | 118.07 | 119 | 16.586 | 39.070 |
| IL4719850002800010 | 1985-10-15T19:10 | 34.0000 | 34.5000 | 119.07 | 120 | 16.573 | 39.071 |
| IL4719850002800010 | 1985-10-15T19:10 | 34.0000 | 34.5000 | 120.06 | 121 | 16.568 | 39.071 |
| IL4719850002800010 | 1985-10-15T19:10 | 34.0000 | 34.5000 | 121.05 | 122 | 16.561 | 39.073 |
| IL4719850002800010 | 1985-10-15T19:10 | 34.0000 | 34.5000 | 122.04 | 123 | 16.554 | 39.073 |
| IL4719850002800010 | 1985-10-15T19:10 | 34.0000 | 34.5000 | 123.03 | 124 | 16.538 | 39.074 |
| IL4719850002800010 | 1985-10-15T19:10 | 34.0000 | 34.5000 | 124.03 | 125 | 16.527 | 39.075 |
| IL4719850002800010 | 1985-10-15T19:10 | 34.0000 | 34.5000 | 125.02 | 126 | 16.516 | 39.075 |
| IL4719850002800010 | 1985-10-15T19:10 | 34.0000 | 34.5000 | 126.01 | 127 | 16.510 | 39.076 |
| IL4719850002800010 | 1985-10-15T19:10 | 34.0000 | 34.5000 | 127.00 | 128 | 16.499 | 39.076 |
| IL4719850002800010 | 1985-10-15T19:10 | 34.0000 | 34.5000 | 127.99 | 129 | 16.489 | 39.076 |
| IL4719850002800010 | 1985-10-15T19:10 | 34.0000 | 34.5000 | 128.99 | 130 | 16.481 | 39.077 |
| IL4719850002800010 | 1985-10-15T19:10 | 34.0000 | 34.5000 | 129.98 | 131 | 16.478 | 39.080 |
| IL4719850002800010 | 1985-10-15T19:10 | 34.0000 | 34.5000 | 130.97 | 132 | 16.475 | 39.080 |
| IL4719850002800010 | 1985-10-15T19:10 | 34.0000 | 34.5000 | 131.96 | 133 | 16.465 | 39.080 |
| IL4719850002800010 | 1985-10-15T19:10 | 34.0000 | 34.5000 | 132.95 | 134 | 16.454 | 39.080 |
| IL4719850002800010 | 1985-10-15T19:10 | 34.0000 | 34.5000 | 133.95 | 135 | 16.444 | 39.081 |
| IL4719850002800010 | 1985-10-15T19:10 | 34.0000 | 34.5000 | 134.94 | 136 | 16.436 | 39.081 |
| IL4719850002800010 | 1985-10-15T19:10 | 34.0000 | 34.5000 | 135.93 | 137 | 16.427 | 39.082 |
| IL4719850002800010 | 1985-10-15T19:10 | 34.0000 | 34.5000 | 136.92 | 138 | 16.420 | 39.082 |
| IL4719850002800010 | 1985-10-15T19:10 | 34.0000 | 34.5000 | 137.91 | 139 | 16.409 | 39.083 |
| IL4719850002800010 | 1985-10-15T19:10 | 34.0000 | 34.5000 | 138.90 | 140 | 16.399 | 39.083 |
| IL4719850002800010 | 1985-10-15T19:10 | 34.0000 | 34.5000 | 139.90 | 141 | 16.392 | 39.084 |
| IL4719850002800010 | 1985-10-15T19:10 | 34.0000 | 34.5000 | 140.89 | 142 | 16.388 | 39.085 |
| IL4719850002800010 | 1985-10-15T19:10 | 34.0000 | 34.5000 | 141.88 | 143 | 16.384 | 39.085 |
| IL4719850002800010 | 1985-10-15T19:10 | 34.0000 | 34.5000 | 142.87 | 144 | 16.378 | 39.085 |
| IL4719850002800010 | 1985-10-15T19:10 | 34.0000 | 34.5000 | 143.86 | 145 | 16.372 | 39.087 |
| IL4719850002800010 | 1985-10-15T19:10 | 34.0000 | 34.5000 | 144.86 | 146 | 16.374 | 39.084 |
| IL4719850002800010 | 1985-10-15T19:10 | 34.0000 | 34.5000 | 145.85 | 147 | 16.364 | 39.087 |
| IL4719850002800010 | 1985-10-15T19:10 | 34.0000 | 34.5000 | 146.84 | 148 | 16.361 | 39.088 |
| IL4719850002800010 | 1985-10-15T19:10 | 34.0000 | 34.5000 | 147.83 | 149 | 16.357 | 39.088 |
| IL4719850002800010 | 1985-10-15T19:10 | 34.0000 | 34.5000 | 148.82 | 150 | 16.354 | 39.089 |
| IL4719850002800010 | 1985-10-15T19:10 | 34.0000 | 34.5000 | 149.81 | 151 | 16.350 | 39.089 |
| IL4719850002800010 | 1985-10-15T19:10 | 34.0000 | 34.5000 | 150.81 | 152 | 16.349 | 39.090 |
| IL4719850002800010 | 1985-10-15T19:10 | 34.0000 | 34.5000 | 151.80 | 153 | 16.346 | 39.090 |
| IL4719850002800010 | 1985-10-15T19:10 | 34.0000 | 34.5000 | 152.79 | 154 | 16.343 | 39.090 |
| IL4719850002800010 | 1985-10-15T19:10 | 34.0000 | 34.5000 | 153.78 | 155 | 16.343 | 39.090 |
| IL4719850002800010 | 1985-10-15T19:10 | 34.0000 | 34.5000 | 154.77 | 156 | 16.340 | 39.090 |
| IL4719850002800010 | 1985-10-15T19:10 | 34.0000 | 34.5000 | 155.77 | 157 | 16.336 | 39.090 |
| IL4719850002800010 | 1985-10-15T19:10 | 34.0000 | 34.5000 | 156.76 | 158 | 16.326 | 39.091 |
| IL4719850002800010 | 1985-10-15T19:10 | 34.0000 | 34.5000 | 157.75 | 159 | 16.318 | 39.091 |
| IL4719850002800010 | 1985-10-15T19:10 | 34.0000 | 34.5000 | 158.74 | 160 | 16.312 | 39.091 |
| IL4719850002800010 | 1985-10-15T19:10 | 34.0000 | 34.5000 | 159.73 | 161 | 16.305 | 39.094 |
| IL4719850002800010 | 1985-10-15T19:10 | 34.0000 | 34.5000 | 160.72 | 162 | 16.302 | 39.094 |
| IL4719850002800010 | 1985-10-15T19:10 | 34.0000 | 34.5000 | 161.72 | 163 | 16.299 | 39.095 |
| IL4719850002800010 | 1985-10-15T19:10 | 34.0000 | 34.5000 | 162.71 | 164 | 16.298 | 39.095 |
| IL4719850002800010 | 1985-10-15T19:10 | 34.0000 | 34.5000 | 163.70 | 165 | 16.295 | 39.096 |
| IL4719850002800010 | 1985-10-15T19:10 | 34.0000 | 34.5000 | 164.69 | 166 | 16.292 | 39.097 |
| IL4719850002800010 | 1985-10-15T19:10 | 34.0000 | 34.5000 | 165.68 | 167 | 16.287 | 39.097 |
| IL4719850002800010 | 1985-10-15T19:10 | 34.0000 | 34.5000 | 166.68 | 168 | 16.281 | 39.097 |
| IL4719850002800010 | 1985-10-15T19:10 | 34.0000 | 34.5000 | 167.67 | 169 | 16.275 | 39.098 |
| IL4719850002800010 | 1985-10-15T19:10 | 34.0000 | 34.5000 | 168.66 | 170 | 16.271 | 39.098 |
| IL4719850002800010 | 1985-10-15T19:10 | 34.0000 | 34.5000 | 169.65 | 171 | 16.267 | 39.098 |
| IL4719850002800010 | 1985-10-15T19:10 | 34.0000 | 34.5000 | 170.64 | 172 | 16.263 | 39.098 |
| IL4719850002800010 | 1985-10-15T19:10 | 34.0000 | 34.5000 | 171.63 | 173 | 16.257 | 39.101 |
| IL4719850002800010 | 1985-10-15T19:10 | 34.0000 | 34.5000 | 172.63 | 174 | 16.257 | 39.102 |
| IL4719850002800010 | 1985-10-15T19:10 | 34.0000 | 34.5000 | 173.62 | 175 | 16.256 | 39.103 |
| IL4719850002800010 | 1985-10-15T19:10 | 34.0000 | 34.5000 | 174.61 | 176 | 16.253 | 39.103 |
| IL4719850002800010 | 1985-10-15T19:10 | 34.0000 | 34.5000 | 175.60 | 177 | 16.250 | 39.102 |
| IL4719850002800010 | 1985-10-15T19:10 | 34.0000 | 34.5000 | 176.59 | 178 | 16.246 | 39.103 |
| IL4719850002800010 | 1985-10-15T19:10 | 34.0000 | 34.5000 | 177.58 | 179 | 16.245 | 39.103 |
| IL4719850002800010 | 1985-10-15T19:10 | 34.0000 | 34.5000 | 178.58 | 180 | 16.243 | 39.103 |
| IL4719850002800010 | 1985-10-15T19:10 | 34.0000 | 34.5000 | 179.57 | 181 | 16.240 | 39.103 |
| IL4719850002800010 | 1985-10-15T19:10 | 34.0000 | 34.5000 | 180.56 | 182 | 16.239 | 39.103 |
| IL4719850002800010 | 1985-10-15T19:10 | 34.0000 | 34.5000 | 181.55 | 183 | 16.238 | 39.104 |
| IL4719850002800010 | 1985-10-15T19:10 | 34.0000 | 34.5000 | 182.54 | 184 | 16.236 | 39.104 |
| IL4719850002800010 | 1985-10-15T19:10 | 34.0000 | 34.5000 | 183.53 | 185 | 16.235 | 39.104 |
| IL4719850002800010 | 1985-10-15T19:10 | 34.0000 | 34.5000 | 184.53 | 186 | 16.233 | 39.104 |
| IL4719850002800010 | 1985-10-15T19:10 | 34.0000 | 34.5000 | 185.52 | 187 | 16.232 | 39.104 |
| IL4719850002800010 | 1985-10-15T19:10 | 34.0000 | 34.5000 | 186.51 | 188 | 16.228 | 39.104 |
| IL4719850002800010 | 1985-10-15T19:10 | 34.0000 | 34.5000 | 187.50 | 189 | 16.224 | 39.105 |
| IL4719850002800010 | 1985-10-15T19:10 | 34.0000 | 34.5000 | 188.49 | 190 | 16.219 | 39.105 |
| IL4719850002800010 | 1985-10-15T19:10 | 34.0000 | 34.5000 | 189.48 | 191 | 16.215 | 39.105 |
| IL4719850002800010 | 1985-10-15T19:10 | 34.0000 | 34.5000 | 190.48 | 192 | 16.212 | 39.105 |
| IL4719850002800010 | 1985-10-15T19:10 | 34.0000 | 34.5000 | 191.47 | 193 | 16.209 | 39.105 |
| IL4719850002800010 | 1985-10-15T19:10 | 34.0000 | 34.5000 | 192.46 | 194 | 16.208 | 39.105 |
| IL4719850002800010 | 1985-10-15T19:10 | 34.0000 | 34.5000 | 193.45 | 195 | 16.204 | 39.105 |
| IL4719850002800010 | 1985-10-15T19:10 | 34.0000 | 34.5000 | 194.44 | 196 | 16.201 | 39.105 |
| IL4719850002800010 | 1985-10-15T19:10 | 34.0000 | 34.5000 | 195.43 | 197 | 16.198 | 39.105 |
| IL4719850002800010 | 1985-10-15T19:10 | 34.0000 | 34.5000 | 196.43 | 198 | 16.195 | 39.106 |
| IL4719850002800010 | 1985-10-15T19:10 | 34.0000 | 34.5000 | 197.42 | 199 | 16.193 | 39.106 |
| IL4719850002800010 | 1985-10-15T19:10 | 34.0000 | 34.5000 | 198.41 | 200 | 16.190 | 39.106 |
| IL4719850002800010 | 1985-10-15T19:10 | 34.0000 | 34.5000 | 199.40 | 201 | 16.187 | 39.106 |
| IL4719850002800010 | 1985-10-15T19:10 | 34.0000 | 34.5000 | 200.39 | 202 | 16.184 | 39.105 |
| IL4719850002800010 | 1985-10-15T19:10 | 34.0000 | 34.5000 | 201.38 | 203 | 16.180 | 39.106 |
| IL4719850002800010 | 1985-10-15T19:10 | 34.0000 | 34.5000 | 202.37 | 204 | 16.179 | 39.106 |
| IL4719850002800010 | 1985-10-15T19:10 | 34.0000 | 34.5000 | 203.37 | 205 | 16.176 | 39.106 |
| IL4719850002800010 | 1985-10-15T19:10 | 34.0000 | 34.5000 | 204.36 | 206 | 16.176 | 39.106 |
| IL4719850002800010 | 1985-10-15T19:10 | 34.0000 | 34.5000 | 205.35 | 207 | 16.173 | 39.105 |
| IL4719850002800010 | 1985-10-15T19:10 | 34.0000 | 34.5000 | 206.34 | 208 | 16.173 | 39.106 |
| IL4719850002800010 | 1985-10-15T19:10 | 34.0000 | 34.5000 | 207.33 | 209 | 16.173 | 39.106 |
| IL4719850002800010 | 1985-10-15T19:10 | 34.0000 | 34.5000 | 208.32 | 210 | 16.170 | 39.106 |
| IL4719850002800010 | 1985-10-15T19:10 | 34.0000 | 34.5000 | 209.32 | 211 | 16.170 | 39.106 |
| IL4719850002800010 | 1985-10-15T19:10 | 34.0000 | 34.5000 | 210.31 | 212 | 16.169 | 39.106 |
| IL4719850002800010 | 1985-10-15T19:10 | 34.0000 | 34.5000 | 211.30 | 213 | 16.167 | 39.106 |
| IL4719850002800010 | 1985-10-15T19:10 | 34.0000 | 34.5000 | 212.29 | 214 | 16.166 | 39.106 |
| IL4719850002800010 | 1985-10-15T19:10 | 34.0000 | 34.5000 | 213.28 | 215 | 16.165 | 39.106 |
| IL4719850002800010 | 1985-10-15T19:10 | 34.0000 | 34.5000 | 214.27 | 216 | 16.163 | 39.106 |
| IL4719850002800010 | 1985-10-15T19:10 | 34.0000 | 34.5000 | 215.26 | 217 | 16.163 | 39.108 |
| IL4719850002800010 | 1985-10-15T19:10 | 34.0000 | 34.5000 | 216.26 | 218 | 16.162 | 39.108 |
| IL4719850002800010 | 1985-10-15T19:10 | 34.0000 | 34.5000 | 217.25 | 219 | 16.160 | 39.108 |
| IL4719850002800010 | 1985-10-15T19:10 | 34.0000 | 34.5000 | 218.24 | 220 | 16.159 | 39.108 |
| IL4719850002800010 | 1985-10-15T19:10 | 34.0000 | 34.5000 | 219.23 | 221 | 16.156 | 39.108 |
| IL4719850002800010 | 1985-10-15T19:10 | 34.0000 | 34.5000 | 220.22 | 222 | 16.156 | 39.108 |
| IL4719850002800010 | 1985-10-15T19:10 | 34.0000 | 34.5000 | 221.21 | 223 | 16.156 | 39.108 |
| IL4719850002800010 | 1985-10-15T19:10 | 34.0000 | 34.5000 | 222.21 | 224 | 16.153 | 39.108 |
| IL4719850002800010 | 1985-10-15T19:10 | 34.0000 | 34.5000 | 223.20 | 225 | 16.152 | 39.108 |
| IL4719850002800010 | 1985-10-15T19:10 | 34.0000 | 34.5000 | 224.19 | 226 | 16.152 | 39.109 |
| IL4719850002800010 | 1985-10-15T19:10 | 34.0000 | 34.5000 | 225.18 | 227 | 16.152 | 39.109 |
| IL4719850002800010 | 1985-10-15T19:10 | 34.0000 | 34.5000 | 226.17 | 228 | 16.150 | 39.109 |
| IL4719850002800010 | 1985-10-15T19:10 | 34.0000 | 34.5000 | 227.16 | 229 | 16.150 | 39.109 |
| IL4719850002800010 | 1985-10-15T19:10 | 34.0000 | 34.5000 | 228.15 | 230 | 16.149 | 39.109 |
| IL4719850002800010 | 1985-10-15T19:10 | 34.0000 | 34.5000 | 229.15 | 231 | 16.149 | 39.109 |
| IL4719850002800010 | 1985-10-15T19:10 | 34.0000 | 34.5000 | 230.14 | 232 | 16.148 | 39.109 |
| IL4719850002800010 | 1985-10-15T19:10 | 34.0000 | 34.5000 | 231.13 | 233 | 16.148 | 39.109 |
| IL4719850002800010 | 1985-10-15T19:10 | 34.0000 | 34.5000 | 232.12 | 234 | 16.146 | 39.109 |
| IL4719850002800010 | 1985-10-15T19:10 | 34.0000 | 34.5000 | 233.11 | 235 | 16.145 | 39.109 |
| IL4719850002800010 | 1985-10-15T19:10 | 34.0000 | 34.5000 | 234.10 | 236 | 16.145 | 39.109 |
| IL4719850002800010 | 1985-10-15T19:10 | 34.0000 | 34.5000 | 235.09 | 237 | 16.145 | 39.109 |
| IL4719850002800010 | 1985-10-15T19:10 | 34.0000 | 34.5000 | 236.09 | 238 | 16.145 | 39.109 |
| IL4719850002800010 | 1985-10-15T19:10 | 34.0000 | 34.5000 | 237.08 | 239 | 16.145 | 39.110 |
| IL4719850002800010 | 1985-10-15T19:10 | 34.0000 | 34.5000 | 238.07 | 240 | 16.145 | 39.110 |
| IL4719850002800010 | 1985-10-15T19:10 | 34.0000 | 34.5000 | 239.06 | 241 | 16.145 | 39.110 |
| IL4719850002800010 | 1985-10-15T19:10 | 34.0000 | 34.5000 | 240.05 | 242 | 16.143 | 39.110 |
| IL4719850002800010 | 1985-10-15T19:10 | 34.0000 | 34.5000 | 241.04 | 243 | 16.143 | 39.110 |
| IL4719850002800010 | 1985-10-15T19:10 | 34.0000 | 34.5000 | 242.03 | 244 | 16.142 | 39.109 |
| IL4719850002800010 | 1985-10-15T19:10 | 34.0000 | 34.5000 | 243.03 | 245 | 16.142 | 39.110 |
| IL4719850002800010 | 1985-10-15T19:10 | 34.0000 | 34.5000 | 244.02 | 246 | 16.142 | 39.110 |
| IL4719850002800010 | 1985-10-15T19:10 | 34.0000 | 34.5000 | 245.01 | 247 | 16.139 | 39.110 |
| IL4719850002800010 | 1985-10-15T19:10 | 34.0000 | 34.5000 | 246.00 | 248 | 16.138 | 39.110 |
| IL4719850002800010 | 1985-10-15T19:10 | 34.0000 | 34.5000 | 246.99 | 249 | 16.136 | 39.110 |
| IL4719850002800010 | 1985-10-15T19:10 | 34.0000 | 34.5000 | 247.98 | 250 | 16.135 | 39.110 |
| IL4719850002800010 | 1985-10-15T19:10 | 34.0000 | 34.5000 | 248.97 | 251 | 16.134 | 39.109 |
| IL4719850002800010 | 1985-10-15T19:10 | 34.0000 | 34.5000 | 249.97 | 252 | 16.131 | 39.109 |
| IL4719850002800010 | 1985-10-15T19:10 | 34.0000 | 34.5000 | 250.96 | 253 | 16.128 | 39.108 |
| IL4719850002800010 | 1985-10-15T19:10 | 34.0000 | 34.5000 | 251.95 | 254 | 16.125 | 39.108 |
| IL4719850002800010 | 1985-10-15T19:10 | 34.0000 | 34.5000 | 252.94 | 255 | 16.121 | 39.106 |
| IL4719850002800010 | 1985-10-15T19:10 | 34.0000 | 34.5000 | 253.93 | 256 | 16.118 | 39.105 |
| IL4719850002800010 | 1985-10-15T19:10 | 34.0000 | 34.5000 | 254.92 | 257 | 16.114 | 39.105 |
| IL4719850002800010 | 1985-10-15T19:10 | 34.0000 | 34.5000 | 255.91 | 258 | 16.108 | 39.104 |
| IL4719850002800010 | 1985-10-15T19:10 | 34.0000 | 34.5000 | 256.90 | 259 | 16.106 | 39.104 |
| IL4719850002800010 | 1985-10-15T19:10 | 34.0000 | 34.5000 | 257.90 | 260 | 16.104 | 39.104 |
| IL4719850002800010 | 1985-10-15T19:10 | 34.0000 | 34.5000 | 258.89 | 261 | 16.099 | 39.104 |
| IL4719850002800010 | 1985-10-15T19:10 | 34.0000 | 34.5000 | 259.88 | 262 | 16.097 | 39.104 |
| IL4719850002800010 | 1985-10-15T19:10 | 34.0000 | 34.5000 | 260.87 | 263 | 16.097 | 39.103 |
| IL4719850002800010 | 1985-10-15T19:10 | 34.0000 | 34.5000 | 261.86 | 264 | 16.094 | 39.103 |
| IL4719850002800010 | 1985-10-15T19:10 | 34.0000 | 34.5000 | 262.85 | 265 | 16.093 | 39.103 |
| IL4719850002800010 | 1985-10-15T19:10 | 34.0000 | 34.5000 | 263.84 | 266 | 16.090 | 39.102 |
| IL4719850002800010 | 1985-10-15T19:10 | 34.0000 | 34.5000 | 264.84 | 267 | 16.084 | 39.102 |
| IL4719850002800010 | 1985-10-15T19:10 | 34.0000 | 34.5000 | 265.83 | 268 | 16.082 | 39.101 |
| IL4719850002800010 | 1985-10-15T19:10 | 34.0000 | 34.5000 | 266.82 | 269 | 16.076 | 39.099 |
| IL4719850002800010 | 1985-10-15T19:10 | 34.0000 | 34.5000 | 267.81 | 270 | 16.072 | 39.099 |
| IL4719850002800010 | 1985-10-15T19:10 | 34.0000 | 34.5000 | 268.80 | 271 | 16.069 | 39.098 |
| IL4719850002800010 | 1985-10-15T19:10 | 34.0000 | 34.5000 | 269.79 | 272 | 16.066 | 39.097 |
| IL4719850002800010 | 1985-10-15T19:10 | 34.0000 | 34.5000 | 270.78 | 273 | 16.063 | 39.097 |
| IL4719850002800010 | 1985-10-15T19:10 | 34.0000 | 34.5000 | 271.77 | 274 | 16.059 | 39.097 |
| IL4719850002800010 | 1985-10-15T19:10 | 34.0000 | 34.5000 | 272.77 | 275 | 16.055 | 39.097 |
| IL4719850002800010 | 1985-10-15T19:10 | 34.0000 | 34.5000 | 273.76 | 276 | 16.052 | 39.096 |
| IL4719850002800010 | 1985-10-15T19:10 | 34.0000 | 34.5000 | 274.75 | 277 | 16.045 | 39.094 |
| IL4719850002800010 | 1985-10-15T19:10 | 34.0000 | 34.5000 | 275.74 | 278 | 16.034 | 39.092 |
| IL4719850002800010 | 1985-10-15T19:10 | 34.0000 | 34.5000 | 276.73 | 279 | 16.024 | 39.090 |
| IL4719850002800010 | 1985-10-15T19:10 | 34.0000 | 34.5000 | 277.72 | 280 | 16.017 | 39.090 |
| IL4719850002800010 | 1985-10-15T19:10 | 34.0000 | 34.5000 | 278.71 | 281 | 16.010 | 39.088 |
| IL4719850002800010 | 1985-10-15T19:10 | 34.0000 | 34.5000 | 279.70 | 282 | 15.998 | 39.087 |
| IL4719850002800010 | 1985-10-15T19:10 | 34.0000 | 34.5000 | 280.70 | 283 | 15.989 | 39.085 |
| IL4719850002800010 | 1985-10-15T19:10 | 34.0000 | 34.5000 | 281.69 | 284 | 15.982 | 39.083 |
| IL4719850002800010 | 1985-10-15T19:10 | 34.0000 | 34.5000 | 282.68 | 285 | 15.972 | 39.082 |
| IL4719850002800010 | 1985-10-15T19:10 | 34.0000 | 34.5000 | 283.67 | 286 | 15.963 | 39.081 |
| IL4719850002800010 | 1985-10-15T19:10 | 34.0000 | 34.5000 | 284.66 | 287 | 15.956 | 39.080 |
| IL4719850002800010 | 1985-10-15T19:10 | 34.0000 | 34.5000 | 285.65 | 288 | 15.949 | 39.078 |
| IL4719850002800010 | 1985-10-15T19:10 | 34.0000 | 34.5000 | 286.64 | 289 | 15.942 | 39.077 |
| IL4719850002800010 | 1985-10-15T19:10 | 34.0000 | 34.5000 | 287.63 | 290 | 15.932 | 39.076 |
| IL4719850002800010 | 1985-10-15T19:10 | 34.0000 | 34.5000 | 288.63 | 291 | 15.925 | 39.076 |
| IL4719850002800010 | 1985-10-15T19:10 | 34.0000 | 34.5000 | 289.62 | 292 | 15.913 | 39.074 |
| IL4719850002800010 | 1985-10-15T19:10 | 34.0000 | 34.5000 | 290.61 | 293 | 15.899 | 39.073 |
| IL4719850002800010 | 1985-10-15T19:10 | 34.0000 | 34.5000 | 291.60 | 294 | 15.895 | 39.071 |
| IL4719850002800010 | 1985-10-15T19:10 | 34.0000 | 34.5000 | 292.59 | 295 | 15.890 | 39.071 |
| IL4719850002800010 | 1985-10-15T19:10 | 34.0000 | 34.5000 | 293.58 | 296 | 15.885 | 39.070 |
| IL4719850002800010 | 1985-10-15T19:10 | 34.0000 | 34.5000 | 294.57 | 297 | 15.876 | 39.069 |
| IL4719850002800010 | 1985-10-15T19:10 | 34.0000 | 34.5000 | 295.56 | 298 | 15.868 | 39.069 |
| IL4719850002800010 | 1985-10-15T19:10 | 34.0000 | 34.5000 | 296.55 | 299 | 15.859 | 39.068 |
| IL4719850002800010 | 1985-10-15T19:10 | 34.0000 | 34.5000 | 297.55 | 300 | 15.852 | 39.067 |
| IL4719850002800010 | 1985-10-15T19:10 | 34.0000 | 34.5000 | 298.54 | 301 | 15.843 | 39.066 |
| IL4719850002800010 | 1985-10-15T19:10 | 34.0000 | 34.5000 | 299.53 | 302 | 15.836 | 39.064 |
| IL4719850002800010 | 1985-10-15T19:10 | 34.0000 | 34.5000 | 300.52 | 303 | 15.831 | 39.063 |
| IL4719850002800010 | 1985-10-15T19:10 | 34.0000 | 34.5000 | 301.51 | 304 | 15.819 | 39.062 |
| IL4719850002800010 | 1985-10-15T19:10 | 34.0000 | 34.5000 | 302.50 | 305 | 15.805 | 39.061 |
| IL4719850002800010 | 1985-10-15T19:10 | 34.0000 | 34.5000 | 303.49 | 306 | 15.791 | 39.060 |
| IL4719850002800010 | 1985-10-15T19:10 | 34.0000 | 34.5000 | 304.48 | 307 | 15.784 | 39.058 |
| IL4719850002800010 | 1985-10-15T19:10 | 34.0000 | 34.5000 | 305.47 | 308 | 15.779 | 39.058 |
| IL4719850002800010 | 1985-10-15T19:10 | 34.0000 | 34.5000 | 306.47 | 309 | 15.772 | 39.056 |
| IL4719850002800010 | 1985-10-15T19:10 | 34.0000 | 34.5000 | 307.46 | 310 | 15.765 | 39.056 |
| IL4719850002800010 | 1985-10-15T19:10 | 34.0000 | 34.5000 | 308.45 | 311 | 15.762 | 39.056 |
| IL4719850002800010 | 1985-10-15T19:10 | 34.0000 | 34.5000 | 309.44 | 312 | 15.758 | 39.056 |
| IL4719850002800010 | 1985-10-15T19:10 | 34.0000 | 34.5000 | 310.43 | 313 | 15.753 | 39.055 |
| IL4719850002800010 | 1985-10-15T19:10 | 34.0000 | 34.5000 | 311.42 | 314 | 15.751 | 39.055 |
| IL4719850002800010 | 1985-10-15T19:10 | 34.0000 | 34.5000 | 312.41 | 315 | 15.746 | 39.055 |
| IL4719850002800010 | 1985-10-15T19:10 | 34.0000 | 34.5000 | 313.40 | 316 | 15.741 | 39.054 |
| IL4719850002800010 | 1985-10-15T19:10 | 34.0000 | 34.5000 | 314.39 | 317 | 15.737 | 39.054 |
| IL4719850002800010 | 1985-10-15T19:10 | 34.0000 | 34.5000 | 315.39 | 318 | 15.732 | 39.054 |
| IL4719850002800010 | 1985-10-15T19:10 | 34.0000 | 34.5000 | 316.38 | 319 | 15.725 | 39.054 |
| IL4719850002800010 | 1985-10-15T19:10 | 34.0000 | 34.5000 | 317.37 | 320 | 15.722 | 39.053 |
| IL4719850002800010 | 1985-10-15T19:10 | 34.0000 | 34.5000 | 318.36 | 321 | 15.718 | 39.053 |
| IL4719850002800010 | 1985-10-15T19:10 | 34.0000 | 34.5000 | 319.35 | 322 | 15.713 | 39.051 |
| IL4719850002800010 | 1985-10-15T19:10 | 34.0000 | 34.5000 | 320.34 | 323 | 15.708 | 39.050 |
| IL4719850002800010 | 1985-10-15T19:10 | 34.0000 | 34.5000 | 321.33 | 324 | 15.704 | 39.049 |
| IL4719850002800010 | 1985-10-15T19:10 | 34.0000 | 34.5000 | 322.32 | 325 | 15.694 | 39.048 |
| IL4719850002800010 | 1985-10-15T19:10 | 34.0000 | 34.5000 | 323.31 | 326 | 15.685 | 39.048 |
| IL4719850002800010 | 1985-10-15T19:10 | 34.0000 | 34.5000 | 324.30 | 327 | 15.678 | 39.047 |
| IL4719850002800010 | 1985-10-15T19:10 | 34.0000 | 34.5000 | 325.30 | 328 | 15.670 | 39.046 |
| IL4719850002800010 | 1985-10-15T19:10 | 34.0000 | 34.5000 | 326.29 | 329 | 15.661 | 39.046 |
| IL4719850002800010 | 1985-10-15T19:10 | 34.0000 | 34.5000 | 327.28 | 330 | 15.656 | 39.046 |
| IL4719850002800010 | 1985-10-15T19:10 | 34.0000 | 34.5000 | 328.27 | 331 | 15.651 | 39.044 |
| IL4719850002800010 | 1985-10-15T19:10 | 34.0000 | 34.5000 | 329.26 | 332 | 15.647 | 39.044 |
| IL4719850002800010 | 1985-10-15T19:10 | 34.0000 | 34.5000 | 330.25 | 333 | 15.644 | 39.043 |
| IL4719850002800010 | 1985-10-15T19:10 | 34.0000 | 34.5000 | 331.24 | 334 | 15.640 | 39.043 |
| IL4719850002800010 | 1985-10-15T19:10 | 34.0000 | 34.5000 | 332.23 | 335 | 15.631 | 39.042 |
| IL4719850002800010 | 1985-10-15T19:10 | 34.0000 | 34.5000 | 333.22 | 336 | 15.626 | 39.041 |
| IL4719850002800010 | 1985-10-15T19:10 | 34.0000 | 34.5000 | 334.22 | 337 | 15.621 | 39.042 |
| IL4719850002800010 | 1985-10-15T19:10 | 34.0000 | 34.5000 | 335.21 | 338 | 15.616 | 39.042 |
| IL4719850002800010 | 1985-10-15T19:10 | 34.0000 | 34.5000 | 336.20 | 339 | 15.614 | 39.041 |
| IL4719850002800010 | 1985-10-15T19:10 | 34.0000 | 34.5000 | 337.19 | 340 | 15.607 | 39.041 |
| IL4719850002800010 | 1985-10-15T19:10 | 34.0000 | 34.5000 | 338.18 | 341 | 15.600 | 39.040 |
| IL4719850002800010 | 1985-10-15T19:10 | 34.0000 | 34.5000 | 339.17 | 342 | 15.586 | 39.037 |
| IL4719850002800010 | 1985-10-15T19:10 | 34.0000 | 34.5000 | 340.16 | 343 | 15.574 | 39.036 |
| IL4719850002800010 | 1985-10-15T19:10 | 34.0000 | 34.5000 | 341.15 | 344 | 15.571 | 39.035 |
| IL4719850002800010 | 1985-10-15T19:10 | 34.0000 | 34.5000 | 342.14 | 345 | 15.567 | 39.035 |
| IL4719850002800010 | 1985-10-15T19:10 | 34.0000 | 34.5000 | 343.13 | 346 | 15.562 | 39.034 |
| IL4719850002800010 | 1985-10-15T19:10 | 34.0000 | 34.5000 | 344.12 | 347 | 15.555 | 39.033 |
| IL4719850002800010 | 1985-10-15T19:10 | 34.0000 | 34.5000 | 345.12 | 348 | 15.546 | 39.032 |
| IL4719850002800010 | 1985-10-15T19:10 | 34.0000 | 34.5000 | 346.11 | 349 | 15.541 | 39.033 |
| IL4719850002800010 | 1985-10-15T19:10 | 34.0000 | 34.5000 | 347.10 | 350 | 15.536 | 39.032 |
| IL4719850002800010 | 1985-10-15T19:10 | 34.0000 | 34.5000 | 348.09 | 351 | 15.531 | 39.032 |
| IL4719850002800010 | 1985-10-15T19:10 | 34.0000 | 34.5000 | 349.08 | 352 | 15.527 | 39.032 |
| IL4719850002800010 | 1985-10-15T19:10 | 34.0000 | 34.5000 | 350.07 | 353 | 15.524 | 39.032 |
| IL4719850002800010 | 1985-10-15T19:10 | 34.0000 | 34.5000 | 351.06 | 354 | 15.519 | 39.032 |
| IL4719850002800010 | 1985-10-15T19:10 | 34.0000 | 34.5000 | 352.05 | 355 | 15.512 | 39.030 |
| IL4719850002800010 | 1985-10-15T19:10 | 34.0000 | 34.5000 | 353.04 | 356 | 15.505 | 39.029 |
| IL4719850002800010 | 1985-10-15T19:10 | 34.0000 | 34.5000 | 354.03 | 357 | 15.494 | 39.029 |
| IL4719850002800010 | 1985-10-15T19:10 | 34.0000 | 34.5000 | 355.02 | 358 | 15.486 | 39.028 |
| IL4719850002800010 | 1985-10-15T19:10 | 34.0000 | 34.5000 | 356.02 | 359 | 15.477 | 39.027 |
| IL4719850002800010 | 1985-10-15T19:10 | 34.0000 | 34.5000 | 357.01 | 360 | 15.468 | 39.027 |
| IL4719850002800010 | 1985-10-15T19:10 | 34.0000 | 34.5000 | 358.00 | 361 | 15.467 | 39.027 |
| IL4719850002800010 | 1985-10-15T19:10 | 34.0000 | 34.5000 | 358.99 | 362 | 15.463 | 39.027 |
| IL4719850002800010 | 1985-10-15T19:10 | 34.0000 | 34.5000 | 359.98 | 363 | 15.458 | 39.027 |
| IL4719850002800010 | 1985-10-15T19:10 | 34.0000 | 34.5000 | 360.97 | 364 | 15.451 | 39.027 |
| IL4719850002800010 | 1985-10-15T19:10 | 34.0000 | 34.5000 | 361.96 | 365 | 15.447 | 39.026 |
| IL4719850002800010 | 1985-10-15T19:10 | 34.0000 | 34.5000 | 362.95 | 366 | 15.444 | 39.026 |
| IL4719850002800010 | 1985-10-15T19:10 | 34.0000 | 34.5000 | 363.94 | 367 | 15.437 | 39.026 |
| IL4719850002800010 | 1985-10-15T19:10 | 34.0000 | 34.5000 | 364.93 | 368 | 15.432 | 39.026 |
| IL4719850002800010 | 1985-10-15T19:10 | 34.0000 | 34.5000 | 365.92 | 369 | 15.430 | 39.026 |
| IL4719850002800010 | 1985-10-15T19:10 | 34.0000 | 34.5000 | 366.92 | 370 | 15.428 | 39.026 |
| IL4719850002800010 | 1985-10-15T19:10 | 34.0000 | 34.5000 | 367.91 | 371 | 15.425 | 39.026 |
| IL4719850002800010 | 1985-10-15T19:10 | 34.0000 | 34.5000 | 368.90 | 372 | 15.423 | 39.026 |
| IL4719850002800010 | 1985-10-15T19:10 | 34.0000 | 34.5000 | 369.89 | 373 | 15.421 | 39.026 |
| IL4719850002800010 | 1985-10-15T19:10 | 34.0000 | 34.5000 | 370.88 | 374 | 15.416 | 39.025 |
| IL4719850002800010 | 1985-10-15T19:10 | 34.0000 | 34.5000 | 371.87 | 375 | 15.411 | 39.025 |
| IL4719850002800010 | 1985-10-15T19:10 | 34.0000 | 34.5000 | 372.86 | 376 | 15.409 | 39.026 |
| IL4719850002800010 | 1985-10-15T19:10 | 34.0000 | 34.5000 | 373.85 | 377 | 15.407 | 39.026 |
| IL4719850002800010 | 1985-10-15T19:10 | 34.0000 | 34.5000 | 374.84 | 378 | 15.399 | 39.026 |
| IL4719850002800010 | 1985-10-15T19:10 | 34.0000 | 34.5000 | 375.83 | 379 | 15.399 | 39.026 |
| IL4719850002800010 | 1985-10-15T19:10 | 34.0000 | 34.5000 | 376.82 | 380 | 15.399 | 39.026 |
| IL4719850002800010 | 1985-10-15T19:10 | 34.0000 | 34.5000 | 377.81 | 381 | 15.399 | 39.025 |
| IL4719850002800010 | 1985-10-15T19:10 | 34.0000 | 34.5000 | 378.80 | 382 | 15.395 | 39.025 |
| IL4719850002800010 | 1985-10-15T19:10 | 34.0000 | 34.5000 | 379.80 | 383 | 15.392 | 39.023 |
| IL4719850002800010 | 1985-10-15T19:10 | 34.0000 | 34.5000 | 380.79 | 384 | 15.387 | 39.022 |
| IL4719850002800010 | 1985-10-15T19:10 | 34.0000 | 34.5000 | 381.78 | 385 | 15.383 | 39.022 |
| IL4719850002800010 | 1985-10-15T19:10 | 34.0000 | 34.5000 | 382.77 | 386 | 15.380 | 39.021 |
| IL4719850002800010 | 1985-10-15T19:10 | 34.0000 | 34.5000 | 383.76 | 387 | 15.375 | 39.022 |
| IL4719850002800010 | 1985-10-15T19:10 | 34.0000 | 34.5000 | 384.75 | 388 | 15.371 | 39.021 |
| IL4719850002800010 | 1985-10-15T19:10 | 34.0000 | 34.5000 | 385.74 | 389 | 15.369 | 39.021 |
| IL4719850002800010 | 1985-10-15T19:10 | 34.0000 | 34.5000 | 386.73 | 390 | 15.362 | 39.020 |
| IL4719850002800010 | 1985-10-15T19:10 | 34.0000 | 34.5000 | 387.72 | 391 | 15.357 | 39.020 |
| IL4719850002800010 | 1985-10-15T19:10 | 34.0000 | 34.5000 | 388.71 | 392 | 15.352 | 39.020 |
| IL4719850002800010 | 1985-10-15T19:10 | 34.0000 | 34.5000 | 389.70 | 393 | 15.347 | 39.020 |
| IL4719850002800010 | 1985-10-15T19:10 | 34.0000 | 34.5000 | 390.69 | 394 | 15.345 | 39.020 |
| IL4719850002800010 | 1985-10-15T19:10 | 34.0000 | 34.5000 | 391.68 | 395 | 15.343 | 39.020 |
| IL4719850002800010 | 1985-10-15T19:10 | 34.0000 | 34.5000 | 392.68 | 396 | 15.336 | 39.020 |
| IL4719850002800010 | 1985-10-15T19:10 | 34.0000 | 34.5000 | 393.67 | 397 | 15.331 | 39.020 |
| IL4719850002800010 | 1985-10-15T19:10 | 34.0000 | 34.5000 | 394.66 | 398 | 15.326 | 39.018 |
| IL4719850002800010 | 1985-10-15T19:10 | 34.0000 | 34.5000 | 395.65 | 399 | 15.319 | 39.018 |
| IL4719850002800010 | 1985-10-15T19:10 | 34.0000 | 34.5000 | 396.64 | 400 | 15.315 | 39.016 |
| IL4719850002800010 | 1985-10-15T19:10 | 34.0000 | 34.5000 | 397.63 | 401 | 15.310 | 39.015 |
| IL4719850002800010 | 1985-10-15T19:10 | 34.0000 | 34.5000 | 398.62 | 402 | 15.302 | 39.014 |
| IL4719850002800010 | 1985-10-15T19:10 | 34.0000 | 34.5000 | 399.61 | 403 | 15.296 | 39.014 |
| IL4719850002800010 | 1985-10-15T19:10 | 34.0000 | 34.5000 | 400.60 | 404 | 15.293 | 39.013 |
| IL4719850002800010 | 1985-10-15T19:10 | 34.0000 | 34.5000 | 401.59 | 405 | 15.273 | 39.012 |
| IL4719850002800010 | 1985-10-15T19:10 | 34.0000 | 34.5000 | 402.58 | 406 | 15.253 | 39.011 |
| IL4719850002800010 | 1985-10-15T19:10 | 34.0000 | 34.5000 | 403.57 | 407 | 15.253 | 39.010 |
| IL4719850002800010 | 1985-10-15T19:10 | 34.0000 | 34.5000 | 404.56 | 408 | 15.253 | 39.009 |
| IL4719850002800010 | 1985-10-15T19:10 | 34.0000 | 34.5000 | 405.55 | 409 | 15.258 | 39.008 |
| IL4719850002800010 | 1985-10-15T19:10 | 34.0000 | 34.5000 | 406.54 | 410 | 15.262 | 39.008 |
| IL4719850002800010 | 1985-10-15T19:10 | 34.0000 | 34.5000 | 407.54 | 411 | 15.256 | 39.007 |
| IL4719850002800010 | 1985-10-15T19:10 | 34.0000 | 34.5000 | 408.53 | 412 | 15.253 | 39.007 |
| IL4719850002800010 | 1985-10-15T19:10 | 34.0000 | 34.5000 | 409.52 | 413 | 15.253 | 39.007 |
| IL4719850002800010 | 1985-10-15T19:10 | 34.0000 | 34.5000 | 410.51 | 414 | 15.255 | 39.009 |
| IL4719850002800010 | 1985-10-15T19:10 | 34.0000 | 34.5000 | 411.50 | 415 | 15.251 | 39.008 |
| IL4719850002800010 | 1985-10-15T19:10 | 34.0000 | 34.5000 | 412.49 | 416 | 15.244 | 39.006 |
| IL4719850002800010 | 1985-10-15T19:10 | 34.0000 | 34.5000 | 413.48 | 417 | 15.239 | 39.006 |
| IL4719850002800010 | 1985-10-15T19:10 | 34.0000 | 34.5000 | 414.47 | 418 | 15.222 | 39.002 |
| IL4719850002800010 | 1985-10-15T19:10 | 34.0000 | 34.5000 | 415.46 | 419 | 15.213 | 39.001 |
| IL4719850002800010 | 1985-10-15T19:10 | 34.0000 | 34.5000 | 416.45 | 420 | 15.210 | 39.001 |
| IL4719850002800010 | 1985-10-15T19:10 | 34.0000 | 34.5000 | 417.44 | 421 | 15.206 | 39.000 |
| IL4719850002800010 | 1985-10-15T19:10 | 34.0000 | 34.5000 | 418.43 | 422 | 15.201 | 39.000 |
| IL4719850002800010 | 1985-10-15T19:10 | 34.0000 | 34.5000 | 419.42 | 423 | 15.197 | 38.999 |
| IL4719850002800010 | 1985-10-15T19:10 | 34.0000 | 34.5000 | 420.41 | 424 | 15.194 | 38.998 |
| IL4719850002800010 | 1985-10-15T19:10 | 34.0000 | 34.5000 | 421.40 | 425 | 15.189 | 38.998 |
| IL4719850002800010 | 1985-10-15T19:10 | 34.0000 | 34.5000 | 422.39 | 426 | 15.180 | 38.995 |
| IL4719850002800010 | 1985-10-15T19:10 | 34.0000 | 34.5000 | 423.39 | 427 | 15.171 | 38.993 |
| IL4719850002800010 | 1985-10-15T19:10 | 34.0000 | 34.5000 | 424.38 | 428 | 15.163 | 38.993 |
| IL4719850002800010 | 1985-10-15T19:10 | 34.0000 | 34.5000 | 425.37 | 429 | 15.154 | 38.992 |
| IL4719850002800010 | 1985-10-15T19:10 | 34.0000 | 34.5000 | 426.36 | 430 | 15.149 | 38.991 |
| IL4719850002800010 | 1985-10-15T19:10 | 34.0000 | 34.5000 | 427.35 | 431 | 15.145 | 38.990 |
| IL4719850002800010 | 1985-10-15T19:10 | 34.0000 | 34.5000 | 428.34 | 432 | 15.140 | 38.988 |
| IL4719850002800010 | 1985-10-15T19:10 | 34.0000 | 34.5000 | 429.33 | 433 | 15.130 | 38.987 |
| IL4719850002800010 | 1985-10-15T19:10 | 34.0000 | 34.5000 | 430.32 | 434 | 15.123 | 38.986 |
| IL4719850002800010 | 1985-10-15T19:10 | 34.0000 | 34.5000 | 431.31 | 435 | 15.118 | 38.986 |
| IL4719850002800010 | 1985-10-15T19:10 | 34.0000 | 34.5000 | 432.30 | 436 | 15.112 | 38.985 |
| IL4719850002800010 | 1985-10-15T19:10 | 34.0000 | 34.5000 | 433.29 | 437 | 15.109 | 38.984 |
| IL4719850002800010 | 1985-10-15T19:10 | 34.0000 | 34.5000 | 434.28 | 438 | 15.102 | 38.983 |
| IL4719850002800010 | 1985-10-15T19:10 | 34.0000 | 34.5000 | 435.27 | 439 | 15.093 | 38.980 |
| IL4719850002800010 | 1985-10-15T19:10 | 34.0000 | 34.5000 | 436.26 | 440 | 15.083 | 38.979 |
| IL4719850002800010 | 1985-10-15T19:10 | 34.0000 | 34.5000 | 437.25 | 441 | 15.076 | 38.979 |
| IL4719850002800010 | 1985-10-15T19:10 | 34.0000 | 34.5000 | 438.24 | 442 | 15.071 | 38.978 |
| IL4719850002800010 | 1985-10-15T19:10 | 34.0000 | 34.5000 | 439.23 | 443 | 15.062 | 38.976 |
| IL4719850002800010 | 1985-10-15T19:10 | 34.0000 | 34.5000 | 440.22 | 444 | 15.053 | 38.974 |
| IL4719850002800010 | 1985-10-15T19:10 | 34.0000 | 34.5000 | 441.22 | 445 | 15.048 | 38.974 |
| IL4719850002800010 | 1985-10-15T19:10 | 34.0000 | 34.5000 | 442.21 | 446 | 15.045 | 38.974 |
| IL4719850002800010 | 1985-10-15T19:10 | 34.0000 | 34.5000 | 443.20 | 447 | 15.041 | 38.973 |
| IL4719850002800010 | 1985-10-15T19:10 | 34.0000 | 34.5000 | 444.19 | 448 | 15.036 | 38.972 |
| IL4719850002800010 | 1985-10-15T19:10 | 34.0000 | 34.5000 | 445.18 | 449 | 15.032 | 38.972 |
| IL4719850002800010 | 1985-10-15T19:10 | 34.0000 | 34.5000 | 446.17 | 450 | 15.027 | 38.972 |
| IL4719850002800010 | 1985-10-15T19:10 | 34.0000 | 34.5000 | 447.16 | 451 | 15.022 | 38.970 |
| IL4719850002800010 | 1985-10-15T19:10 | 34.0000 | 34.5000 | 448.15 | 452 | 15.012 | 38.969 |
| IL4719850002800010 | 1985-10-15T19:10 | 34.0000 | 34.5000 | 449.14 | 453 | 15.003 | 38.966 |
| IL4719850002800010 | 1985-10-15T19:10 | 34.0000 | 34.5000 | 450.13 | 454 | 14.996 | 38.965 |
| IL4719850002800010 | 1985-10-15T19:10 | 34.0000 | 34.5000 | 451.12 | 455 | 14.991 | 38.965 |
| IL4719850002800010 | 1985-10-15T19:10 | 34.0000 | 34.5000 | 452.11 | 456 | 14.979 | 38.962 |
| IL4719850002800010 | 1985-10-15T19:10 | 34.0000 | 34.5000 | 453.10 | 457 | 14.970 | 38.960 |
| IL4719850002800010 | 1985-10-15T19:10 | 34.0000 | 34.5000 | 454.09 | 458 | 14.958 | 38.958 |
| IL4719850002800010 | 1985-10-15T19:10 | 34.0000 | 34.5000 | 455.08 | 459 | 14.951 | 38.958 |
| IL4719850002800010 | 1985-10-15T19:10 | 34.0000 | 34.5000 | 456.07 | 460 | 14.937 | 38.955 |
| IL4719850002800010 | 1985-10-15T19:10 | 34.0000 | 34.5000 | 457.06 | 461 | 14.923 | 38.952 |
| IL4719850002800010 | 1985-10-15T19:10 | 34.0000 | 34.5000 | 458.05 | 462 | 14.913 | 38.951 |
| IL4719850002800010 | 1985-10-15T19:10 | 34.0000 | 34.5000 | 459.04 | 463 | 14.899 | 38.949 |
| IL4719850002800010 | 1985-10-15T19:10 | 34.0000 | 34.5000 | 460.03 | 464 | 14.895 | 38.948 |
| IL4719850002800010 | 1985-10-15T19:10 | 34.0000 | 34.5000 | 461.02 | 465 | 14.883 | 38.946 |
| IL4719850002800010 | 1985-10-15T19:10 | 34.0000 | 34.5000 | 462.01 | 466 | 14.878 | 38.945 |
| IL4719850002800010 | 1985-10-15T19:10 | 34.0000 | 34.5000 | 463.01 | 467 | 14.868 | 38.944 |
| IL4719850002800010 | 1985-10-15T19:10 | 34.0000 | 34.5000 | 464.00 | 468 | 14.864 | 38.944 |
| IL4719850002800010 | 1985-10-15T19:10 | 34.0000 | 34.5000 | 464.99 | 469 | 14.859 | 38.943 |
| IL4719850002800010 | 1985-10-15T19:10 | 34.0000 | 34.5000 | 465.98 | 470 | 14.852 | 38.941 |
| IL4719850002800010 | 1985-10-15T19:10 | 34.0000 | 34.5000 | 466.97 | 471 | 14.843 | 38.938 |
| IL4719850002800010 | 1985-10-15T19:10 | 34.0000 | 34.5000 | 467.96 | 472 | 14.835 | 38.937 |
| IL4719850002800010 | 1985-10-15T19:10 | 34.0000 | 34.5000 | 468.95 | 473 | 14.826 | 38.936 |
| IL4719850002800010 | 1985-10-15T19:10 | 34.0000 | 34.5000 | 469.94 | 474 | 14.812 | 38.933 |
| IL4719850002800010 | 1985-10-15T19:10 | 34.0000 | 34.5000 | 470.93 | 475 | 14.803 | 38.932 |
| IL4719850002800010 | 1985-10-15T19:10 | 34.0000 | 34.5000 | 471.92 | 476 | 14.800 | 38.931 |
| IL4719850002800010 | 1985-10-15T19:10 | 34.0000 | 34.5000 | 472.91 | 477 | 14.789 | 38.930 |
| IL4719850002800010 | 1985-10-15T19:10 | 34.0000 | 34.5000 | 473.90 | 478 | 14.781 | 38.929 |
| IL4719850002800010 | 1985-10-15T19:10 | 34.0000 | 34.5000 | 474.89 | 479 | 14.772 | 38.926 |
| IL4719850002800010 | 1985-10-15T19:10 | 34.0000 | 34.5000 | 475.88 | 480 | 14.760 | 38.924 |
| IL4719850002800010 | 1985-10-15T19:10 | 34.0000 | 34.5000 | 476.87 | 481 | 14.746 | 38.923 |
| IL4719850002800010 | 1985-10-15T19:10 | 34.0000 | 34.5000 | 477.86 | 482 | 14.739 | 38.922 |
| IL4719850002800010 | 1985-10-15T19:10 | 34.0000 | 34.5000 | 478.85 | 483 | 14.737 | 38.922 |
| IL4719850002800010 | 1985-10-15T19:10 | 34.0000 | 34.5000 | 479.84 | 484 | 14.732 | 38.921 |
| IL4719850002800010 | 1985-10-15T19:10 | 34.0000 | 34.5000 | 480.83 | 485 | 14.727 | 38.919 |
| IL4719850002800010 | 1985-10-15T19:10 | 34.0000 | 34.5000 | 481.82 | 486 | 14.723 | 38.918 |
| IL4719850002800010 | 1985-10-15T19:10 | 34.0000 | 34.5000 | 482.81 | 487 | 14.715 | 38.917 |
| IL4719850002800010 | 1985-10-15T19:10 | 34.0000 | 34.5000 | 483.80 | 488 | 14.708 | 38.916 |
| IL4719850002800010 | 1985-10-15T19:10 | 34.0000 | 34.5000 | 484.79 | 489 | 14.703 | 38.916 |
| IL4719850002800010 | 1985-10-15T19:10 | 34.0000 | 34.5000 | 485.78 | 490 | 14.692 | 38.912 |
| IL4719850002800010 | 1985-10-15T19:10 | 34.0000 | 34.5000 | 486.77 | 491 | 14.680 | 38.910 |
| IL4719850002800010 | 1985-10-15T19:10 | 34.0000 | 34.5000 | 487.76 | 492 | 14.673 | 38.909 |
| IL4719850002800010 | 1985-10-15T19:10 | 34.0000 | 34.5000 | 488.75 | 493 | 14.663 | 38.908 |
| IL4719850002800010 | 1985-10-15T19:10 | 34.0000 | 34.5000 | 489.74 | 494 | 14.649 | 38.905 |
| IL4719850002800010 | 1985-10-15T19:10 | 34.0000 | 34.5000 | 490.73 | 495 | 14.644 | 38.905 |
| IL4719850002800010 | 1985-10-15T19:10 | 34.0000 | 34.5000 | 491.73 | 496 | 14.638 | 38.904 |
| IL4719850002800010 | 1985-10-15T19:10 | 34.0000 | 34.5000 | 492.72 | 497 | 14.633 | 38.902 |
| IL4719850002800010 | 1985-10-15T19:10 | 34.0000 | 34.5000 | 493.71 | 498 | 14.621 | 38.901 |
| IL4719850002800010 | 1985-10-15T19:10 | 34.0000 | 34.5000 | 494.70 | 499 | 14.612 | 38.900 |
| IL4719850002800010 | 1985-10-15T19:10 | 34.0000 | 34.5000 | 495.69 | 500 | 14.605 | 38.900 |
| IL4719850002800010 | 1985-10-15T19:10 | 34.0000 | 34.5000 | 496.68 | 501 | 14.604 | 38.900 |
| IL4719850002800010 | 1985-10-15T19:10 | 34.0000 | 34.5000 | 497.67 | 502 | 14.600 | 38.898 |
| IL4719850002800010 | 1985-10-15T19:10 | 34.0000 | 34.5000 | 498.66 | 503 | 14.597 | 38.897 |
| IL4719850002800010 | 1985-10-15T19:10 | 34.0000 | 34.5000 | 499.65 | 504 | 14.588 | 38.895 |
| IL4719850002800010 | 1985-10-15T19:10 | 34.0000 | 34.5000 | 500.64 | 505 | 14.581 | 38.895 |
| IL4719850002800010 | 1985-10-15T19:10 | 34.0000 | 34.5000 | 501.63 | 506 | 14.576 | 38.894 |
| IL4719850002800010 | 1985-10-15T19:10 | 34.0000 | 34.5000 | 502.62 | 507 | 14.571 | 38.893 |
| IL4719850002800010 | 1985-10-15T19:10 | 34.0000 | 34.5000 | 503.61 | 508 | 14.562 | 38.890 |
| IL4719850002800010 | 1985-10-15T19:10 | 34.0000 | 34.5000 | 504.60 | 509 | 14.548 | 38.888 |
| IL4719850002800010 | 1985-10-15T19:10 | 34.0000 | 34.5000 | 505.59 | 510 | 14.541 | 38.888 |
| IL4719850002800010 | 1985-10-15T19:10 | 34.0000 | 34.5000 | 506.58 | 511 | 14.538 | 38.888 |
| IL4719850002800010 | 1985-10-15T19:10 | 34.0000 | 34.5000 | 507.57 | 512 | 14.536 | 38.887 |
| IL4719850002800010 | 1985-10-15T19:10 | 34.0000 | 34.5000 | 508.56 | 513 | 14.532 | 38.887 |
| IL4719850002800010 | 1985-10-15T19:10 | 34.0000 | 34.5000 | 509.55 | 514 | 14.529 | 38.887 |
| IL4719850002800010 | 1985-10-15T19:10 | 34.0000 | 34.5000 | 510.54 | 515 | 14.526 | 38.886 |
| IL4719850002800010 | 1985-10-15T19:10 | 34.0000 | 34.5000 | 511.53 | 516 | 14.524 | 38.884 |
| IL4719850002800010 | 1985-10-15T19:10 | 34.0000 | 34.5000 | 512.52 | 517 | 14.522 | 38.884 |
| IL4719850002800010 | 1985-10-15T19:10 | 34.0000 | 34.5000 | 513.51 | 518 | 14.512 | 38.881 |
| IL4719850002800010 | 1985-10-15T19:10 | 34.0000 | 34.5000 | 514.50 | 519 | 14.503 | 38.881 |
| IL4719850002800010 | 1985-10-15T19:10 | 34.0000 | 34.5000 | 515.49 | 520 | 14.498 | 38.880 |
| IL4719850002800010 | 1985-10-15T19:10 | 34.0000 | 34.5000 | 516.48 | 521 | 14.487 | 38.877 |
| IL4719850002800010 | 1985-10-15T19:10 | 34.0000 | 34.5000 | 517.47 | 522 | 14.475 | 38.875 |
| IL4719850002800010 | 1985-10-15T19:10 | 34.0000 | 34.5000 | 518.46 | 523 | 14.468 | 38.875 |
| IL4719850002800010 | 1985-10-15T19:10 | 34.0000 | 34.5000 | 519.45 | 524 | 14.465 | 38.875 |
| IL4719850002800010 | 1985-10-15T19:10 | 34.0000 | 34.5000 | 520.44 | 525 | 14.461 | 38.874 |
| IL4719850002800010 | 1985-10-15T19:10 | 34.0000 | 34.5000 | 521.43 | 526 | 14.456 | 38.873 |
| IL4719850002800010 | 1985-10-15T19:10 | 34.0000 | 34.5000 | 522.42 | 527 | 14.451 | 38.872 |
| IL4719850002800010 | 1985-10-15T19:10 | 34.0000 | 34.5000 | 523.41 | 528 | 14.446 | 38.872 |
| IL4719850002800010 | 1985-10-15T19:10 | 34.0000 | 34.5000 | 524.40 | 529 | 14.442 | 38.870 |
| IL4719850002800010 | 1985-10-15T19:10 | 34.0000 | 34.5000 | 525.39 | 530 | 14.440 | 38.870 |
| IL4719850002800010 | 1985-10-15T19:10 | 34.0000 | 34.5000 | 526.38 | 531 | 14.439 | 38.870 |
| IL4719850002800010 | 1985-10-15T19:10 | 34.0000 | 34.5000 | 527.37 | 532 | 14.439 | 38.869 |
| IL4719850002800010 | 1985-10-15T19:10 | 34.0000 | 34.5000 | 528.36 | 533 | 14.437 | 38.869 |
| IL4719850002800010 | 1985-10-15T19:10 | 34.0000 | 34.5000 | 529.35 | 534 | 14.430 | 38.868 |
| IL4719850002800010 | 1985-10-15T19:10 | 34.0000 | 34.5000 | 530.34 | 535 | 14.425 | 38.868 |
| IL4719850002800010 | 1985-10-15T19:10 | 34.0000 | 34.5000 | 531.33 | 536 | 14.418 | 38.866 |
| IL4719850002800010 | 1985-10-15T19:10 | 34.0000 | 34.5000 | 532.32 | 537 | 14.407 | 38.863 |
| IL4719850002800010 | 1985-10-15T19:10 | 34.0000 | 34.5000 | 533.31 | 538 | 14.395 | 38.861 |
| IL4719850002800010 | 1985-10-15T19:10 | 34.0000 | 34.5000 | 534.30 | 539 | 14.380 | 38.859 |
| IL4719850002800010 | 1985-10-15T19:10 | 34.0000 | 34.5000 | 535.29 | 540 | 14.373 | 38.859 |
| IL4719850002800010 | 1985-10-15T19:10 | 34.0000 | 34.5000 | 536.28 | 541 | 14.371 | 38.858 |
| IL4719850002800010 | 1985-10-15T19:10 | 34.0000 | 34.5000 | 537.27 | 542 | 14.369 | 38.858 |
| IL4719850002800010 | 1985-10-15T19:10 | 34.0000 | 34.5000 | 538.26 | 543 | 14.368 | 38.858 |
| IL4719850002800010 | 1985-10-15T19:10 | 34.0000 | 34.5000 | 539.25 | 544 | 14.362 | 38.855 |
| IL4719850002800010 | 1985-10-15T19:10 | 34.0000 | 34.5000 | 540.24 | 545 | 14.354 | 38.855 |
| IL4719850002800010 | 1985-10-15T19:10 | 34.0000 | 34.5000 | 541.23 | 546 | 14.352 | 38.855 |
| IL4719850002800010 | 1985-10-15T19:10 | 34.0000 | 34.5000 | 542.22 | 547 | 14.347 | 38.854 |
| IL4719850002800010 | 1985-10-15T19:10 | 34.0000 | 34.5000 | 543.21 | 548 | 14.340 | 38.853 |
| IL4719850002800010 | 1985-10-15T19:10 | 34.0000 | 34.5000 | 544.20 | 549 | 14.333 | 38.852 |
| IL4719850002800010 | 1985-10-15T19:10 | 34.0000 | 34.5000 | 545.19 | 550 | 14.331 | 38.851 |
| IL4719850002800010 | 1985-10-15T19:10 | 34.0000 | 34.5000 | 546.18 | 551 | 14.326 | 38.849 |
| IL4719850002800010 | 1985-10-15T19:10 | 34.0000 | 34.5000 | 547.17 | 552 | 14.319 | 38.848 |
| IL4719850002800010 | 1985-10-15T19:10 | 34.0000 | 34.5000 | 548.16 | 553 | 14.314 | 38.848 |
| IL4719850002800010 | 1985-10-15T19:10 | 34.0000 | 34.5000 | 549.15 | 554 | 14.314 | 38.847 |
| IL4719850002800010 | 1985-10-15T19:10 | 34.0000 | 34.5000 | 550.14 | 555 | 14.310 | 38.847 |
| IL4719850002800010 | 1985-10-15T19:10 | 34.0000 | 34.5000 | 551.13 | 556 | 14.305 | 38.847 |
| IL4719850002800010 | 1985-10-15T19:10 | 34.0000 | 34.5000 | 552.12 | 557 | 14.302 | 38.846 |
| IL4719850002800010 | 1985-10-15T19:10 | 34.0000 | 34.5000 | 553.11 | 558 | 14.296 | 38.845 |
| IL4719850002800010 | 1985-10-15T19:10 | 34.0000 | 34.5000 | 554.10 | 559 | 14.289 | 38.842 |
| IL4719850002800010 | 1985-10-15T19:10 | 34.0000 | 34.5000 | 555.09 | 560 | 14.281 | 38.841 |
| IL4719850002800010 | 1985-10-15T19:10 | 34.0000 | 34.5000 | 556.08 | 561 | 14.277 | 38.840 |
| IL4719850002800010 | 1985-10-15T19:10 | 34.0000 | 34.5000 | 557.07 | 562 | 14.267 | 38.839 |
| IL4719850002800010 | 1985-10-15T19:10 | 34.0000 | 34.5000 | 558.06 | 563 | 14.262 | 38.839 |
| IL4719850002800010 | 1985-10-15T19:10 | 34.0000 | 34.5000 | 559.05 | 564 | 14.256 | 38.838 |
| IL4719850002800010 | 1985-10-15T19:10 | 34.0000 | 34.5000 | 560.04 | 565 | 14.255 | 38.838 |
| IL4719850002800010 | 1985-10-15T19:10 | 34.0000 | 34.5000 | 561.03 | 566 | 14.253 | 38.837 |
| IL4719850002800010 | 1985-10-15T19:10 | 34.0000 | 34.5000 | 562.02 | 567 | 14.251 | 38.835 |
| IL4719850002800010 | 1985-10-15T19:10 | 34.0000 | 34.5000 | 563.01 | 568 | 14.248 | 38.835 |
| IL4719850002800010 | 1985-10-15T19:10 | 34.0000 | 34.5000 | 564.00 | 569 | 14.241 | 38.833 |
| IL4719850002800010 | 1985-10-15T19:10 | 34.0000 | 34.5000 | 564.99 | 570 | 14.237 | 38.833 |
| IL4719850002800010 | 1985-10-15T19:10 | 34.0000 | 34.5000 | 565.98 | 571 | 14.234 | 38.833 |
| IL4719850002800010 | 1985-10-15T19:10 | 34.0000 | 34.5000 | 566.97 | 572 | 14.225 | 38.831 |
| IL4719850002800010 | 1985-10-15T19:10 | 34.0000 | 34.5000 | 567.96 | 573 | 14.220 | 38.831 |
| IL4719850002800010 | 1985-10-15T19:10 | 34.0000 | 34.5000 | 568.95 | 574 | 14.218 | 38.831 |
| IL4719850002800010 | 1985-10-15T19:10 | 34.0000 | 34.5000 | 569.94 | 575 | 14.217 | 38.831 |
| IL4719850002800010 | 1985-10-15T19:10 | 34.0000 | 34.5000 | 570.93 | 576 | 14.208 | 38.827 |
| IL4719850002800010 | 1985-10-15T19:10 | 34.0000 | 34.5000 | 571.92 | 577 | 14.203 | 38.827 |
| IL4719850002800010 | 1985-10-15T19:10 | 34.0000 | 34.5000 | 572.91 | 578 | 14.201 | 38.827 |
| IL4719850002800010 | 1985-10-15T19:10 | 34.0000 | 34.5000 | 573.90 | 579 | 14.194 | 38.826 |
| IL4719850002800010 | 1985-10-15T19:10 | 34.0000 | 34.5000 | 574.89 | 580 | 14.187 | 38.825 |
| IL4719850002800010 | 1985-10-15T19:10 | 34.0000 | 34.5000 | 575.88 | 581 | 14.182 | 38.825 |
| IL4719850002800010 | 1985-10-15T19:10 | 34.0000 | 34.5000 | 576.87 | 582 | 14.180 | 38.824 |
| IL4719850002800010 | 1985-10-15T19:10 | 34.0000 | 34.5000 | 577.86 | 583 | 14.178 | 38.823 |
| IL4719850002800010 | 1985-10-15T19:10 | 34.0000 | 34.5000 | 578.85 | 584 | 14.171 | 38.821 |
| IL4719850002800010 | 1985-10-15T19:10 | 34.0000 | 34.5000 | 579.84 | 585 | 14.168 | 38.821 |
| IL4719850002800010 | 1985-10-15T19:10 | 34.0000 | 34.5000 | 580.83 | 586 | 14.159 | 38.819 |
| IL4719850002800010 | 1985-10-15T19:10 | 34.0000 | 34.5000 | 581.82 | 587 | 14.145 | 38.818 |
| IL4719850002800010 | 1985-10-15T19:10 | 34.0000 | 34.5000 | 582.81 | 588 | 14.140 | 38.818 |
| IL4719850002800010 | 1985-10-15T19:10 | 34.0000 | 34.5000 | 583.80 | 589 | 14.142 | 38.819 |
| IL4719850002800010 | 1985-10-15T19:10 | 34.0000 | 34.5000 | 584.79 | 590 | 14.142 | 38.819 |
| IL4719850002800010 | 1985-10-15T19:10 | 34.0000 | 34.5000 | 585.78 | 591 | 14.138 | 38.819 |
| IL4719850002800010 | 1985-10-15T19:10 | 34.0000 | 34.5000 | 586.77 | 592 | 14.137 | 38.818 |
| IL4719850002800010 | 1985-10-15T19:10 | 34.0000 | 34.5000 | 587.76 | 593 | 14.137 | 38.818 |
| IL4719850002800010 | 1985-10-15T19:10 | 34.0000 | 34.5000 | 588.75 | 594 | 14.138 | 38.819 |
| IL4719850002800010 | 1985-10-15T19:10 | 34.0000 | 34.5000 | 589.74 | 595 | 14.138 | 38.819 |
| IL4719850002800010 | 1985-10-15T19:10 | 34.0000 | 34.5000 | 590.73 | 596 | 14.138 | 38.819 |
| IL4719850002800010 | 1985-10-15T19:10 | 34.0000 | 34.5000 | 591.72 | 597 | 14.138 | 38.819 |
| IL4719850002800010 | 1985-10-15T19:10 | 34.0000 | 34.5000 | 592.71 | 598 | 14.140 | 38.818 |
| IL4719850002800010 | 1985-10-15T19:10 | 34.0000 | 34.5000 | 593.70 | 599 | 14.133 | 38.817 |
| IL4719850002800010 | 1985-10-15T19:10 | 34.0000 | 34.5000 | 594.69 | 600 | 14.131 | 38.817 |
| IL4719850002800010 | 1985-10-15T19:10 | 34.0000 | 34.5000 | 595.68 | 601 | 14.126 | 38.814 |
| IL4719850002800010 | 1985-10-15T19:10 | 34.0000 | 34.5000 | 596.67 | 602 | 14.121 | 38.814 |
| IL4719850002800010 | 1985-10-15T19:10 | 34.0000 | 34.5000 | 597.66 | 603 | 14.121 | 38.814 |
| IL4719850002800010 | 1985-10-15T19:10 | 34.0000 | 34.5000 | 598.65 | 604 | 14.119 | 38.813 |
| IL4719850002800010 | 1985-10-15T19:10 | 34.0000 | 34.5000 | 599.64 | 605 | 14.114 | 38.812 |
| IL4719850002800010 | 1985-10-15T19:10 | 34.0000 | 34.5000 | 600.63 | 606 | 14.111 | 38.812 |
| IL4719850002800010 | 1985-10-15T19:10 | 34.0000 | 34.5000 | 601.62 | 607 | 14.109 | 38.812 |
| IL4719850002800010 | 1985-10-15T19:10 | 34.0000 | 34.5000 | 602.61 | 608 | 14.109 | 38.812 |
| IL4719850002800010 | 1985-10-15T19:10 | 34.0000 | 34.5000 | 603.60 | 609 | 14.107 | 38.811 |
| IL4719850002800010 | 1985-10-15T19:10 | 34.0000 | 34.5000 | 604.59 | 610 | 14.107 | 38.811 |
| IL4719850002800010 | 1985-10-15T19:10 | 34.0000 | 34.5000 | 605.58 | 611 | 14.104 | 38.811 |
| IL4719850002800010 | 1985-10-15T19:10 | 34.0000 | 34.5000 | 606.57 | 612 | 14.102 | 38.810 |
| IL4719850002800010 | 1985-10-15T19:10 | 34.0000 | 34.5000 | 607.56 | 613 | 14.097 | 38.808 |
| IL4719850002800010 | 1985-10-15T19:10 | 34.0000 | 34.5000 | 608.55 | 614 | 14.097 | 38.810 |
| IL4719850002800010 | 1985-10-15T19:10 | 34.0000 | 34.5000 | 609.54 | 615 | 14.097 | 38.808 |
| IL4719850002800010 | 1985-10-15T19:10 | 34.0000 | 34.5000 | 610.53 | 616 | 14.093 | 38.807 |
| IL4719850002800010 | 1985-10-15T19:10 | 34.0000 | 34.5000 | 611.52 | 617 | 14.092 | 38.807 |
| IL4719850002800010 | 1985-10-15T19:10 | 34.0000 | 34.5000 | 612.51 | 618 | 14.090 | 38.806 |
| IL4719850002800010 | 1985-10-15T19:10 | 34.0000 | 34.5000 | 613.50 | 619 | 14.086 | 38.806 |
| IL4719850002800010 | 1985-10-15T19:10 | 34.0000 | 34.5000 | 614.49 | 620 | 14.079 | 38.805 |
| IL4719850002800010 | 1985-10-15T19:10 | 34.0000 | 34.5000 | 615.47 | 621 | 14.074 | 38.805 |
| IL4719850002800010 | 1985-10-15T19:10 | 34.0000 | 34.5000 | 616.46 | 622 | 14.074 | 38.805 |
| IL4719850002800010 | 1985-10-15T19:10 | 34.0000 | 34.5000 | 617.45 | 623 | 14.071 | 38.804 |
| IL4719850002800010 | 1985-10-15T19:10 | 34.0000 | 34.5000 | 618.44 | 624 | 14.072 | 38.805 |
| IL4719850002800010 | 1985-10-15T19:10 | 34.0000 | 34.5000 | 619.43 | 625 | 14.076 | 38.805 |
| IL4719850002800010 | 1985-10-15T19:10 | 34.0000 | 34.5000 | 620.42 | 626 | 14.074 | 38.805 |
| IL4719850002800010 | 1985-10-15T19:10 | 34.0000 | 34.5000 | 621.41 | 627 | 14.071 | 38.805 |
| IL4719850002800010 | 1985-10-15T19:10 | 34.0000 | 34.5000 | 622.40 | 628 | 14.071 | 38.805 |
| IL4719850002800010 | 1985-10-15T19:10 | 34.0000 | 34.5000 | 623.39 | 629 | 14.067 | 38.805 |
| IL4719850002800010 | 1985-10-15T19:10 | 34.0000 | 34.5000 | 624.38 | 630 | 14.067 | 38.805 |
| IL4719850002800010 | 1985-10-15T19:10 | 34.0000 | 34.5000 | 625.37 | 631 | 14.067 | 38.805 |
| IL4719850002800010 | 1985-10-15T19:10 | 34.0000 | 34.5000 | 626.36 | 632 | 14.069 | 38.805 |
| IL4719850002800010 | 1985-10-15T19:10 | 34.0000 | 34.5000 | 627.35 | 633 | 14.069 | 38.805 |
| IL4719850002800010 | 1985-10-15T19:10 | 34.0000 | 34.5000 | 628.34 | 634 | 14.069 | 38.805 |
| IL4719850002800010 | 1985-10-15T19:10 | 34.0000 | 34.5000 | 629.33 | 635 | 14.069 | 38.805 |
| IL4719850002800010 | 1985-10-15T19:10 | 34.0000 | 34.5000 | 630.32 | 636 | 14.067 | 38.805 |
| IL4719850002800010 | 1985-10-15T19:10 | 34.0000 | 34.5000 | 631.31 | 637 | 14.067 | 38.805 |
| IL4719850002800010 | 1985-10-15T19:10 | 34.0000 | 34.5000 | 632.30 | 638 | 14.067 | 38.806 |
| IL4719850002800010 | 1985-10-15T19:10 | 34.0000 | 34.5000 | 633.29 | 639 | 14.069 | 38.806 |
| IL4719850002800010 | 1985-10-15T19:10 | 34.0000 | 34.5000 | 634.28 | 640 | 14.067 | 38.805 |
| IL4719850002800010 | 1985-10-15T19:10 | 34.0000 | 34.5000 | 635.27 | 641 | 14.067 | 38.806 |
| IL4719850002800010 | 1985-10-15T19:10 | 34.0000 | 34.5000 | 636.26 | 642 | 14.067 | 38.806 |
| IL4719850002800010 | 1985-10-15T19:10 | 34.0000 | 34.5000 | 637.25 | 643 | 14.069 | 38.806 |
| IL4719850002800010 | 1985-10-15T19:10 | 34.0000 | 34.5000 | 638.24 | 644 | 14.069 | 38.806 |
| IL4719850002800010 | 1985-10-15T19:10 | 34.0000 | 34.5000 | 639.23 | 645 | 14.069 | 38.807 |
| IL4719850002800010 | 1985-10-15T19:10 | 34.0000 | 34.5000 | 640.22 | 646 | 14.069 | 38.807 |
| IL4719850002800010 | 1985-10-15T19:10 | 34.0000 | 34.5000 | 641.21 | 647 | 14.069 | 38.806 |
| IL4719850002800010 | 1985-10-15T19:10 | 34.0000 | 34.5000 | 642.20 | 648 | 14.065 | 38.805 |
| IL4719850002800010 | 1985-10-15T19:10 | 34.0000 | 34.5000 | 643.19 | 649 | 14.064 | 38.805 |
| IL4719850002800010 | 1985-10-15T19:10 | 34.0000 | 34.5000 | 644.17 | 650 | 14.064 | 38.805 |
| IL4719850002800010 | 1985-10-15T19:10 | 34.0000 | 34.5000 | 645.16 | 651 | 14.062 | 38.805 |
| IL4719850002800010 | 1985-10-15T19:10 | 34.0000 | 34.5000 | 646.15 | 652 | 14.057 | 38.803 |
| IL4719850002800010 | 1985-10-15T19:10 | 34.0000 | 34.5000 | 647.14 | 653 | 14.048 | 38.803 |
| IL4719850002800010 | 1985-10-15T19:10 | 34.0000 | 34.5000 | 648.13 | 654 | 14.048 | 38.801 |
| IL4719850002800010 | 1985-10-15T19:10 | 34.0000 | 34.5000 | 649.12 | 655 | 14.045 | 38.800 |
| IL4719850002800010 | 1985-10-15T19:10 | 34.0000 | 34.5000 | 650.11 | 656 | 14.039 | 38.798 |
| IL4719850002800010 | 1985-10-15T19:10 | 34.0000 | 34.5000 | 651.10 | 657 | 14.031 | 38.798 |
| IL4719850002800010 | 1985-10-15T19:10 | 34.0000 | 34.5000 | 652.09 | 658 | 14.029 | 38.798 |
| IL4719850002800010 | 1985-10-15T19:10 | 34.0000 | 34.5000 | 653.08 | 659 | 14.027 | 38.798 |
| IL4719850002800010 | 1985-10-15T19:10 | 34.0000 | 34.5000 | 654.07 | 660 | 14.027 | 38.797 |
| IL4719850002800010 | 1985-10-15T19:10 | 34.0000 | 34.5000 | 655.06 | 661 | 14.024 | 38.796 |
| IL4719850002800010 | 1985-10-15T19:10 | 34.0000 | 34.5000 | 656.05 | 662 | 14.020 | 38.794 |
| IL4719850002800010 | 1985-10-15T19:10 | 34.0000 | 34.5000 | 657.04 | 663 | 14.013 | 38.793 |
| IL4719850002800010 | 1985-10-15T19:10 | 34.0000 | 34.5000 | 658.03 | 664 | 14.010 | 38.793 |
| IL4719850002800010 | 1985-10-15T19:10 | 34.0000 | 34.5000 | 659.02 | 665 | 14.008 | 38.792 |
| IL4719850002800010 | 1985-10-15T19:10 | 34.0000 | 34.5000 | 660.01 | 666 | 14.008 | 38.791 |
| IL4719850002800010 | 1985-10-15T19:10 | 34.0000 | 34.5000 | 661.00 | 667 | 14.001 | 38.791 |
| IL4719850002800010 | 1985-10-15T19:10 | 34.0000 | 34.5000 | 661.99 | 668 | 14.001 | 38.791 |
| IL4719850002800010 | 1985-10-15T19:10 | 34.0000 | 34.5000 | 662.98 | 669 | 13.996 | 38.790 |
| IL4719850002800010 | 1985-10-15T19:10 | 34.0000 | 34.5000 | 663.97 | 670 | 13.994 | 38.790 |
| IL4719850002800010 | 1985-10-15T19:10 | 34.0000 | 34.5000 | 664.96 | 671 | 13.994 | 38.789 |
| IL4719850002800010 | 1985-10-15T19:10 | 34.0000 | 34.5000 | 665.94 | 672 | 13.989 | 38.789 |
| IL4719850002800010 | 1985-10-15T19:10 | 34.0000 | 34.5000 | 666.93 | 673 | 13.987 | 38.787 |
| IL4719850002800010 | 1985-10-15T19:10 | 34.0000 | 34.5000 | 667.92 | 674 | 13.987 | 38.787 |
| IL4719850002800010 | 1985-10-15T19:10 | 34.0000 | 34.5000 | 668.91 | 675 | 13.984 | 38.786 |
| IL4719850002800010 | 1985-10-15T19:10 | 34.0000 | 34.5000 | 669.90 | 676 | 13.980 | 38.786 |
| IL4719850002800010 | 1985-10-15T19:10 | 34.0000 | 34.5000 | 670.89 | 677 | 13.982 | 38.787 |
| IL4719850002800010 | 1985-10-15T19:10 | 34.0000 | 34.5000 | 671.88 | 678 | 13.980 | 38.786 |
| IL4719850002800010 | 1985-10-15T19:10 | 34.0000 | 34.5000 | 672.87 | 679 | 13.975 | 38.785 |
| IL4719850002800010 | 1985-10-15T19:10 | 34.0000 | 34.5000 | 673.86 | 680 | 13.972 | 38.784 |
| IL4719850002800010 | 1985-10-15T19:10 | 34.0000 | 34.5000 | 674.85 | 681 | 13.968 | 38.784 |
| IL4719850002800010 | 1985-10-15T19:10 | 34.0000 | 34.5000 | 675.84 | 682 | 13.967 | 38.784 |
| IL4719850002800010 | 1985-10-15T19:10 | 34.0000 | 34.5000 | 676.83 | 683 | 13.965 | 38.784 |
| IL4719850002800010 | 1985-10-15T19:10 | 34.0000 | 34.5000 | 677.82 | 684 | 13.961 | 38.783 |
| IL4719850002800010 | 1985-10-15T19:10 | 34.0000 | 34.5000 | 678.81 | 685 | 13.956 | 38.780 |
| IL4719850002800010 | 1985-10-15T19:10 | 34.0000 | 34.5000 | 679.80 | 686 | 13.951 | 38.780 |
| IL4719850002800010 | 1985-10-15T19:10 | 34.0000 | 34.5000 | 680.79 | 687 | 13.951 | 38.780 |
| IL4719850002800010 | 1985-10-15T19:10 | 34.0000 | 34.5000 | 681.78 | 688 | 13.949 | 38.779 |
| IL4719850002800010 | 1985-10-15T19:10 | 34.0000 | 34.5000 | 682.77 | 689 | 13.946 | 38.779 |
| IL4719850002800010 | 1985-10-15T19:10 | 34.0000 | 34.5000 | 683.75 | 690 | 13.946 | 38.778 |
| IL4719850002800010 | 1985-10-15T19:10 | 34.0000 | 34.5000 | 684.74 | 691 | 13.939 | 38.777 |
| IL4719850002800010 | 1985-10-15T19:10 | 34.0000 | 34.5000 | 685.73 | 692 | 13.937 | 38.777 |
| IL4719850002800010 | 1985-10-15T19:10 | 34.0000 | 34.5000 | 686.72 | 693 | 13.935 | 38.777 |
| IL4719850002800010 | 1985-10-15T19:10 | 34.0000 | 34.5000 | 687.71 | 694 | 13.935 | 38.777 |
| IL4719850002800010 | 1985-10-15T19:10 | 34.0000 | 34.5000 | 688.70 | 695 | 13.934 | 38.776 |
| IL4719850002800010 | 1985-10-15T19:10 | 34.0000 | 34.5000 | 689.69 | 696 | 13.932 | 38.776 |
| IL4719850002800010 | 1985-10-15T19:10 | 34.0000 | 34.5000 | 690.68 | 697 | 13.930 | 38.777 |
| IL4719850002800010 | 1985-10-15T19:10 | 34.0000 | 34.5000 | 691.67 | 698 | 13.930 | 38.776 |
| IL4719850002800010 | 1985-10-15T19:10 | 34.0000 | 34.5000 | 692.66 | 699 | 13.930 | 38.776 |
| IL4719850002800010 | 1985-10-15T19:10 | 34.0000 | 34.5000 | 693.65 | 700 | 13.928 | 38.775 |
| IL4719850002800010 | 1985-10-15T19:10 | 34.0000 | 34.5000 | 694.64 | 701 | 13.925 | 38.775 |
| IL4719850002800010 | 1985-10-15T19:10 | 34.0000 | 34.5000 | 695.63 | 702 | 13.925 | 38.775 |
| IL4719850002800010 | 1985-10-15T19:10 | 34.0000 | 34.5000 | 696.62 | 703 | 13.925 | 38.775 |
| IL4719850002800010 | 1985-10-15T19:10 | 34.0000 | 34.5000 | 697.61 | 704 | 13.925 | 38.776 |
| IL4719850002800010 | 1985-10-15T19:10 | 34.0000 | 34.5000 | 698.60 | 705 | 13.927 | 38.776 |
| IL4719850002800010 | 1985-10-15T19:10 | 34.0000 | 34.5000 | 699.58 | 706 | 13.927 | 38.776 |
| IL4719850002800010 | 1985-10-15T19:10 | 34.0000 | 34.5000 | 700.57 | 707 | 13.925 | 38.775 |
| IL4719850002800010 | 1985-10-15T19:10 | 34.0000 | 34.5000 | 701.56 | 708 | 13.925 | 38.775 |
| IL4719850002800010 | 1985-10-15T19:10 | 34.0000 | 34.5000 | 702.55 | 709 | 13.923 | 38.775 |
| IL4719850002800010 | 1985-10-15T19:10 | 34.0000 | 34.5000 | 703.54 | 710 | 13.923 | 38.775 |
| IL4719850002800010 | 1985-10-15T19:10 | 34.0000 | 34.5000 | 704.53 | 711 | 13.921 | 38.775 |
| IL4719850002800010 | 1985-10-15T19:10 | 34.0000 | 34.5000 | 705.52 | 712 | 13.921 | 38.773 |
| IL4719850002800010 | 1985-10-15T19:10 | 34.0000 | 34.5000 | 706.51 | 713 | 13.920 | 38.773 |
| IL4719850002800010 | 1985-10-15T19:10 | 34.0000 | 34.5000 | 707.50 | 714 | 13.918 | 38.773 |
| IL4719850002800010 | 1985-10-15T19:10 | 34.0000 | 34.5000 | 708.49 | 715 | 13.918 | 38.773 |
| IL4719850002800010 | 1985-10-15T19:10 | 34.0000 | 34.5000 | 709.48 | 716 | 13.916 | 38.773 |
| IL4719850002800010 | 1985-10-15T19:10 | 34.0000 | 34.5000 | 710.47 | 717 | 13.916 | 38.772 |
| IL4719850002800010 | 1985-10-15T19:10 | 34.0000 | 34.5000 | 711.46 | 718 | 13.916 | 38.772 |
| IL4719850002800010 | 1985-10-15T19:10 | 34.0000 | 34.5000 | 712.45 | 719 | 13.916 | 38.772 |
| IL4719850002800010 | 1985-10-15T19:10 | 34.0000 | 34.5000 | 713.44 | 720 | 13.916 | 38.772 |
| IL4719850002800010 | 1985-10-15T19:10 | 34.0000 | 34.5000 | 714.42 | 721 | 13.916 | 38.772 |
| IL4719850002800010 | 1985-10-15T19:10 | 34.0000 | 34.5000 | 715.41 | 722 | 13.914 | 38.772 |
| IL4719850002800010 | 1985-10-15T19:10 | 34.0000 | 34.5000 | 716.40 | 723 | 13.913 | 38.772 |
| IL4719850002800010 | 1985-10-15T19:10 | 34.0000 | 34.5000 | 717.39 | 724 | 13.913 | 38.772 |
| IL4719850002800010 | 1985-10-15T19:10 | 34.0000 | 34.5000 | 718.38 | 725 | 13.906 | 38.770 |
| IL4719850002800010 | 1985-10-15T19:10 | 34.0000 | 34.5000 | 719.37 | 726 | 13.902 | 38.770 |
| IL4719850002800010 | 1985-10-15T19:10 | 34.0000 | 34.5000 | 720.36 | 727 | 13.901 | 38.770 |
| IL4719850002800010 | 1985-10-15T19:10 | 34.0000 | 34.5000 | 721.35 | 728 | 13.899 | 38.769 |
| IL4719850002800010 | 1985-10-15T19:10 | 34.0000 | 34.5000 | 722.34 | 729 | 13.897 | 38.769 |
| IL4719850002800010 | 1985-10-15T19:10 | 34.0000 | 34.5000 | 723.33 | 730 | 13.897 | 38.769 |
| IL4719850002800010 | 1985-10-15T19:10 | 34.0000 | 34.5000 | 724.32 | 731 | 13.897 | 38.769 |
| IL4719850002800010 | 1985-10-15T19:10 | 34.0000 | 34.5000 | 725.31 | 732 | 13.897 | 38.768 |
| IL4719850002800010 | 1985-10-15T19:10 | 34.0000 | 34.5000 | 726.30 | 733 | 13.895 | 38.768 |
| IL4719850002800010 | 1985-10-15T19:10 | 34.0000 | 34.5000 | 727.28 | 734 | 13.894 | 38.768 |
| IL4719850002800010 | 1985-10-15T19:10 | 34.0000 | 34.5000 | 728.27 | 735 | 13.892 | 38.768 |
| IL4719850002800010 | 1985-10-15T19:10 | 34.0000 | 34.5000 | 729.26 | 736 | 13.890 | 38.766 |
| IL4719850002800010 | 1985-10-15T19:10 | 34.0000 | 34.5000 | 730.25 | 737 | 13.888 | 38.765 |
| IL4719850002800010 | 1985-10-15T19:10 | 34.0000 | 34.5000 | 731.24 | 738 | 13.887 | 38.765 |
| IL4719850002800010 | 1985-10-15T19:10 | 34.0000 | 34.5000 | 732.23 | 739 | 13.885 | 38.765 |
| IL4719850002800010 | 1985-10-15T19:10 | 34.0000 | 34.5000 | 733.22 | 740 | 13.883 | 38.764 |
| IL4719850002800010 | 1985-10-15T19:10 | 34.0000 | 34.5000 | 734.21 | 741 | 13.883 | 38.764 |
| IL4719850002800010 | 1985-10-15T19:10 | 34.0000 | 34.5000 | 735.20 | 742 | 13.881 | 38.763 |
| IL4719850002800010 | 1985-10-15T19:10 | 34.0000 | 34.5000 | 736.19 | 743 | 13.878 | 38.763 |
| IL4719850002800010 | 1985-10-15T19:10 | 34.0000 | 34.5000 | 737.18 | 744 | 13.878 | 38.763 |
| IL4719850002800010 | 1985-10-15T19:10 | 34.0000 | 34.5000 | 738.17 | 745 | 13.876 | 38.763 |
| IL4719850002800010 | 1985-10-15T19:10 | 34.0000 | 34.5000 | 739.15 | 746 | 13.876 | 38.763 |
| IL4719850002800010 | 1985-10-15T19:10 | 34.0000 | 34.5000 | 740.14 | 747 | 13.875 | 38.763 |
| IL4719850002800010 | 1985-10-15T19:10 | 34.0000 | 34.5000 | 741.13 | 748 | 13.873 | 38.762 |
| IL4719850002800010 | 1985-10-15T19:10 | 34.0000 | 34.5000 | 742.12 | 749 | 13.871 | 38.762 |
| IL4719850002800010 | 1985-10-15T19:10 | 34.0000 | 34.5000 | 743.11 | 750 | 13.871 | 38.762 |
| IL4719850002800010 | 1985-10-15T19:10 | 34.0000 | 34.5000 | 744.10 | 751 | 13.871 | 38.762 |
| IL4719850002800010 | 1985-10-15T19:10 | 34.0000 | 34.5000 | 745.09 | 752 | 13.871 | 38.762 |
| IL4719850002800010 | 1985-10-15T19:10 | 34.0000 | 34.5000 | 746.08 | 753 | 13.869 | 38.762 |
| IL4719850002800010 | 1985-10-15T19:10 | 34.0000 | 34.5000 | 747.07 | 754 | 13.868 | 38.761 |
| IL4719850002800010 | 1985-10-15T19:10 | 34.0000 | 34.5000 | 748.06 | 755 | 13.866 | 38.761 |
| IL4719850002800010 | 1985-10-15T19:10 | 34.0000 | 34.5000 | 749.05 | 756 | 13.864 | 38.759 |
| IL4719850002800010 | 1985-10-15T19:10 | 34.0000 | 34.5000 | 750.04 | 757 | 13.864 | 38.759 |
| IL4719850002800010 | 1985-10-15T19:10 | 34.0000 | 34.5000 | 751.02 | 758 | 13.864 | 38.759 |
| IL4719850002800010 | 1985-10-15T19:10 | 34.0000 | 34.5000 | 752.01 | 759 | 13.862 | 38.759 |
| IL4719850002800010 | 1985-10-15T19:10 | 34.0000 | 34.5000 | 753.00 | 760 | 13.859 | 38.758 |
| IL4719850002800010 | 1985-10-15T19:10 | 34.0000 | 34.5000 | 753.99 | 761 | 13.857 | 38.758 |
| IL4719850002800010 | 1985-10-15T19:10 | 34.0000 | 34.5000 | 754.98 | 762 | 13.857 | 38.758 |
| IL4719850002800010 | 1985-10-15T19:10 | 34.0000 | 34.5000 | 755.97 | 763 | 13.855 | 38.757 |
| IL4719850002800010 | 1985-10-15T19:10 | 34.0000 | 34.5000 | 756.96 | 764 | 13.854 | 38.757 |
| IL4719850002800010 | 1985-10-15T19:10 | 34.0000 | 34.5000 | 757.95 | 765 | 13.852 | 38.757 |
| IL4719850002800010 | 1985-10-15T19:10 | 34.0000 | 34.5000 | 758.94 | 766 | 13.852 | 38.757 |
| IL4719850002800010 | 1985-10-15T19:10 | 34.0000 | 34.5000 | 759.93 | 767 | 13.850 | 38.756 |
| IL4719850002800010 | 1985-10-15T19:10 | 34.0000 | 34.5000 | 760.92 | 768 | 13.850 | 38.756 |
| IL4719850002800010 | 1985-10-15T19:10 | 34.0000 | 34.5000 | 761.90 | 769 | 13.847 | 38.756 |
| IL4719850002800010 | 1985-10-15T19:10 | 34.0000 | 34.5000 | 762.89 | 770 | 13.845 | 38.756 |
| IL4719850002800010 | 1985-10-15T19:10 | 34.0000 | 34.5000 | 763.88 | 771 | 13.843 | 38.756 |
| IL4719850002800010 | 1985-10-15T19:10 | 34.0000 | 34.5000 | 764.87 | 772 | 13.843 | 38.756 |
| IL4719850002800010 | 1985-10-15T19:10 | 34.0000 | 34.5000 | 765.86 | 773 | 13.843 | 38.756 |
| IL4719850002800010 | 1985-10-15T19:10 | 34.0000 | 34.5000 | 766.85 | 774 | 13.843 | 38.756 |
| IL4719850002800010 | 1985-10-15T19:10 | 34.0000 | 34.5000 | 767.84 | 775 | 13.843 | 38.756 |
| IL4719850002800010 | 1985-10-15T19:10 | 34.0000 | 34.5000 | 768.83 | 776 | 13.843 | 38.756 |
| IL4719850002800010 | 1985-10-15T19:10 | 34.0000 | 34.5000 | 769.82 | 777 | 13.843 | 38.756 |
| IL4719850002800010 | 1985-10-15T19:10 | 34.0000 | 34.5000 | 770.81 | 778 | 13.843 | 38.756 |
| IL4719850002800010 | 1985-10-15T19:10 | 34.0000 | 34.5000 | 771.79 | 779 | 13.842 | 38.756 |
| IL4719850002800010 | 1985-10-15T19:10 | 34.0000 | 34.5000 | 772.78 | 780 | 13.842 | 38.755 |
| IL4719850002800010 | 1985-10-15T19:10 | 34.0000 | 34.5000 | 773.77 | 781 | 13.842 | 38.755 |
| IL4719850002800010 | 1985-10-15T19:10 | 34.0000 | 34.5000 | 774.76 | 782 | 13.840 | 38.754 |
| IL4719850002800010 | 1985-10-15T19:10 | 34.0000 | 34.5000 | 775.75 | 783 | 13.838 | 38.754 |
| IL4719850002800010 | 1985-10-15T19:10 | 34.0000 | 34.5000 | 776.74 | 784 | 13.836 | 38.754 |
| IL4719850002800010 | 1985-10-15T19:10 | 34.0000 | 34.5000 | 777.73 | 785 | 13.833 | 38.752 |
| IL4719850002800010 | 1985-10-15T19:10 | 34.0000 | 34.5000 | 778.72 | 786 | 13.833 | 38.752 |
| IL4719850002800010 | 1985-10-15T19:10 | 34.0000 | 34.5000 | 779.71 | 787 | 13.831 | 38.752 |
| IL4719850002800010 | 1985-10-15T19:10 | 34.0000 | 34.5000 | 780.70 | 788 | 13.831 | 38.752 |
| IL4719850002800010 | 1985-10-15T19:10 | 34.0000 | 34.5000 | 781.68 | 789 | 13.831 | 38.752 |
| IL4719850002800010 | 1985-10-15T19:10 | 34.0000 | 34.5000 | 782.67 | 790 | 13.831 | 38.752 |
| IL4719850002800010 | 1985-10-15T19:10 | 34.0000 | 34.5000 | 783.66 | 791 | 13.831 | 38.752 |
| IL4719850002800010 | 1985-10-15T19:10 | 34.0000 | 34.5000 | 784.65 | 792 | 13.831 | 38.752 |
| IL4719850002800010 | 1985-10-15T19:10 | 34.0000 | 34.5000 | 785.64 | 793 | 13.831 | 38.752 |
| IL4719850002800010 | 1985-10-15T19:10 | 34.0000 | 34.5000 | 786.63 | 794 | 13.829 | 38.751 |
| IL4719850002800010 | 1985-10-15T19:10 | 34.0000 | 34.5000 | 787.62 | 795 | 13.826 | 38.751 |
| IL4719850002800010 | 1985-10-15T19:10 | 34.0000 | 34.5000 | 788.61 | 796 | 13.826 | 38.751 |
| IL4719850002800010 | 1985-10-15T19:10 | 34.0000 | 34.5000 | 789.60 | 797 | 13.824 | 38.751 |
| IL4719850002800010 | 1985-10-15T19:10 | 34.0000 | 34.5000 | 790.59 | 798 | 13.822 | 38.750 |
| IL4719850002800010 | 1985-10-15T19:10 | 34.0000 | 34.5000 | 791.57 | 799 | 13.821 | 38.750 |
| IL4719850002800010 | 1985-10-15T19:10 | 34.0000 | 34.5000 | 792.56 | 800 | 13.821 | 38.750 |
| IL4719850002800010 | 1985-10-15T19:10 | 34.0000 | 34.5000 | 793.55 | 801 | 13.821 | 38.750 |
| IL4719850002800010 | 1985-10-15T19:10 | 34.0000 | 34.5000 | 794.54 | 802 | 13.819 | 38.750 |
| IL4719850002800010 | 1985-10-15T19:10 | 34.0000 | 34.5000 | 795.53 | 803 | 13.819 | 38.750 |
| IL4719850002800010 | 1985-10-15T19:10 | 34.0000 | 34.5000 | 796.52 | 804 | 13.819 | 38.750 |
| IL4719850002800010 | 1985-10-15T19:10 | 34.0000 | 34.5000 | 797.51 | 805 | 13.817 | 38.749 |
| IL4719850002800010 | 1985-10-15T19:10 | 34.0000 | 34.5000 | 798.50 | 806 | 13.814 | 38.750 |
| IL4719850002800010 | 1985-10-15T19:10 | 34.0000 | 34.5000 | 799.49 | 807 | 13.814 | 38.749 |
| IL4719850002800010 | 1985-10-15T19:10 | 34.0000 | 34.5000 | 800.47 | 808 | 13.812 | 38.749 |
| IL4719850002800010 | 1985-10-15T19:10 | 34.0000 | 34.5000 | 801.46 | 809 | 13.812 | 38.748 |
| IL4719850002800010 | 1985-10-15T19:10 | 34.0000 | 34.5000 | 802.45 | 810 | 13.810 | 38.749 |
| IL4719850002800010 | 1985-10-15T19:10 | 34.0000 | 34.5000 | 803.44 | 811 | 13.810 | 38.749 |
| IL4719850002800010 | 1985-10-15T19:10 | 34.0000 | 34.5000 | 804.43 | 812 | 13.809 | 38.748 |
| IL4719850002800010 | 1985-10-15T19:10 | 34.0000 | 34.5000 | 805.42 | 813 | 13.807 | 38.747 |
| IL4719850002800010 | 1985-10-15T19:10 | 34.0000 | 34.5000 | 806.41 | 814 | 13.805 | 38.747 |
| IL4719850002800010 | 1985-10-15T19:10 | 34.0000 | 34.5000 | 807.40 | 815 | 13.803 | 38.747 |
| IL4719850002800010 | 1985-10-15T19:10 | 34.0000 | 34.5000 | 808.39 | 816 | 13.803 | 38.747 |
| IL4719850002800010 | 1985-10-15T19:10 | 34.0000 | 34.5000 | 809.37 | 817 | 13.802 | 38.745 |
| IL4719850002800010 | 1985-10-15T19:10 | 34.0000 | 34.5000 | 810.36 | 818 | 13.798 | 38.744 |
| IL4719850002800010 | 1985-10-15T19:10 | 34.0000 | 34.5000 | 811.35 | 819 | 13.796 | 38.744 |
| IL4719850002800010 | 1985-10-15T19:10 | 34.0000 | 34.5000 | 812.34 | 820 | 13.796 | 38.744 |
| IL4719850002800010 | 1985-10-15T19:10 | 34.0000 | 34.5000 | 813.33 | 821 | 13.796 | 38.744 |
| IL4719850002800010 | 1985-10-15T19:10 | 34.0000 | 34.5000 | 814.32 | 822 | 13.796 | 38.745 |
| IL4719850002800010 | 1985-10-15T19:10 | 34.0000 | 34.5000 | 815.31 | 823 | 13.796 | 38.744 |
| IL4719850002800010 | 1985-10-15T19:10 | 34.0000 | 34.5000 | 816.30 | 824 | 13.796 | 38.744 |
| IL4719850002800010 | 1985-10-15T19:10 | 34.0000 | 34.5000 | 817.28 | 825 | 13.795 | 38.743 |
| IL4719850002800010 | 1985-10-15T19:10 | 34.0000 | 34.5000 | 818.27 | 826 | 13.791 | 38.743 |
| IL4719850002800010 | 1985-10-15T19:10 | 34.0000 | 34.5000 | 819.26 | 827 | 13.791 | 38.743 |
| IL4719850002800010 | 1985-10-15T19:10 | 34.0000 | 34.5000 | 820.25 | 828 | 13.791 | 38.743 |
| IL4719850002800010 | 1985-10-15T19:10 | 34.0000 | 34.5000 | 821.24 | 829 | 13.789 | 38.743 |
| IL4719850002800010 | 1985-10-15T19:10 | 34.0000 | 34.5000 | 822.23 | 830 | 13.789 | 38.743 |
| IL4719850002800010 | 1985-10-15T19:10 | 34.0000 | 34.5000 | 823.22 | 831 | 13.789 | 38.743 |
| IL4719850002800010 | 1985-10-15T19:10 | 34.0000 | 34.5000 | 824.21 | 832 | 13.788 | 38.743 |
| IL4719850002800010 | 1985-10-15T19:10 | 34.0000 | 34.5000 | 825.20 | 833 | 13.788 | 38.743 |
| IL4719850002800010 | 1985-10-15T19:10 | 34.0000 | 34.5000 | 826.18 | 834 | 13.788 | 38.743 |
| IL4719850002800010 | 1985-10-15T19:10 | 34.0000 | 34.5000 | 827.17 | 835 | 13.786 | 38.743 |
| IL4719850002800010 | 1985-10-15T19:10 | 34.0000 | 34.5000 | 828.16 | 836 | 13.784 | 38.743 |
| IL4719850002800010 | 1985-10-15T19:10 | 34.0000 | 34.5000 | 829.15 | 837 | 13.784 | 38.742 |
| IL4719850002800010 | 1985-10-15T19:10 | 34.0000 | 34.5000 | 830.14 | 838 | 13.784 | 38.742 |
| IL4719850002800010 | 1985-10-15T19:10 | 34.0000 | 34.5000 | 831.13 | 839 | 13.782 | 38.742 |
| IL4719850002800010 | 1985-10-15T19:10 | 34.0000 | 34.5000 | 832.12 | 840 | 13.782 | 38.742 |
| IL4719850002800010 | 1985-10-15T19:10 | 34.0000 | 34.5000 | 833.11 | 841 | 13.781 | 38.742 |
| IL4719850002800010 | 1985-10-15T19:10 | 34.0000 | 34.5000 | 834.09 | 842 | 13.781 | 38.741 |
| IL4719850002800010 | 1985-10-15T19:10 | 34.0000 | 34.5000 | 835.08 | 843 | 13.779 | 38.741 |
| IL4719850002800010 | 1985-10-15T19:10 | 34.0000 | 34.5000 | 836.07 | 844 | 13.779 | 38.741 |
| IL4719850002800010 | 1985-10-15T19:10 | 34.0000 | 34.5000 | 837.06 | 845 | 13.777 | 38.741 |
| IL4719850002800010 | 1985-10-15T19:10 | 34.0000 | 34.5000 | 838.05 | 846 | 13.777 | 38.741 |
| IL4719850002800010 | 1985-10-15T19:10 | 34.0000 | 34.5000 | 839.04 | 847 | 13.777 | 38.741 |
| IL4719850002800010 | 1985-10-15T19:10 | 34.0000 | 34.5000 | 840.03 | 848 | 13.777 | 38.740 |
| IL4719850002800010 | 1985-10-15T19:10 | 34.0000 | 34.5000 | 841.02 | 849 | 13.776 | 38.740 |
| IL4719850002800010 | 1985-10-15T19:10 | 34.0000 | 34.5000 | 842.00 | 850 | 13.774 | 38.740 |
| IL4719850002800010 | 1985-10-15T19:10 | 34.0000 | 34.5000 | 842.99 | 851 | 13.772 | 38.738 |
| IL4719850002800010 | 1985-10-15T19:10 | 34.0000 | 34.5000 | 843.98 | 852 | 13.772 | 38.738 |
| IL4719850002800010 | 1985-10-15T19:10 | 34.0000 | 34.5000 | 844.97 | 853 | 13.772 | 38.740 |
| IL4719850002800010 | 1985-10-15T19:10 | 34.0000 | 34.5000 | 845.96 | 854 | 13.772 | 38.740 |
| IL4719850002800010 | 1985-10-15T19:10 | 34.0000 | 34.5000 | 846.95 | 855 | 13.770 | 38.738 |
| IL4719850002800010 | 1985-10-15T19:10 | 34.0000 | 34.5000 | 847.94 | 856 | 13.770 | 38.738 |
| IL4719850002800010 | 1985-10-15T19:10 | 34.0000 | 34.5000 | 848.92 | 857 | 13.769 | 38.738 |
| IL4719850002800010 | 1985-10-15T19:10 | 34.0000 | 34.5000 | 849.91 | 858 | 13.769 | 38.738 |
| IL4719850002800010 | 1985-10-15T19:10 | 34.0000 | 34.5000 | 850.90 | 859 | 13.767 | 38.738 |
| IL4719850002800010 | 1985-10-15T19:10 | 34.0000 | 34.5000 | 851.89 | 860 | 13.765 | 38.738 |
| IL4719850002800010 | 1985-10-15T19:10 | 34.0000 | 34.5000 | 852.88 | 861 | 13.765 | 38.737 |
| IL4719850002800010 | 1985-10-15T19:10 | 34.0000 | 34.5000 | 853.87 | 862 | 13.765 | 38.737 |
| IL4719850002800010 | 1985-10-15T19:10 | 34.0000 | 34.5000 | 854.86 | 863 | 13.765 | 38.737 |
| IL4719850002800010 | 1985-10-15T19:10 | 34.0000 | 34.5000 | 855.85 | 864 | 13.765 | 38.737 |
| IL4719850002800010 | 1985-10-15T19:10 | 34.0000 | 34.5000 | 856.83 | 865 | 13.765 | 38.737 |
| IL4719850002800010 | 1985-10-15T19:10 | 34.0000 | 34.5000 | 857.82 | 866 | 13.765 | 38.737 |
| IL4719850002800010 | 1985-10-15T19:10 | 34.0000 | 34.5000 | 858.81 | 867 | 13.767 | 38.737 |
| IL4719850002800010 | 1985-10-15T19:10 | 34.0000 | 34.5000 | 859.80 | 868 | 13.767 | 38.737 |
| IL4719850002800010 | 1985-10-15T19:10 | 34.0000 | 34.5000 | 860.79 | 869 | 13.767 | 38.737 |
| IL4719850002800010 | 1985-10-15T19:10 | 34.0000 | 34.5000 | 861.78 | 870 | 13.767 | 38.738 |
| IL4719850002800010 | 1985-10-15T19:10 | 34.0000 | 34.5000 | 862.77 | 871 | 13.769 | 38.738 |
| IL4719850002800010 | 1985-10-15T19:10 | 34.0000 | 34.5000 | 863.75 | 872 | 13.767 | 38.737 |
| IL4719850002800010 | 1985-10-15T19:10 | 34.0000 | 34.5000 | 864.74 | 873 | 13.765 | 38.737 |
| IL4719850002800010 | 1985-10-15T19:10 | 34.0000 | 34.5000 | 865.73 | 874 | 13.765 | 38.737 |
| IL4719850002800010 | 1985-10-15T19:10 | 34.0000 | 34.5000 | 866.72 | 875 | 13.763 | 38.737 |
| IL4719850002800010 | 1985-10-15T19:10 | 34.0000 | 34.5000 | 867.71 | 876 | 13.763 | 38.737 |
| IL4719850002800010 | 1985-10-15T19:10 | 34.0000 | 34.5000 | 868.70 | 877 | 13.763 | 38.736 |
| IL4719850002800010 | 1985-10-15T19:10 | 34.0000 | 34.5000 | 869.69 | 878 | 13.762 | 38.736 |
| IL4719850002800010 | 1985-10-15T19:10 | 34.0000 | 34.5000 | 870.67 | 879 | 13.762 | 38.736 |
| IL4719850002800010 | 1985-10-15T19:10 | 34.0000 | 34.5000 | 871.66 | 880 | 13.760 | 38.736 |
| IL4719850002800010 | 1985-10-15T19:10 | 34.0000 | 34.5000 | 872.65 | 881 | 13.760 | 38.736 |
| IL4719850002800010 | 1985-10-15T19:10 | 34.0000 | 34.5000 | 873.64 | 882 | 13.758 | 38.736 |
| IL4719850002800010 | 1985-10-15T19:10 | 34.0000 | 34.5000 | 874.63 | 883 | 13.758 | 38.736 |
| IL4719850002800010 | 1985-10-15T19:10 | 34.0000 | 34.5000 | 875.62 | 884 | 13.758 | 38.736 |
| IL4719850002800010 | 1985-10-15T19:10 | 34.0000 | 34.5000 | 876.61 | 885 | 13.758 | 38.736 |
| IL4719850002800010 | 1985-10-15T19:10 | 34.0000 | 34.5000 | 877.59 | 886 | 13.758 | 38.736 |
| IL4719850002800010 | 1985-10-15T19:10 | 34.0000 | 34.5000 | 878.58 | 887 | 13.758 | 38.736 |
| IL4719850002800010 | 1985-10-15T19:10 | 34.0000 | 34.5000 | 879.57 | 888 | 13.756 | 38.736 |
| IL4719850002800010 | 1985-10-15T19:10 | 34.0000 | 34.5000 | 880.56 | 889 | 13.756 | 38.736 |
| IL4719850002800010 | 1985-10-15T19:10 | 34.0000 | 34.5000 | 881.55 | 890 | 13.756 | 38.736 |
| IL4719850002800010 | 1985-10-15T19:10 | 34.0000 | 34.5000 | 882.54 | 891 | 13.755 | 38.736 |
| IL4719850002800010 | 1985-10-15T19:10 | 34.0000 | 34.5000 | 883.53 | 892 | 13.755 | 38.735 |
| IL4719850002800010 | 1985-10-15T19:10 | 34.0000 | 34.5000 | 884.51 | 893 | 13.753 | 38.735 |
| IL4719850002800010 | 1985-10-15T19:10 | 34.0000 | 34.5000 | 885.50 | 894 | 13.753 | 38.734 |
| IL4719850002800010 | 1985-10-15T19:10 | 34.0000 | 34.5000 | 886.49 | 895 | 13.751 | 38.734 |
| IL4719850002800010 | 1985-10-15T19:10 | 34.0000 | 34.5000 | 887.48 | 896 | 13.750 | 38.734 |
| IL4719850002800010 | 1985-10-15T19:10 | 34.0000 | 34.5000 | 888.47 | 897 | 13.748 | 38.734 |
| IL4719850002800010 | 1985-10-15T19:10 | 34.0000 | 34.5000 | 889.46 | 898 | 13.748 | 38.733 |
| IL4719850002800010 | 1985-10-15T19:10 | 34.0000 | 34.5000 | 890.44 | 899 | 13.748 | 38.734 |
| IL4719850002800010 | 1985-10-15T19:10 | 34.0000 | 34.5000 | 891.43 | 900 | 13.748 | 38.734 |
| IL4719850002800010 | 1985-10-15T19:10 | 34.0000 | 34.5000 | 892.42 | 901 | 13.746 | 38.734 |
| IL4719850002800010 | 1985-10-15T19:10 | 34.0000 | 34.5000 | 893.41 | 902 | 13.746 | 38.734 |
| IL4719850002800010 | 1985-10-15T19:10 | 34.0000 | 34.5000 | 894.40 | 903 | 13.746 | 38.734 |
| IL4719850002800010 | 1985-10-15T19:10 | 34.0000 | 34.5000 | 895.39 | 904 | 13.746 | 38.733 |
| IL4719850002800010 | 1985-10-15T19:10 | 34.0000 | 34.5000 | 896.38 | 905 | 13.746 | 38.733 |
| IL4719850002800010 | 1985-10-15T19:10 | 34.0000 | 34.5000 | 897.36 | 906 | 13.744 | 38.733 |
| IL4719850002800010 | 1985-10-15T19:10 | 34.0000 | 34.5000 | 898.35 | 907 | 13.743 | 38.731 |
| IL4719850002800010 | 1985-10-15T19:10 | 34.0000 | 34.5000 | 899.34 | 908 | 13.743 | 38.731 |
| IL4719850002800010 | 1985-10-15T19:10 | 34.0000 | 34.5000 | 900.33 | 909 | 13.741 | 38.731 |
| IL4719850002800010 | 1985-10-15T19:10 | 34.0000 | 34.5000 | 901.32 | 910 | 13.741 | 38.733 |
| IL4719850002800010 | 1985-10-15T19:10 | 34.0000 | 34.5000 | 902.31 | 911 | 13.743 | 38.731 |
| IL4719850002800010 | 1985-10-15T19:10 | 34.0000 | 34.5000 | 903.29 | 912 | 13.741 | 38.731 |
| IL4719850002800010 | 1985-10-15T19:10 | 34.0000 | 34.5000 | 904.28 | 913 | 13.741 | 38.731 |
| IL4719850002800010 | 1985-10-15T19:10 | 34.0000 | 34.5000 | 905.27 | 914 | 13.737 | 38.731 |
| IL4719850002800010 | 1985-10-15T19:10 | 34.0000 | 34.5000 | 906.26 | 915 | 13.737 | 38.731 |
| IL4719850002800010 | 1985-10-15T19:10 | 34.0000 | 34.5000 | 907.25 | 916 | 13.737 | 38.731 |
| IL4719850002800010 | 1985-10-15T19:10 | 34.0000 | 34.5000 | 908.24 | 917 | 13.737 | 38.730 |
| IL4719850002800010 | 1985-10-15T19:10 | 34.0000 | 34.5000 | 909.23 | 918 | 13.736 | 38.730 |
| IL4719850002800010 | 1985-10-15T19:10 | 34.0000 | 34.5000 | 910.21 | 919 | 13.734 | 38.730 |
| IL4719850002800010 | 1985-10-15T19:10 | 34.0000 | 34.5000 | 911.20 | 920 | 13.734 | 38.730 |
| IL4719850002800010 | 1985-10-15T19:10 | 34.0000 | 34.5000 | 912.19 | 921 | 13.734 | 38.729 |
| IL4719850002800010 | 1985-10-15T19:10 | 34.0000 | 34.5000 | 913.18 | 922 | 13.732 | 38.729 |
| IL4719850002800010 | 1985-10-15T19:10 | 34.0000 | 34.5000 | 914.17 | 923 | 13.732 | 38.729 |
| IL4719850002800010 | 1985-10-15T19:10 | 34.0000 | 34.5000 | 915.16 | 924 | 13.729 | 38.729 |
| IL4719850002800010 | 1985-10-15T19:10 | 34.0000 | 34.5000 | 916.14 | 925 | 13.727 | 38.729 |
| IL4719850002800010 | 1985-10-15T19:10 | 34.0000 | 34.5000 | 917.13 | 926 | 13.727 | 38.729 |
| IL4719850002800010 | 1985-10-15T19:10 | 34.0000 | 34.5000 | 918.12 | 927 | 13.727 | 38.729 |
| IL4719850002800010 | 1985-10-15T19:10 | 34.0000 | 34.5000 | 919.11 | 928 | 13.727 | 38.728 |
| IL4719850002800010 | 1985-10-15T19:10 | 34.0000 | 34.5000 | 920.10 | 929 | 13.725 | 38.729 |
| IL4719850002800010 | 1985-10-15T19:10 | 34.0000 | 34.5000 | 921.09 | 930 | 13.725 | 38.728 |
| IL4719850002800010 | 1985-10-15T19:10 | 34.0000 | 34.5000 | 922.07 | 931 | 13.725 | 38.728 |
| IL4719850002800010 | 1985-10-15T19:10 | 34.0000 | 34.5000 | 923.06 | 932 | 13.723 | 38.728 |
| IL4719850002800010 | 1985-10-15T19:10 | 34.0000 | 34.5000 | 924.05 | 933 | 13.723 | 38.728 |
| IL4719850002800010 | 1985-10-15T19:10 | 34.0000 | 34.5000 | 925.04 | 934 | 13.723 | 38.728 |
| IL4719850002800010 | 1985-10-15T19:10 | 34.0000 | 34.5000 | 926.03 | 935 | 13.722 | 38.728 |
| IL4719850002800010 | 1985-10-15T19:10 | 34.0000 | 34.5000 | 927.02 | 936 | 13.722 | 38.728 |
| IL4719850002800010 | 1985-10-15T19:10 | 34.0000 | 34.5000 | 928.00 | 937 | 13.720 | 38.727 |
| IL4719850002800010 | 1985-10-15T19:10 | 34.0000 | 34.5000 | 928.99 | 938 | 13.720 | 38.727 |
| IL4719850002800010 | 1985-10-15T19:10 | 34.0000 | 34.5000 | 929.98 | 939 | 13.720 | 38.727 |
| IL4719850002800010 | 1985-10-15T19:10 | 34.0000 | 34.5000 | 930.97 | 940 | 13.720 | 38.727 |
| IL4719850002800010 | 1985-10-15T19:10 | 34.0000 | 34.5000 | 931.96 | 941 | 13.720 | 38.726 |
| IL4719850002800010 | 1985-10-15T19:10 | 34.0000 | 34.5000 | 932.95 | 942 | 13.720 | 38.726 |
| IL4719850002800010 | 1985-10-15T19:10 | 34.0000 | 34.5000 | 933.93 | 943 | 13.718 | 38.726 |
| IL4719850002800010 | 1985-10-15T19:10 | 34.0000 | 34.5000 | 934.92 | 944 | 13.718 | 38.726 |
| IL4719850002800010 | 1985-10-15T19:10 | 34.0000 | 34.5000 | 935.91 | 945 | 13.718 | 38.726 |
| IL4719850002800010 | 1985-10-15T19:10 | 34.0000 | 34.5000 | 936.90 | 946 | 13.718 | 38.726 |
| IL4719850002800010 | 1985-10-15T19:10 | 34.0000 | 34.5000 | 937.89 | 947 | 13.718 | 38.726 |
| IL4719850002800010 | 1985-10-15T19:10 | 34.0000 | 34.5000 | 938.88 | 948 | 13.717 | 38.726 |
| IL4719850002800010 | 1985-10-15T19:10 | 34.0000 | 34.5000 | 939.86 | 949 | 13.718 | 38.726 |
| IL4719850002800010 | 1985-10-15T19:10 | 34.0000 | 34.5000 | 940.85 | 950 | 13.717 | 38.726 |
| IL4719850002800010 | 1985-10-15T19:10 | 34.0000 | 34.5000 | 941.84 | 951 | 13.715 | 38.726 |
| IL4719850002800010 | 1985-10-15T19:10 | 34.0000 | 34.5000 | 942.83 | 952 | 13.715 | 38.726 |
| IL4719850002800010 | 1985-10-15T19:10 | 34.0000 | 34.5000 | 943.82 | 953 | 13.715 | 38.724 |
| IL4719850002800010 | 1985-10-15T19:10 | 34.0000 | 34.5000 | 944.80 | 954 | 13.715 | 38.724 |
| IL4719850002800010 | 1985-10-15T19:10 | 34.0000 | 34.5000 | 945.79 | 955 | 13.715 | 38.724 |
| IL4719850002800010 | 1985-10-15T19:10 | 34.0000 | 34.5000 | 946.78 | 956 | 13.713 | 38.724 |
| IL4719850002800010 | 1985-10-15T19:10 | 34.0000 | 34.5000 | 947.77 | 957 | 13.713 | 38.724 |
| IL4719850002800010 | 1985-10-15T19:10 | 34.0000 | 34.5000 | 948.76 | 958 | 13.713 | 38.724 |
| IL4719850002800010 | 1985-10-15T19:10 | 34.0000 | 34.5000 | 949.75 | 959 | 13.713 | 38.724 |
| IL4719850002800010 | 1985-10-15T19:10 | 34.0000 | 34.5000 | 950.73 | 960 | 13.711 | 38.724 |
| IL4719850002800010 | 1985-10-15T19:10 | 34.0000 | 34.5000 | 951.72 | 961 | 13.711 | 38.724 |
| IL4719850002800010 | 1985-10-15T19:10 | 34.0000 | 34.5000 | 952.71 | 962 | 13.711 | 38.724 |
| IL4719850002800010 | 1985-10-15T19:10 | 34.0000 | 34.5000 | 953.70 | 963 | 13.711 | 38.724 |
| IL4719850002800010 | 1985-10-15T19:10 | 34.0000 | 34.5000 | 954.69 | 964 | 13.711 | 38.724 |
| IL4719850002800010 | 1985-10-15T19:10 | 34.0000 | 34.5000 | 955.67 | 965 | 13.711 | 38.723 |
| IL4719850002800010 | 1985-10-15T19:10 | 34.0000 | 34.5000 | 956.66 | 966 | 13.711 | 38.724 |
| IL4719850002800010 | 1985-10-15T19:10 | 34.0000 | 34.5000 | 957.65 | 967 | 13.711 | 38.723 |
| IL4719850002800010 | 1985-10-15T19:10 | 34.0000 | 34.5000 | 958.64 | 968 | 13.711 | 38.723 |
| IL4719850002800010 | 1985-10-15T19:10 | 34.0000 | 34.5000 | 959.63 | 969 | 13.710 | 38.723 |
| IL4719850002800010 | 1985-10-15T19:10 | 34.0000 | 34.5000 | 960.62 | 970 | 13.710 | 38.723 |
| IL4719850002800010 | 1985-10-15T19:10 | 34.0000 | 34.5000 | 961.60 | 971 | 13.708 | 38.723 |
| IL4719850002800010 | 1985-10-15T19:10 | 34.0000 | 34.5000 | 962.59 | 972 | 13.706 | 38.723 |
| IL4719850002800010 | 1985-10-15T19:10 | 34.0000 | 34.5000 | 963.58 | 973 | 13.706 | 38.723 |
| IL4719850002800010 | 1985-10-15T19:10 | 34.0000 | 34.5000 | 964.57 | 974 | 13.706 | 38.723 |
| IL4719850002800010 | 1985-10-15T19:10 | 34.0000 | 34.5000 | 965.56 | 975 | 13.706 | 38.722 |
| IL4719850002800010 | 1985-10-15T19:10 | 34.0000 | 34.5000 | 966.54 | 976 | 13.706 | 38.722 |
| IL4719850002800010 | 1985-10-15T19:10 | 34.0000 | 34.5000 | 967.53 | 977 | 13.704 | 38.722 |
| IL4719850002800010 | 1985-10-15T19:10 | 34.0000 | 34.5000 | 968.52 | 978 | 13.704 | 38.722 |
| IL4719850002800010 | 1985-10-15T19:10 | 34.0000 | 34.5000 | 969.51 | 979 | 13.704 | 38.722 |
| IL4719850002800010 | 1985-10-15T19:10 | 34.0000 | 34.5000 | 970.50 | 980 | 13.704 | 38.722 |
| IL4719850002800010 | 1985-10-15T19:10 | 34.0000 | 34.5000 | 971.49 | 981 | 13.704 | 38.722 |
| IL4719850002800010 | 1985-10-15T19:10 | 34.0000 | 34.5000 | 972.47 | 982 | 13.704 | 38.722 |
| IL4719850002800010 | 1985-10-15T19:10 | 34.0000 | 34.5000 | 973.46 | 983 | 13.704 | 38.722 |
| IL4719850002800010 | 1985-10-15T19:10 | 34.0000 | 34.5000 | 974.45 | 984 | 13.704 | 38.722 |
| IL4719850002800010 | 1985-10-15T19:10 | 34.0000 | 34.5000 | 975.44 | 985 | 13.703 | 38.722 |
| IL4719850002800010 | 1985-10-15T19:10 | 34.0000 | 34.5000 | 976.43 | 986 | 13.701 | 38.722 |
| IL4719850002800010 | 1985-10-15T19:10 | 34.0000 | 34.5000 | 977.41 | 987 | 13.701 | 38.722 |
| IL4719850002800010 | 1985-10-15T19:10 | 34.0000 | 34.5000 | 978.40 | 988 | 13.701 | 38.722 |
| IL4719850002800010 | 1985-10-15T19:10 | 34.0000 | 34.5000 | 979.39 | 989 | 13.699 | 38.722 |
| IL4719850002800010 | 1985-10-15T19:10 | 34.0000 | 34.5000 | 980.38 | 990 | 13.699 | 38.722 |
| IL4719850002800010 | 1985-10-15T19:10 | 34.0000 | 34.5000 | 981.37 | 991 | 13.699 | 38.721 |
| IL4719850002800010 | 1985-10-15T19:10 | 34.0000 | 34.5000 | 982.35 | 992 | 13.699 | 38.722 |
| IL4719850002800010 | 1985-10-15T19:10 | 34.0000 | 34.5000 | 983.34 | 993 | 13.699 | 38.721 |
| IL4719850002800010 | 1985-10-15T19:10 | 34.0000 | 34.5000 | 984.33 | 994 | 13.697 | 38.721 |
| IL4719850002800010 | 1985-10-15T19:10 | 34.0000 | 34.5000 | 985.32 | 995 | 13.697 | 38.722 |
| IL4719850002800010 | 1985-10-15T19:10 | 34.0000 | 34.5000 | 986.31 | 996 | 13.697 | 38.721 |
| IL4719850002800010 | 1985-10-15T19:10 | 34.0000 | 34.5000 | 987.29 | 997 | 13.697 | 38.721 |
| IL4719850002800010 | 1985-10-15T19:10 | 34.0000 | 34.5000 | 988.28 | 998 | 13.697 | 38.721 |
| IL4719850002800010 | 1985-10-15T19:10 | 34.0000 | 34.5000 | 989.27 | 999 | 13.697 | 38.721 |
| IL4719850002800010 | 1985-10-15T19:10 | 34.0000 | 34.5000 | 990.26 | 1000 | 13.697 | 38.721 |
| IL4719850002800010 | 1985-10-15T19:10 | 34.0000 | 34.5000 | 991.25 | 1001 | 13.697 | 38.721 |
| IL4719850002800010 | 1985-10-15T19:10 | 34.0000 | 34.5000 | 992.23 | 1002 | 13.697 | 38.721 |
| IL4719850002800010 | 1985-10-15T19:10 | 34.0000 | 34.5000 | 993.22 | 1003 | 13.697 | 38.721 |
| IL4719850002800010 | 1985-10-15T19:10 | 34.0000 | 34.5000 | 994.21 | 1004 | 13.697 | 38.721 |
| IL4719850002800010 | 1985-10-15T19:10 | 34.0000 | 34.5000 | 995.20 | 1005 | 13.697 | 38.721 |
| IL4719850002800010 | 1985-10-15T19:10 | 34.0000 | 34.5000 | 996.19 | 1006 | 13.697 | 38.721 |
| IL4719850002800010 | 1985-10-15T19:10 | 34.0000 | 34.5000 | 997.17 | 1007 | 13.697 | 38.721 |
| IL4719850002800010 | 1985-10-15T19:10 | 34.0000 | 34.5000 | 998.16 | 1008 | 13.697 | 38.721 |
| IL4719850002800010 | 1985-10-15T19:10 | 34.0000 | 34.5000 | 999.15 | 1009 | 13.697 | 38.721 |
| IL4719850002800010 | 1985-10-15T19:10 | 34.0000 | 34.5000 | 1000.14 | 1010 | 13.699 | 38.721 |
| IL4719850002800010 | 1985-10-15T19:10 | 34.0000 | 34.5000 | 1001.13 | 1011 | 13.699 | 38.721 |
| IL4719850002800010 | 1985-10-15T19:10 | 34.0000 | 34.5000 | 1002.11 | 1012 | 13.699 | 38.721 |
| IL4719850002800010 | 1985-10-15T19:10 | 34.0000 | 34.5000 | 1003.10 | 1013 | 13.699 | 38.721 |
| IL4719850002800010 | 1985-10-15T19:10 | 34.0000 | 34.5000 | 1004.09 | 1014 | 13.699 | 38.721 |
| IL4719850002800010 | 1985-10-15T19:10 | 34.0000 | 34.5000 | 1005.08 | 1015 | 13.697 | 38.721 |
| IL4719850002800010 | 1985-10-15T19:10 | 34.0000 | 34.5000 | 1006.07 | 1016 | 13.697 | 38.721 |
| IL4719850002800010 | 1985-10-15T19:10 | 34.0000 | 34.5000 | 1007.05 | 1017 | 13.697 | 38.720 |
| IL4719850002800010 | 1985-10-15T19:10 | 34.0000 | 34.5000 | 1008.04 | 1018 | 13.696 | 38.720 |
| IL4719850002800010 | 1985-10-15T19:10 | 34.0000 | 34.5000 | 1009.03 | 1019 | 13.694 | 38.720 |
| IL4719850002800010 | 1985-10-15T19:10 | 34.0000 | 34.5000 | 1010.02 | 1020 | 13.694 | 38.720 |
| IL4719850002800010 | 1985-10-15T19:10 | 34.0000 | 34.5000 | 1011.01 | 1021 | 13.694 | 38.719 |
| IL4719850002800010 | 1985-10-15T19:10 | 34.0000 | 34.5000 | 1011.99 | 1022 | 13.692 | 38.719 |
| IL4719850002800010 | 1985-10-15T19:10 | 34.0000 | 34.5000 | 1012.98 | 1023 | 13.692 | 38.719 |
| IL4719850002800010 | 1985-10-15T19:10 | 34.0000 | 34.5000 | 1013.97 | 1024 | 13.692 | 38.719 |
| IL4719850002800010 | 1985-10-15T19:10 | 34.0000 | 34.5000 | 1014.96 | 1025 | 13.692 | 38.719 |
| IL4719850002800010 | 1985-10-15T19:10 | 34.0000 | 34.5000 | 1015.95 | 1026 | 13.692 | 38.719 |
| IL4719850002800010 | 1985-10-15T19:10 | 34.0000 | 34.5000 | 1016.93 | 1027 | 13.690 | 38.719 |
| IL4719850002800010 | 1985-10-15T19:10 | 34.0000 | 34.5000 | 1017.92 | 1028 | 13.690 | 38.719 |
| IL4719850002800010 | 1985-10-15T19:10 | 34.0000 | 34.5000 | 1018.91 | 1029 | 13.689 | 38.719 |
| IL4719850002800010 | 1985-10-15T19:10 | 34.0000 | 34.5000 | 1019.90 | 1030 | 13.690 | 38.719 |
| IL4719850002800010 | 1985-10-15T19:10 | 34.0000 | 34.5000 | 1020.89 | 1031 | 13.690 | 38.717 |
| IL4719850002800010 | 1985-10-15T19:10 | 34.0000 | 34.5000 | 1021.87 | 1032 | 13.690 | 38.717 |
| IL4719850002800010 | 1985-10-15T19:10 | 34.0000 | 34.5000 | 1022.86 | 1033 | 13.689 | 38.717 |
| IL4719850002800010 | 1985-10-15T19:10 | 34.0000 | 34.5000 | 1023.85 | 1034 | 13.689 | 38.717 |
| IL4719850002800010 | 1985-10-15T19:10 | 34.0000 | 34.5000 | 1024.84 | 1035 | 13.689 | 38.717 |
| IL4719850002800010 | 1985-10-15T19:10 | 34.0000 | 34.5000 | 1025.83 | 1036 | 13.689 | 38.719 |
| IL4719850002800010 | 1985-10-15T19:10 | 34.0000 | 34.5000 | 1026.81 | 1037 | 13.689 | 38.719 |
| IL4719850002800010 | 1985-10-15T19:10 | 34.0000 | 34.5000 | 1027.80 | 1038 | 13.689 | 38.717 |
| IL4719850002800010 | 1985-10-15T19:10 | 34.0000 | 34.5000 | 1028.79 | 1039 | 13.689 | 38.717 |
| IL4719850002800010 | 1985-10-15T19:10 | 34.0000 | 34.5000 | 1029.78 | 1040 | 13.689 | 38.717 |
| IL4719850002800010 | 1985-10-15T19:10 | 34.0000 | 34.5000 | 1030.76 | 1041 | 13.689 | 38.717 |
| IL4719850002800010 | 1985-10-15T19:10 | 34.0000 | 34.5000 | 1031.75 | 1042 | 13.689 | 38.717 |
| IL4719850002800010 | 1985-10-15T19:10 | 34.0000 | 34.5000 | 1032.74 | 1043 | 13.689 | 38.717 |
| IL4719850002800010 | 1985-10-15T19:10 | 34.0000 | 34.5000 | 1033.73 | 1044 | 13.689 | 38.717 |
| IL4719850002800010 | 1985-10-15T19:10 | 34.0000 | 34.5000 | 1034.72 | 1045 | 13.689 | 38.717 |
| IL4719850002800010 | 1985-10-15T19:10 | 34.0000 | 34.5000 | 1035.70 | 1046 | 13.689 | 38.717 |
| IL4719850002800010 | 1985-10-15T19:10 | 34.0000 | 34.5000 | 1036.69 | 1047 | 13.689 | 38.717 |
| IL4719850002800010 | 1985-10-15T19:10 | 34.0000 | 34.5000 | 1037.68 | 1048 | 13.689 | 38.717 |
| IL4719850002800010 | 1985-10-15T19:10 | 34.0000 | 34.5000 | 1038.67 | 1049 | 13.689 | 38.717 |
| IL4719850002800010 | 1985-10-15T19:10 | 34.0000 | 34.5000 | 1039.65 | 1050 | 13.689 | 38.717 |
| IL4719850002800010 | 1985-10-15T19:10 | 34.0000 | 34.5000 | 1040.64 | 1051 | 13.689 | 38.717 |
| IL4719850002800010 | 1985-10-15T19:10 | 34.0000 | 34.5000 | 1041.63 | 1052 | 13.687 | 38.717 |
| IL4719850002800010 | 1985-10-15T19:10 | 34.0000 | 34.5000 | 1042.62 | 1053 | 13.687 | 38.717 |
| IL4719850002800010 | 1985-10-15T19:10 | 34.0000 | 34.5000 | 1043.61 | 1054 | 13.687 | 38.716 |
| IL4719850002800010 | 1985-10-15T19:10 | 34.0000 | 34.5000 | 1044.59 | 1055 | 13.687 | 38.716 |
| IL4719850002800010 | 1985-10-15T19:10 | 34.0000 | 34.5000 | 1045.58 | 1056 | 13.687 | 38.716 |
| IL4719850002800010 | 1985-10-15T19:10 | 34.0000 | 34.5000 | 1046.57 | 1057 | 13.685 | 38.716 |
| IL4719850002800010 | 1985-10-15T19:10 | 34.0000 | 34.5000 | 1047.56 | 1058 | 13.685 | 38.716 |
| IL4719850002800010 | 1985-10-15T19:10 | 34.0000 | 34.5000 | 1048.55 | 1059 | 13.685 | 38.716 |
| IL4719850002800010 | 1985-10-15T19:10 | 34.0000 | 34.5000 | 1049.53 | 1060 | 13.684 | 38.715 |
| IL4719850002800010 | 1985-10-15T19:10 | 34.0000 | 34.5000 | 1050.52 | 1061 | 13.682 | 38.715 |
| IL4719850002800010 | 1985-10-15T19:10 | 34.0000 | 34.5000 | 1051.51 | 1062 | 13.682 | 38.715 |
| IL4719850002800010 | 1985-10-15T19:10 | 34.0000 | 34.5000 | 1052.50 | 1063 | 13.682 | 38.715 |
| IL4719850002800010 | 1985-10-15T19:10 | 34.0000 | 34.5000 | 1053.48 | 1064 | 13.682 | 38.715 |
| IL4719850002800010 | 1985-10-15T19:10 | 34.0000 | 34.5000 | 1054.47 | 1065 | 13.682 | 38.715 |
| IL4719850002800010 | 1985-10-15T19:10 | 34.0000 | 34.5000 | 1055.46 | 1066 | 13.682 | 38.715 |
| IL4719850002800010 | 1985-10-15T19:10 | 34.0000 | 34.5000 | 1056.45 | 1067 | 13.680 | 38.715 |
| IL4719850002800010 | 1985-10-15T19:10 | 34.0000 | 34.5000 | 1057.43 | 1068 | 13.680 | 38.715 |
| IL4719850002800010 | 1985-10-15T19:10 | 34.0000 | 34.5000 | 1058.42 | 1069 | 13.680 | 38.715 |
| IL4719850002800010 | 1985-10-15T19:10 | 34.0000 | 34.5000 | 1059.41 | 1070 | 13.680 | 38.715 |
| IL4719850002800010 | 1985-10-15T19:10 | 34.0000 | 34.5000 | 1060.40 | 1071 | 13.680 | 38.715 |
| IL4719850002800010 | 1985-10-15T19:10 | 34.0000 | 34.5000 | 1061.39 | 1072 | 13.680 | 38.715 |
| IL4719850002800010 | 1985-10-15T19:10 | 34.0000 | 34.5000 | 1062.37 | 1073 | 13.678 | 38.715 |
| IL4719850002800010 | 1985-10-15T19:10 | 34.0000 | 34.5000 | 1063.36 | 1074 | 13.678 | 38.715 |
| IL4719850002800010 | 1985-10-15T19:10 | 34.0000 | 34.5000 | 1064.35 | 1075 | 13.678 | 38.715 |
| IL4719850002800010 | 1985-10-15T19:10 | 34.0000 | 34.5000 | 1065.34 | 1076 | 13.678 | 38.715 |
| IL4719850002800010 | 1985-10-15T19:10 | 34.0000 | 34.5000 | 1066.32 | 1077 | 13.678 | 38.715 |
| IL4719850002800010 | 1985-10-15T19:10 | 34.0000 | 34.5000 | 1067.31 | 1078 | 13.678 | 38.715 |
| IL4719850002800010 | 1985-10-15T19:10 | 34.0000 | 34.5000 | 1068.30 | 1079 | 13.678 | 38.715 |
| IL4719850002800010 | 1985-10-15T19:10 | 34.0000 | 34.5000 | 1069.29 | 1080 | 13.678 | 38.715 |
| IL4719850002800010 | 1985-10-15T19:10 | 34.0000 | 34.5000 | 1070.27 | 1081 | 13.678 | 38.715 |
| IL4719850002800010 | 1985-10-15T19:10 | 34.0000 | 34.5000 | 1071.26 | 1082 | 13.678 | 38.715 |
| IL4719850002800010 | 1985-10-15T19:10 | 34.0000 | 34.5000 | 1072.25 | 1083 | 13.678 | 38.715 |
| IL4719850002800010 | 1985-10-15T19:10 | 34.0000 | 34.5000 | 1073.24 | 1084 | 13.678 | 38.715 |
| IL4719850002800010 | 1985-10-15T19:10 | 34.0000 | 34.5000 | 1074.23 | 1085 | 13.678 | 38.715 |
| IL4719850002800010 | 1985-10-15T19:10 | 34.0000 | 34.5000 | 1075.21 | 1086 | 13.678 | 38.715 |
| IL4719850002800010 | 1985-10-15T19:10 | 34.0000 | 34.5000 | 1076.20 | 1087 | 13.678 | 38.715 |
| IL4719850002800010 | 1985-10-15T19:10 | 34.0000 | 34.5000 | 1077.19 | 1088 | 13.678 | 38.715 |
| IL4719850002800010 | 1985-10-15T19:10 | 34.0000 | 34.5000 | 1078.18 | 1089 | 13.677 | 38.714 |
| IL4719850002800010 | 1985-10-15T19:10 | 34.0000 | 34.5000 | 1079.16 | 1090 | 13.675 | 38.714 |
| IL4719850002800010 | 1985-10-15T19:10 | 34.0000 | 34.5000 | 1080.15 | 1091 | 13.675 | 38.714 |
| IL4719850002800010 | 1985-10-15T19:10 | 34.0000 | 34.5000 | 1081.14 | 1092 | 13.675 | 38.714 |
| IL4719850002800010 | 1985-10-15T19:10 | 34.0000 | 34.5000 | 1082.13 | 1093 | 13.675 | 38.714 |
| IL4719850002800010 | 1985-10-15T19:10 | 34.0000 | 34.5000 | 1083.11 | 1094 | 13.675 | 38.714 |
| IL4719850002800010 | 1985-10-15T19:10 | 34.0000 | 34.5000 | 1084.10 | 1095 | 13.675 | 38.714 |
| IL4719850002800010 | 1985-10-15T19:10 | 34.0000 | 34.5000 | 1085.09 | 1096 | 13.675 | 38.714 |
| IL4719850002800010 | 1985-10-15T19:10 | 34.0000 | 34.5000 | 1086.08 | 1097 | 13.675 | 38.714 |
| IL4719850002800010 | 1985-10-15T19:10 | 34.0000 | 34.5000 | 1087.06 | 1098 | 13.673 | 38.714 |
| IL4719850002800010 | 1985-10-15T19:10 | 34.0000 | 34.5000 | 1088.05 | 1099 | 13.673 | 38.713 |
| IL4719850002800010 | 1985-10-15T19:10 | 34.0000 | 34.5000 | 1089.04 | 1100 | 13.673 | 38.713 |
| IL4719850002800010 | 1985-10-15T19:10 | 34.0000 | 34.5000 | 1090.03 | 1101 | 13.673 | 38.713 |
| IL4719850002800010 | 1985-10-15T19:10 | 34.0000 | 34.5000 | 1091.02 | 1102 | 13.673 | 38.713 |
| IL4719850002800010 | 1985-10-15T19:10 | 34.0000 | 34.5000 | 1092.00 | 1103 | 13.673 | 38.713 |
| IL4719850002800010 | 1985-10-15T19:10 | 34.0000 | 34.5000 | 1092.99 | 1104 | 13.673 | 38.713 |
| IL4719850002800010 | 1985-10-15T19:10 | 34.0000 | 34.5000 | 1093.98 | 1105 | 13.673 | 38.713 |
| IL4719850002800010 | 1985-10-15T19:10 | 34.0000 | 34.5000 | 1094.97 | 1106 | 13.671 | 38.712 |
| IL4719850002800010 | 1985-10-15T19:10 | 34.0000 | 34.5000 | 1095.95 | 1107 | 13.670 | 38.713 |
| IL4719850002800010 | 1985-10-15T19:10 | 34.0000 | 34.5000 | 1096.94 | 1108 | 13.670 | 38.713 |
| IL4719850002800010 | 1985-10-15T19:10 | 34.0000 | 34.5000 | 1097.93 | 1109 | 13.670 | 38.712 |
| IL4719850002800010 | 1985-10-15T19:10 | 34.0000 | 34.5000 | 1098.92 | 1110 | 13.670 | 38.712 |
| IL4719850002800010 | 1985-10-15T19:10 | 34.0000 | 34.5000 | 1099.90 | 1111 | 13.670 | 38.712 |
| IL4719850002800010 | 1985-10-15T19:10 | 34.0000 | 34.5000 | 1100.89 | 1112 | 13.670 | 38.712 |
| IL4719850002800010 | 1985-10-15T19:10 | 34.0000 | 34.5000 | 1101.88 | 1113 | 13.670 | 38.712 |
| IL4719850002800010 | 1985-10-15T19:10 | 34.0000 | 34.5000 | 1102.87 | 1114 | 13.668 | 38.712 |
| IL4719850002800010 | 1985-10-15T19:10 | 34.0000 | 34.5000 | 1103.85 | 1115 | 13.666 | 38.710 |
| IL4719850002800010 | 1985-10-15T19:10 | 34.0000 | 34.5000 | 1104.84 | 1116 | 13.666 | 38.710 |
| IL4719850002800010 | 1985-10-15T19:10 | 34.0000 | 34.5000 | 1105.83 | 1117 | 13.666 | 38.710 |
| IL4719850002800010 | 1985-10-15T19:10 | 34.0000 | 34.5000 | 1106.82 | 1118 | 13.666 | 38.710 |
| IL4719850002800010 | 1985-10-15T19:10 | 34.0000 | 34.5000 | 1107.80 | 1119 | 13.666 | 38.710 |
| IL4719850002800010 | 1985-10-15T19:10 | 34.0000 | 34.5000 | 1108.79 | 1120 | 13.666 | 38.710 |
| IL4719850002800010 | 1985-10-15T19:10 | 34.0000 | 34.5000 | 1109.78 | 1121 | 13.664 | 38.710 |
| IL4719850002800010 | 1985-10-15T19:10 | 34.0000 | 34.5000 | 1110.77 | 1122 | 13.663 | 38.710 |
| IL4719850002800010 | 1985-10-15T19:10 | 34.0000 | 34.5000 | 1111.75 | 1123 | 13.663 | 38.710 |
| IL4719850002800010 | 1985-10-15T19:10 | 34.0000 | 34.5000 | 1112.74 | 1124 | 13.663 | 38.709 |
| IL4719850002800010 | 1985-10-15T19:10 | 34.0000 | 34.5000 | 1113.73 | 1125 | 13.663 | 38.709 |
| IL4719850002800010 | 1985-10-15T19:10 | 34.0000 | 34.5000 | 1114.72 | 1126 | 13.663 | 38.709 |
| IL4719850002800010 | 1985-10-15T19:10 | 34.0000 | 34.5000 | 1115.70 | 1127 | 13.663 | 38.709 |
| IL4719850002800010 | 1985-10-15T19:10 | 34.0000 | 34.5000 | 1116.69 | 1128 | 13.663 | 38.709 |
| IL4719850002800010 | 1985-10-15T19:10 | 34.0000 | 34.5000 | 1117.68 | 1129 | 13.663 | 38.709 |
| IL4719850002800010 | 1985-10-15T19:10 | 34.0000 | 34.5000 | 1118.67 | 1130 | 13.663 | 38.709 |
| IL4719850002800010 | 1985-10-15T19:10 | 34.0000 | 34.5000 | 1119.65 | 1131 | 13.663 | 38.709 |
| IL4719850002800010 | 1985-10-15T19:10 | 34.0000 | 34.5000 | 1120.64 | 1132 | 13.663 | 38.710 |
| IL4719850002800010 | 1985-10-15T19:10 | 34.0000 | 34.5000 | 1121.63 | 1133 | 13.663 | 38.710 |
| IL4719850002800010 | 1985-10-15T19:10 | 34.0000 | 34.5000 | 1122.62 | 1134 | 13.663 | 38.709 |
| IL4719850002800010 | 1985-10-15T19:10 | 34.0000 | 34.5000 | 1123.60 | 1135 | 13.663 | 38.709 |
| IL4719850002800010 | 1985-10-15T19:10 | 34.0000 | 34.5000 | 1124.59 | 1136 | 13.663 | 38.709 |
| IL4719850002800010 | 1985-10-15T19:10 | 34.0000 | 34.5000 | 1125.58 | 1137 | 13.663 | 38.709 |
| IL4719850002800010 | 1985-10-15T19:10 | 34.0000 | 34.5000 | 1126.57 | 1138 | 13.663 | 38.709 |
| IL4719850002800010 | 1985-10-15T19:10 | 34.0000 | 34.5000 | 1127.55 | 1139 | 13.661 | 38.709 |
| IL4719850002800010 | 1985-10-15T19:10 | 34.0000 | 34.5000 | 1128.54 | 1140 | 13.661 | 38.709 |
| IL4719850002800010 | 1985-10-15T19:10 | 34.0000 | 34.5000 | 1129.53 | 1141 | 13.663 | 38.709 |
| IL4719850002800010 | 1985-10-15T19:10 | 34.0000 | 34.5000 | 1130.51 | 1142 | 13.663 | 38.709 |
| IL4719850002800010 | 1985-10-15T19:10 | 34.0000 | 34.5000 | 1131.50 | 1143 | 13.661 | 38.709 |
| IL4719850002800010 | 1985-10-15T19:10 | 34.0000 | 34.5000 | 1132.49 | 1144 | 13.661 | 38.709 |
| IL4719850002800010 | 1985-10-15T19:10 | 34.0000 | 34.5000 | 1133.48 | 1145 | 13.661 | 38.709 |
| IL4719850002800010 | 1985-10-15T19:10 | 34.0000 | 34.5000 | 1134.46 | 1146 | 13.661 | 38.709 |
| IL4719850002800010 | 1985-10-15T19:10 | 34.0000 | 34.5000 | 1135.45 | 1147 | 13.661 | 38.709 |
| IL4719850002800010 | 1985-10-15T19:10 | 34.0000 | 34.5000 | 1136.44 | 1148 | 13.661 | 38.709 |
| IL4719850002800010 | 1985-10-15T19:10 | 34.0000 | 34.5000 | 1137.43 | 1149 | 13.661 | 38.709 |
| IL4719850002800010 | 1985-10-15T19:10 | 34.0000 | 34.5000 | 1138.41 | 1150 | 13.661 | 38.709 |
| IL4719850002800010 | 1985-10-15T19:10 | 34.0000 | 34.5000 | 1139.40 | 1151 | 13.661 | 38.708 |
| IL4719850002800010 | 1985-10-15T19:10 | 34.0000 | 34.5000 | 1140.39 | 1152 | 13.661 | 38.708 |
| IL4719850002800010 | 1985-10-15T19:10 | 34.0000 | 34.5000 | 1141.38 | 1153 | 13.661 | 38.709 |
| IL4719850002800010 | 1985-10-15T19:10 | 34.0000 | 34.5000 | 1142.36 | 1154 | 13.661 | 38.708 |
| IL4719850002800010 | 1985-10-15T19:10 | 34.0000 | 34.5000 | 1143.35 | 1155 | 13.661 | 38.708 |
| IL4719850002800010 | 1985-10-15T19:10 | 34.0000 | 34.5000 | 1144.34 | 1156 | 13.659 | 38.708 |
| IL4719850002800010 | 1985-10-15T19:10 | 34.0000 | 34.5000 | 1145.33 | 1157 | 13.659 | 38.708 |
| IL4719850002800010 | 1985-10-15T19:10 | 34.0000 | 34.5000 | 1146.31 | 1158 | 13.661 | 38.708 |
| IL4719850002800010 | 1985-10-15T19:10 | 34.0000 | 34.5000 | 1147.30 | 1159 | 13.659 | 38.708 |
| IL4719850002800010 | 1985-10-15T19:10 | 34.0000 | 34.5000 | 1148.29 | 1160 | 13.659 | 38.708 |
| IL4719850002800010 | 1985-10-15T19:10 | 34.0000 | 34.5000 | 1149.27 | 1161 | 13.659 | 38.708 |
| IL4719850002800010 | 1985-10-15T19:10 | 34.0000 | 34.5000 | 1150.26 | 1162 | 13.659 | 38.708 |
| IL4719850002800010 | 1985-10-15T19:10 | 34.0000 | 34.5000 | 1151.25 | 1163 | 13.659 | 38.708 |
| IL4719850002800010 | 1985-10-15T19:10 | 34.0000 | 34.5000 | 1152.24 | 1164 | 13.659 | 38.708 |
| IL4719850002800010 | 1985-10-15T19:10 | 34.0000 | 34.5000 | 1153.22 | 1165 | 13.659 | 38.708 |
| IL4719850002800010 | 1985-10-15T19:10 | 34.0000 | 34.5000 | 1154.21 | 1166 | 13.659 | 38.708 |
| IL4719850002800010 | 1985-10-15T19:10 | 34.0000 | 34.5000 | 1155.20 | 1167 | 13.659 | 38.708 |
| IL4719850002800010 | 1985-10-15T19:10 | 34.0000 | 34.5000 | 1156.19 | 1168 | 13.659 | 38.708 |
| IL4719850002800010 | 1985-10-15T19:10 | 34.0000 | 34.5000 | 1157.17 | 1169 | 13.659 | 38.708 |
| IL4719850002800010 | 1985-10-15T19:10 | 34.0000 | 34.5000 | 1158.16 | 1170 | 13.657 | 38.708 |
| IL4719850002800010 | 1985-10-15T19:10 | 34.0000 | 34.5000 | 1159.15 | 1171 | 13.656 | 38.708 |
| IL4719850002800010 | 1985-10-15T19:10 | 34.0000 | 34.5000 | 1160.13 | 1172 | 13.656 | 38.708 |
| IL4719850002800010 | 1985-10-15T19:10 | 34.0000 | 34.5000 | 1161.12 | 1173 | 13.656 | 38.708 |
| IL4719850002800010 | 1985-10-15T19:10 | 34.0000 | 34.5000 | 1162.11 | 1174 | 13.656 | 38.708 |
| IL4719850002800010 | 1985-10-15T19:10 | 34.0000 | 34.5000 | 1163.10 | 1175 | 13.654 | 38.707 |
| IL4719850002800010 | 1985-10-15T19:10 | 34.0000 | 34.5000 | 1164.08 | 1176 | 13.654 | 38.708 |
| IL4719850002800010 | 1985-10-15T19:10 | 34.0000 | 34.5000 | 1165.07 | 1177 | 13.654 | 38.708 |
| IL4719850002800010 | 1985-10-15T19:10 | 34.0000 | 34.5000 | 1166.06 | 1178 | 13.654 | 38.708 |
| IL4719850002800010 | 1985-10-15T19:10 | 34.0000 | 34.5000 | 1167.05 | 1179 | 13.654 | 38.707 |
| IL4719850002800010 | 1985-10-15T19:10 | 34.0000 | 34.5000 | 1168.03 | 1180 | 13.654 | 38.707 |
| IL4719850002800010 | 1985-10-15T19:10 | 34.0000 | 34.5000 | 1169.02 | 1181 | 13.654 | 38.707 |
| IL4719850002800010 | 1985-10-15T19:10 | 34.0000 | 34.5000 | 1170.01 | 1182 | 13.654 | 38.707 |
| IL4719850002800010 | 1985-10-15T19:10 | 34.0000 | 34.5000 | 1170.99 | 1183 | 13.654 | 38.707 |
| IL4719850002800010 | 1985-10-15T19:10 | 34.0000 | 34.5000 | 1171.98 | 1184 | 13.652 | 38.707 |
| IL4719850002800010 | 1985-10-15T19:10 | 34.0000 | 34.5000 | 1172.97 | 1185 | 13.652 | 38.707 |
| IL4719850002800010 | 1985-10-15T19:10 | 34.0000 | 34.5000 | 1173.96 | 1186 | 13.652 | 38.707 |
| IL4719850002800010 | 1985-10-15T19:10 | 34.0000 | 34.5000 | 1174.94 | 1187 | 13.652 | 38.707 |
| IL4719850002800010 | 1985-10-15T19:10 | 34.0000 | 34.5000 | 1175.93 | 1188 | 13.654 | 38.706 |
| IL4719850002800010 | 1985-10-15T19:10 | 34.0000 | 34.5000 | 1176.92 | 1189 | 13.654 | 38.706 |
| IL4719850002800010 | 1985-10-15T19:10 | 34.0000 | 34.5000 | 1177.91 | 1190 | 13.652 | 38.707 |
| IL4719850002800010 | 1985-10-15T19:10 | 34.0000 | 34.5000 | 1178.89 | 1191 | 13.654 | 38.707 |
| IL4719850002800010 | 1985-10-15T19:10 | 34.0000 | 34.5000 | 1179.88 | 1192 | 13.654 | 38.707 |
| IL4719850002800010 | 1985-10-15T19:10 | 34.0000 | 34.5000 | 1180.87 | 1193 | 13.654 | 38.707 |
| IL4719850002800010 | 1985-10-15T19:10 | 34.0000 | 34.5000 | 1181.85 | 1194 | 13.654 | 38.707 |
| IL4719850002800010 | 1985-10-15T19:10 | 34.0000 | 34.5000 | 1182.84 | 1195 | 13.654 | 38.707 |
| IL4719850002800010 | 1985-10-15T19:10 | 34.0000 | 34.5000 | 1183.83 | 1196 | 13.654 | 38.707 |
| IL4719850002800010 | 1985-10-15T19:10 | 34.0000 | 34.5000 | 1184.82 | 1197 | 13.654 | 38.706 |
| IL4719850002800010 | 1985-10-15T19:10 | 34.0000 | 34.5000 | 1185.80 | 1198 | 13.654 | 38.706 |
| IL4719850002800010 | 1985-10-15T19:10 | 34.0000 | 34.5000 | 1186.79 | 1199 | 13.652 | 38.707 |
| IL4719850002800010 | 1985-10-15T19:10 | 34.0000 | 34.5000 | 1187.78 | 1200 | 13.652 | 38.706 |
| IL4719850002800010 | 1985-10-15T19:10 | 34.0000 | 34.5000 | 1188.76 | 1201 | 13.654 | 38.706 |
| IL4719850002800010 | 1985-10-15T19:10 | 34.0000 | 34.5000 | 1189.75 | 1202 | 13.652 | 38.706 |
| IL4719850002800010 | 1985-10-15T19:10 | 34.0000 | 34.5000 | 1190.74 | 1203 | 13.652 | 38.706 |
| IL4719850002800010 | 1985-10-15T19:10 | 34.0000 | 34.5000 | 1191.73 | 1204 | 13.652 | 38.706 |
| IL4719850002800010 | 1985-10-15T19:10 | 34.0000 | 34.5000 | 1192.71 | 1205 | 13.652 | 38.706 |
| IL4719850002800010 | 1985-10-15T19:10 | 34.0000 | 34.5000 | 1193.70 | 1206 | 13.652 | 38.706 |
| IL4719850002800010 | 1985-10-15T19:10 | 34.0000 | 34.5000 | 1194.69 | 1207 | 13.651 | 38.706 |
| IL4719850002800010 | 1985-10-15T19:10 | 34.0000 | 34.5000 | 1195.67 | 1208 | 13.651 | 38.705 |
| IL4719850002800010 | 1985-10-15T19:10 | 34.0000 | 34.5000 | 1196.66 | 1209 | 13.649 | 38.705 |
| IL4719850002800010 | 1985-10-15T19:10 | 34.0000 | 34.5000 | 1197.65 | 1210 | 13.649 | 38.705 |
| IL4719850002800010 | 1985-10-15T19:10 | 34.0000 | 34.5000 | 1198.64 | 1211 | 13.649 | 38.705 |
| IL4719850002800010 | 1985-10-15T19:10 | 34.0000 | 34.5000 | 1199.62 | 1212 | 13.649 | 38.705 |
| IL4719850002800010 | 1985-10-15T19:10 | 34.0000 | 34.5000 | 1200.61 | 1213 | 13.649 | 38.703 |
| IL4719850002800010 | 1985-10-15T19:10 | 34.0000 | 34.5000 | 1201.60 | 1214 | 13.647 | 38.703 |
| IL4719850002800010 | 1985-10-15T19:10 | 34.0000 | 34.5000 | 1202.58 | 1215 | 13.647 | 38.705 |
| IL4719850002800010 | 1985-10-15T19:10 | 34.0000 | 34.5000 | 1203.57 | 1216 | 13.647 | 38.703 |
| IL4719850002800010 | 1985-10-15T19:10 | 34.0000 | 34.5000 | 1204.56 | 1217 | 13.647 | 38.705 |
| IL4719850002800010 | 1985-10-15T19:10 | 34.0000 | 34.5000 | 1205.54 | 1218 | 13.647 | 38.703 |
| IL4719850002800010 | 1985-10-15T19:10 | 34.0000 | 34.5000 | 1206.53 | 1219 | 13.647 | 38.705 |
| IL4719850002800010 | 1985-10-15T19:10 | 34.0000 | 34.5000 | 1207.52 | 1220 | 13.647 | 38.703 |
| IL4719850002800010 | 1985-10-15T19:10 | 34.0000 | 34.5000 | 1208.51 | 1221 | 13.647 | 38.703 |
| IL4719850002800010 | 1985-10-15T19:10 | 34.0000 | 34.5000 | 1209.49 | 1222 | 13.647 | 38.703 |
| IL4719850002800010 | 1985-10-15T19:10 | 34.0000 | 34.5000 | 1210.48 | 1223 | 13.647 | 38.705 |
| IL4719850002800010 | 1985-10-15T19:10 | 34.0000 | 34.5000 | 1211.47 | 1224 | 13.647 | 38.705 |
| IL4719850002800010 | 1985-10-15T19:10 | 34.0000 | 34.5000 | 1212.45 | 1225 | 13.647 | 38.705 |
| IL4719850002800010 | 1985-10-15T19:10 | 34.0000 | 34.5000 | 1213.44 | 1226 | 13.647 | 38.703 |
| IL4719850002800010 | 1985-10-15T19:10 | 34.0000 | 34.5000 | 1214.43 | 1227 | 13.647 | 38.703 |
| IL4719850002800010 | 1985-10-15T19:10 | 34.0000 | 34.5000 | 1215.42 | 1228 | 13.647 | 38.705 |
| IL4719850002800010 | 1985-10-15T19:10 | 34.0000 | 34.5000 | 1216.40 | 1229 | 13.647 | 38.703 |
| IL4719850002800010 | 1985-10-15T19:10 | 34.0000 | 34.5000 | 1217.39 | 1230 | 13.647 | 38.705 |
| IL4719850002800010 | 1985-10-15T19:10 | 34.0000 | 34.5000 | 1218.38 | 1231 | 13.647 | 38.705 |
| IL4719850002800010 | 1985-10-15T19:10 | 34.0000 | 34.5000 | 1219.36 | 1232 | 13.647 | 38.705 |
| IL4719850002800010 | 1985-10-15T19:10 | 34.0000 | 34.5000 | 1220.35 | 1233 | 13.647 | 38.705 |
| IL4719850002800010 | 1985-10-15T19:10 | 34.0000 | 34.5000 | 1221.34 | 1234 | 13.647 | 38.703 |
| IL4719850002800010 | 1985-10-15T19:10 | 34.0000 | 34.5000 | 1222.32 | 1235 | 13.647 | 38.703 |
| IL4719850002800010 | 1985-10-15T19:10 | 34.0000 | 34.5000 | 1223.31 | 1236 | 13.647 | 38.703 |
| IL4719850002800010 | 1985-10-15T19:10 | 34.0000 | 34.5000 | 1224.30 | 1237 | 13.647 | 38.703 |
| IL4719850002800010 | 1985-10-15T19:10 | 34.0000 | 34.5000 | 1225.29 | 1238 | 13.647 | 38.705 |
| IL4719850002800010 | 1985-10-15T19:10 | 34.0000 | 34.5000 | 1226.27 | 1239 | 13.647 | 38.705 |
| IL4719850002800010 | 1985-10-15T19:10 | 34.0000 | 34.5000 | 1227.26 | 1240 | 13.647 | 38.705 |
| IL4719850002800010 | 1985-10-15T19:10 | 34.0000 | 34.5000 | 1228.25 | 1241 | 13.647 | 38.703 |
| IL4719850002800010 | 1985-10-15T19:10 | 34.0000 | 34.5000 | 1229.23 | 1242 | 13.647 | 38.703 |
| IL4719850002800010 | 1985-10-15T19:10 | 34.0000 | 34.5000 | 1230.22 | 1243 | 13.647 | 38.703 |
| IL4719850002800010 | 1985-10-15T19:10 | 34.0000 | 34.5000 | 1231.21 | 1244 | 13.647 | 38.703 |
| IL4719850002800010 | 1985-10-15T19:10 | 34.0000 | 34.5000 | 1232.19 | 1245 | 13.647 | 38.703 |
| IL4719850002800010 | 1985-10-15T19:10 | 34.0000 | 34.5000 | 1233.18 | 1246 | 13.647 | 38.703 |
| IL4719850002800010 | 1985-10-15T19:10 | 34.0000 | 34.5000 | 1234.17 | 1247 | 13.647 | 38.703 |
| IL4719850002800010 | 1985-10-15T19:10 | 34.0000 | 34.5000 | 1235.15 | 1248 | 13.647 | 38.703 |
| IL4719850002800010 | 1985-10-15T19:10 | 34.0000 | 34.5000 | 1236.14 | 1249 | 13.647 | 38.703 |
| IL4719850002800010 | 1985-10-15T19:10 | 34.0000 | 34.5000 | 1237.13 | 1250 | 13.647 | 38.703 |
| IL4719850002800010 | 1985-10-15T19:10 | 34.0000 | 34.5000 | 1238.12 | 1251 | 13.647 | 38.703 |
| IL4719850002800010 | 1985-10-15T19:10 | 34.0000 | 34.5000 | 1239.10 | 1252 | 13.647 | 38.703 |
| IL4719850002800010 | 1985-10-15T19:10 | 34.0000 | 34.5000 | 1240.09 | 1253 | 13.647 | 38.703 |
| IL4719850002800010 | 1985-10-15T19:10 | 34.0000 | 34.5000 | 1241.08 | 1254 | 13.647 | 38.703 |
| IL4719850002800010 | 1985-10-15T19:10 | 34.0000 | 34.5000 | 1242.06 | 1255 | 13.647 | 38.703 |
| IL4719850002800010 | 1985-10-15T19:10 | 34.0000 | 34.5000 | 1243.05 | 1256 | 13.647 | 38.702 |
| IL4719850002800010 | 1985-10-15T19:10 | 34.0000 | 34.5000 | 1244.04 | 1257 | 13.645 | 38.703 |
| IL4719850002800010 | 1985-10-15T19:10 | 34.0000 | 34.5000 | 1245.02 | 1258 | 13.645 | 38.703 |
| IL4719850002800010 | 1985-10-15T19:10 | 34.0000 | 34.5000 | 1246.01 | 1259 | 13.645 | 38.703 |
| IL4719850002800010 | 1985-10-15T19:10 | 34.0000 | 34.5000 | 1247.00 | 1260 | 13.645 | 38.702 |
| IL4719850002800010 | 1985-10-15T19:10 | 34.0000 | 34.5000 | 1247.98 | 1261 | 13.645 | 38.702 |
| IL4719850002800010 | 1985-10-15T19:10 | 34.0000 | 34.5000 | 1248.97 | 1262 | 13.645 | 38.703 |
| IL4719850002800010 | 1985-10-15T19:10 | 34.0000 | 34.5000 | 1249.96 | 1263 | 13.645 | 38.702 |
| IL4719850002800010 | 1985-10-15T19:10 | 34.0000 | 34.5000 | 1250.95 | 1264 | 13.645 | 38.702 |
| IL4719850002800010 | 1985-10-15T19:10 | 34.0000 | 34.5000 | 1251.93 | 1265 | 13.645 | 38.702 |
| IL4719850002800010 | 1985-10-15T19:10 | 34.0000 | 34.5000 | 1252.92 | 1266 | 13.645 | 38.702 |
| IL4719850002800010 | 1985-10-15T19:10 | 34.0000 | 34.5000 | 1253.91 | 1267 | 13.645 | 38.702 |
| IL4719850002800010 | 1985-10-15T19:10 | 34.0000 | 34.5000 | 1254.89 | 1268 | 13.645 | 38.702 |
| IL4719850002800010 | 1985-10-15T19:10 | 34.0000 | 34.5000 | 1255.88 | 1269 | 13.645 | 38.702 |
| IL4719850002800010 | 1985-10-15T19:10 | 34.0000 | 34.5000 | 1256.87 | 1270 | 13.645 | 38.702 |
| IL4719850002800010 | 1985-10-15T19:10 | 34.0000 | 34.5000 | 1257.85 | 1271 | 13.645 | 38.702 |
| IL4719850002800010 | 1985-10-15T19:10 | 34.0000 | 34.5000 | 1258.84 | 1272 | 13.644 | 38.702 |
| IL4719850002800010 | 1985-10-15T19:10 | 34.0000 | 34.5000 | 1259.83 | 1273 | 13.642 | 38.701 |
| IL4719850002800010 | 1985-10-15T19:10 | 34.0000 | 34.5000 | 1260.81 | 1274 | 13.642 | 38.701 |
| IL4719850002800010 | 1985-10-15T19:10 | 34.0000 | 34.5000 | 1261.80 | 1275 | 13.642 | 38.701 |
| IL4719850002800010 | 1985-10-15T19:10 | 34.0000 | 34.5000 | 1262.79 | 1276 | 13.642 | 38.702 |
| IL4719850002800010 | 1985-10-15T19:10 | 34.0000 | 34.5000 | 1263.77 | 1277 | 13.642 | 38.701 |
| IL4719850002800010 | 1985-10-15T19:10 | 34.0000 | 34.5000 | 1264.76 | 1278 | 13.642 | 38.701 |
| IL4719850002800010 | 1985-10-15T19:10 | 34.0000 | 34.5000 | 1265.75 | 1279 | 13.642 | 38.701 |
| IL4719850002800010 | 1985-10-15T19:10 | 34.0000 | 34.5000 | 1266.73 | 1280 | 13.642 | 38.701 |
| IL4719850002800010 | 1985-10-15T19:10 | 34.0000 | 34.5000 | 1267.72 | 1281 | 13.642 | 38.701 |
| IL4719850002800010 | 1985-10-15T19:10 | 34.0000 | 34.5000 | 1268.71 | 1282 | 13.642 | 38.702 |
| IL4719850002800010 | 1985-10-15T19:10 | 34.0000 | 34.5000 | 1269.69 | 1283 | 13.644 | 38.702 |
| IL4719850002800010 | 1985-10-15T19:10 | 34.0000 | 34.5000 | 1270.68 | 1284 | 13.644 | 38.701 |
| IL4719850002800010 | 1985-10-15T19:10 | 34.0000 | 34.5000 | 1271.67 | 1285 | 13.644 | 38.701 |
| IL4719850002800010 | 1985-10-15T19:10 | 34.0000 | 34.5000 | 1272.66 | 1286 | 13.644 | 38.701 |
| IL4719850002800010 | 1985-10-15T19:10 | 34.0000 | 34.5000 | 1273.64 | 1287 | 13.644 | 38.701 |
| IL4719850002800010 | 1985-10-15T19:10 | 34.0000 | 34.5000 | 1274.63 | 1288 | 13.642 | 38.701 |
| IL4719850002800010 | 1985-10-15T19:10 | 34.0000 | 34.5000 | 1275.62 | 1289 | 13.642 | 38.701 |
| IL4719850002800010 | 1985-10-15T19:10 | 34.0000 | 34.5000 | 1276.60 | 1290 | 13.642 | 38.701 |
| IL4719850002800010 | 1985-10-15T19:10 | 34.0000 | 34.5000 | 1277.59 | 1291 | 13.642 | 38.701 |
| IL4719850002800010 | 1985-10-15T19:10 | 34.0000 | 34.5000 | 1278.58 | 1292 | 13.642 | 38.701 |
| IL4719850002800010 | 1985-10-15T19:10 | 34.0000 | 34.5000 | 1279.56 | 1293 | 13.642 | 38.701 |
| IL4719850002800010 | 1985-10-15T19:10 | 34.0000 | 34.5000 | 1280.55 | 1294 | 13.642 | 38.701 |
| IL4719850002800010 | 1985-10-15T19:10 | 34.0000 | 34.5000 | 1281.54 | 1295 | 13.642 | 38.701 |
| IL4719850002800010 | 1985-10-15T19:10 | 34.0000 | 34.5000 | 1282.52 | 1296 | 13.642 | 38.701 |
| IL4719850002800010 | 1985-10-15T19:10 | 34.0000 | 34.5000 | 1283.51 | 1297 | 13.642 | 38.701 |
| IL4719850002800010 | 1985-10-15T19:10 | 34.0000 | 34.5000 | 1284.50 | 1298 | 13.642 | 38.701 |
| IL4719850002800010 | 1985-10-15T19:10 | 34.0000 | 34.5000 | 1285.48 | 1299 | 13.642 | 38.701 |
| IL4719850002800010 | 1985-10-15T19:10 | 34.0000 | 34.5000 | 1286.47 | 1300 | 13.642 | 38.701 |
| IL4719850002800010 | 1985-10-15T19:10 | 34.0000 | 34.5000 | 1287.46 | 1301 | 13.642 | 38.701 |
| IL4719850002800010 | 1985-10-15T19:10 | 34.0000 | 34.5000 | 1288.44 | 1302 | 13.642 | 38.701 |
| IL4719850002800010 | 1985-10-15T19:10 | 34.0000 | 34.5000 | 1289.43 | 1303 | 13.642 | 38.701 |
| IL4719850002800010 | 1985-10-15T19:10 | 34.0000 | 34.5000 | 1290.42 | 1304 | 13.642 | 38.701 |
| IL4719850002800010 | 1985-10-15T19:10 | 34.0000 | 34.5000 | 1291.40 | 1305 | 13.642 | 38.701 |
| IL4719850002800010 | 1985-10-15T19:10 | 34.0000 | 34.5000 | 1292.39 | 1306 | 13.642 | 38.701 |
| IL4719850002800010 | 1985-10-15T19:10 | 34.0000 | 34.5000 | 1293.38 | 1307 | 13.642 | 38.701 |
| IL4719850002800010 | 1985-10-15T19:10 | 34.0000 | 34.5000 | 1294.36 | 1308 | 13.642 | 38.701 |
| IL4719850002800010 | 1985-10-15T19:10 | 34.0000 | 34.5000 | 1295.35 | 1309 | 13.642 | 38.701 |
| IL4719850002800010 | 1985-10-15T19:10 | 34.0000 | 34.5000 | 1296.34 | 1310 | 13.642 | 38.701 |
| IL4719850002800010 | 1985-10-15T19:10 | 34.0000 | 34.5000 | 1297.32 | 1311 | 13.642 | 38.701 |
| IL4719850002800010 | 1985-10-15T19:10 | 34.0000 | 34.5000 | 1298.31 | 1312 | 13.642 | 38.701 |
| IL4719850002800010 | 1985-10-15T19:10 | 34.0000 | 34.5000 | 1299.30 | 1313 | 13.642 | 38.701 |
| IL4719850002800010 | 1985-10-15T19:10 | 34.0000 | 34.5000 | 1300.28 | 1314 | 13.642 | 38.701 |
| IL4719850002800010 | 1985-10-15T19:10 | 34.0000 | 34.5000 | 1301.27 | 1315 | 13.642 | 38.701 |
| IL4719850002800010 | 1985-10-15T19:10 | 34.0000 | 34.5000 | 1302.26 | 1316 | 13.642 | 38.701 |
| IL4719850002800010 | 1985-10-15T19:10 | 34.0000 | 34.5000 | 1303.24 | 1317 | 13.642 | 38.701 |
| IL4719850002800010 | 1985-10-15T19:10 | 34.0000 | 34.5000 | 1304.23 | 1318 | 13.642 | 38.701 |
| IL4719850002800010 | 1985-10-15T19:10 | 34.0000 | 34.5000 | 1305.22 | 1319 | 13.642 | 38.701 |
| IL4719850002800010 | 1985-10-15T19:10 | 34.0000 | 34.5000 | 1306.20 | 1320 | 13.640 | 38.701 |
| IL4719850002800010 | 1985-10-15T19:10 | 34.0000 | 34.5000 | 1307.19 | 1321 | 13.640 | 38.701 |
| IL4719850002800010 | 1985-10-15T19:10 | 34.0000 | 34.5000 | 1308.18 | 1322 | 13.640 | 38.701 |
| IL4719850002800010 | 1985-10-15T19:10 | 34.0000 | 34.5000 | 1309.16 | 1323 | 13.642 | 38.700 |
| IL4719850002800010 | 1985-10-15T19:10 | 34.0000 | 34.5000 | 1310.15 | 1324 | 13.642 | 38.700 |
| IL4719850002800010 | 1985-10-15T19:10 | 34.0000 | 34.5000 | 1311.14 | 1325 | 13.640 | 38.700 |
| IL4719850002800010 | 1985-10-15T19:10 | 34.0000 | 34.5000 | 1312.12 | 1326 | 13.640 | 38.700 |
| IL4719850002800010 | 1985-10-15T19:10 | 34.0000 | 34.5000 | 1313.11 | 1327 | 13.640 | 38.700 |
| IL4719850002800010 | 1985-10-15T19:10 | 34.0000 | 34.5000 | 1314.10 | 1328 | 13.640 | 38.700 |
| IL4719850002800010 | 1985-10-15T19:10 | 34.0000 | 34.5000 | 1315.08 | 1329 | 13.640 | 38.700 |
| IL4719850002800010 | 1985-10-15T19:10 | 34.0000 | 34.5000 | 1316.07 | 1330 | 13.640 | 38.700 |
| IL4719850002800010 | 1985-10-15T19:10 | 34.0000 | 34.5000 | 1317.05 | 1331 | 13.640 | 38.700 |
| IL4719850002800010 | 1985-10-15T19:10 | 34.0000 | 34.5000 | 1318.04 | 1332 | 13.640 | 38.701 |
| IL4719850002800010 | 1985-10-15T19:10 | 34.0000 | 34.5000 | 1319.03 | 1333 | 13.640 | 38.700 |
| IL4719850002800010 | 1985-10-15T19:10 | 34.0000 | 34.5000 | 1320.01 | 1334 | 13.640 | 38.700 |
| IL4719850002800010 | 1985-10-15T19:10 | 34.0000 | 34.5000 | 1321.00 | 1335 | 13.640 | 38.700 |
| IL4719850002800010 | 1985-10-15T19:10 | 34.0000 | 34.5000 | 1321.99 | 1336 | 13.640 | 38.700 |
| IL4719850002800010 | 1985-10-15T19:10 | 34.0000 | 34.5000 | 1322.97 | 1337 | 13.640 | 38.700 |
| IL4719850002800010 | 1985-10-15T19:10 | 34.0000 | 34.5000 | 1323.96 | 1338 | 13.640 | 38.700 |
| IL4719850002800010 | 1985-10-15T19:10 | 34.0000 | 34.5000 | 1324.95 | 1339 | 13.640 | 38.700 |
| IL4719850002800010 | 1985-10-15T19:10 | 34.0000 | 34.5000 | 1325.93 | 1340 | 13.640 | 38.700 |
| IL4719850002800010 | 1985-10-15T19:10 | 34.0000 | 34.5000 | 1326.92 | 1341 | 13.640 | 38.700 |
| IL4719850002800010 | 1985-10-15T19:10 | 34.0000 | 34.5000 | 1327.91 | 1342 | 13.640 | 38.700 |
| IL4719850002800010 | 1985-10-15T19:10 | 34.0000 | 34.5000 | 1328.89 | 1343 | 13.640 | 38.700 |
| IL4719850002800010 | 1985-10-15T19:10 | 34.0000 | 34.5000 | 1329.88 | 1344 | 13.640 | 38.700 |
| IL4719850002800010 | 1985-10-15T19:10 | 34.0000 | 34.5000 | 1330.87 | 1345 | 13.640 | 38.700 |
| IL4719850002800010 | 1985-10-15T19:10 | 34.0000 | 34.5000 | 1331.85 | 1346 | 13.640 | 38.700 |
| IL4719850002800010 | 1985-10-15T19:10 | 34.0000 | 34.5000 | 1332.84 | 1347 | 13.640 | 38.700 |
| IL4719850002800010 | 1985-10-15T19:10 | 34.0000 | 34.5000 | 1333.83 | 1348 | 13.640 | 38.699 |
| IL4719850002800010 | 1985-10-15T19:10 | 34.0000 | 34.5000 | 1334.81 | 1349 | 13.638 | 38.699 |
| IL4719850002800010 | 1985-10-15T19:10 | 34.0000 | 34.5000 | 1335.80 | 1350 | 13.637 | 38.700 |
| IL4719850002800010 | 1985-10-15T19:10 | 34.0000 | 34.5000 | 1336.79 | 1351 | 13.637 | 38.699 |
| IL4719850002800010 | 1985-10-15T19:10 | 34.0000 | 34.5000 | 1337.77 | 1352 | 13.637 | 38.699 |
| IL4719850002800010 | 1985-10-15T19:10 | 34.0000 | 34.5000 | 1338.76 | 1353 | 13.637 | 38.699 |
| IL4719850002800010 | 1985-10-15T19:10 | 34.0000 | 34.5000 | 1339.74 | 1354 | 13.637 | 38.699 |
| IL4719850002800010 | 1985-10-15T19:10 | 34.0000 | 34.5000 | 1340.73 | 1355 | 13.637 | 38.699 |
| IL4719850002800010 | 1985-10-15T19:10 | 34.0000 | 34.5000 | 1341.72 | 1356 | 13.638 | 38.699 |
| IL4719850002800010 | 1985-10-15T19:10 | 34.0000 | 34.5000 | 1342.70 | 1357 | 13.638 | 38.699 |
| IL4719850002800010 | 1985-10-15T19:10 | 34.0000 | 34.5000 | 1343.69 | 1358 | 13.637 | 38.699 |
| IL4719850002800010 | 1985-10-15T19:10 | 34.0000 | 34.5000 | 1344.68 | 1359 | 13.637 | 38.699 |
| IL4719850002800010 | 1985-10-15T19:10 | 34.0000 | 34.5000 | 1345.66 | 1360 | 13.637 | 38.699 |
| IL4719850002800010 | 1985-10-15T19:10 | 34.0000 | 34.5000 | 1346.65 | 1361 | 13.637 | 38.699 |
| IL4719850002800010 | 1985-10-15T19:10 | 34.0000 | 34.5000 | 1347.64 | 1362 | 13.637 | 38.699 |
| IL4719850002800010 | 1985-10-15T19:10 | 34.0000 | 34.5000 | 1348.62 | 1363 | 13.638 | 38.699 |
| IL4719850002800010 | 1985-10-15T19:10 | 34.0000 | 34.5000 | 1349.61 | 1364 | 13.637 | 38.699 |
| IL4719850002800010 | 1985-10-15T19:10 | 34.0000 | 34.5000 | 1350.60 | 1365 | 13.637 | 38.699 |
| IL4719850002800010 | 1985-10-15T19:10 | 34.0000 | 34.5000 | 1351.58 | 1366 | 13.637 | 38.698 |
| IL4719850002800010 | 1985-10-15T19:10 | 34.0000 | 34.5000 | 1352.57 | 1367 | 13.637 | 38.698 |
| IL4719850002800010 | 1985-10-15T19:10 | 34.0000 | 34.5000 | 1353.55 | 1368 | 13.637 | 38.698 |
| IL4719850002800010 | 1985-10-15T19:10 | 34.0000 | 34.5000 | 1354.54 | 1369 | 13.637 | 38.698 |
| IL4719850002800010 | 1985-10-15T19:10 | 34.0000 | 34.5000 | 1355.53 | 1370 | 13.637 | 38.698 |
| IL4719850002800010 | 1985-10-15T19:10 | 34.0000 | 34.5000 | 1356.51 | 1371 | 13.637 | 38.699 |
| IL4719850002800010 | 1985-10-15T19:10 | 34.0000 | 34.5000 | 1357.50 | 1372 | 13.637 | 38.698 |
| IL4719850002800010 | 1985-10-15T19:10 | 34.0000 | 34.5000 | 1358.49 | 1373 | 13.637 | 38.698 |
| IL4719850002800010 | 1985-10-15T19:10 | 34.0000 | 34.5000 | 1359.47 | 1374 | 13.637 | 38.698 |
| IL4719850002800010 | 1985-10-15T19:10 | 34.0000 | 34.5000 | 1360.46 | 1375 | 13.637 | 38.698 |
| IL4719850002800010 | 1985-10-15T19:10 | 34.0000 | 34.5000 | 1361.45 | 1376 | 13.637 | 38.698 |
| IL4719850002800010 | 1985-10-15T19:10 | 34.0000 | 34.5000 | 1362.43 | 1377 | 13.637 | 38.698 |
| IL4719850002800010 | 1985-10-15T19:10 | 34.0000 | 34.5000 | 1363.42 | 1378 | 13.637 | 38.698 |
| IL4719850002800010 | 1985-10-15T19:10 | 34.0000 | 34.5000 | 1364.41 | 1379 | 13.637 | 38.698 |
| IL4719850002800010 | 1985-10-15T19:10 | 34.0000 | 34.5000 | 1365.39 | 1380 | 13.637 | 38.698 |
| IL4719850002800010 | 1985-10-15T19:10 | 34.0000 | 34.5000 | 1366.38 | 1381 | 13.637 | 38.698 |
| IL4719850002800010 | 1985-10-15T19:10 | 34.0000 | 34.5000 | 1367.36 | 1382 | 13.635 | 38.698 |
| IL4719850002800010 | 1985-10-15T19:10 | 34.0000 | 34.5000 | 1368.35 | 1383 | 13.635 | 38.698 |
| IL4719850002800010 | 1985-10-15T19:10 | 34.0000 | 34.5000 | 1369.34 | 1384 | 13.635 | 38.698 |
| IL4719850002800010 | 1985-10-15T19:10 | 34.0000 | 34.5000 | 1370.32 | 1385 | 13.635 | 38.698 |
| IL4719850002800010 | 1985-10-15T19:10 | 34.0000 | 34.5000 | 1371.31 | 1386 | 13.635 | 38.698 |
| IL4719850002800010 | 1985-10-15T19:10 | 34.0000 | 34.5000 | 1372.30 | 1387 | 13.635 | 38.698 |
| IL4719850002800010 | 1985-10-15T19:10 | 34.0000 | 34.5000 | 1373.28 | 1388 | 13.635 | 38.698 |
| IL4719850002800010 | 1985-10-15T19:10 | 34.0000 | 34.5000 | 1374.27 | 1389 | 13.635 | 38.698 |
| IL4719850002800010 | 1985-10-15T19:10 | 34.0000 | 34.5000 | 1375.25 | 1390 | 13.635 | 38.698 |
| IL4719850002800010 | 1985-10-15T19:10 | 34.0000 | 34.5000 | 1376.24 | 1391 | 13.635 | 38.698 |
| IL4719850002800010 | 1985-10-15T19:10 | 34.0000 | 34.5000 | 1377.23 | 1392 | 13.635 | 38.696 |
| IL4719850002800010 | 1985-10-15T19:10 | 34.0000 | 34.5000 | 1378.21 | 1393 | 13.635 | 38.698 |
| IL4719850002800010 | 1985-10-15T19:10 | 34.0000 | 34.5000 | 1379.20 | 1394 | 13.635 | 38.696 |
| IL4719850002800010 | 1985-10-15T19:10 | 34.0000 | 34.5000 | 1380.19 | 1395 | 13.635 | 38.698 |
| IL4719850002800010 | 1985-10-15T19:10 | 34.0000 | 34.5000 | 1381.17 | 1396 | 13.635 | 38.698 |
| IL4719850002800010 | 1985-10-15T19:10 | 34.0000 | 34.5000 | 1382.16 | 1397 | 13.635 | 38.698 |
| IL4719850002800010 | 1985-10-15T19:10 | 34.0000 | 34.5000 | 1383.14 | 1398 | 13.635 | 38.698 |
| IL4719850002800010 | 1985-10-15T19:10 | 34.0000 | 34.5000 | 1384.13 | 1399 | 13.635 | 38.698 |
| IL4719850002800010 | 1985-10-15T19:10 | 34.0000 | 34.5000 | 1385.12 | 1400 | 13.635 | 38.698 |
| IL4719850002800010 | 1985-10-15T19:10 | 34.0000 | 34.5000 | 1386.10 | 1401 | 13.635 | 38.698 |
| IL4719850002800010 | 1985-10-15T19:10 | 34.0000 | 34.5000 | 1387.09 | 1402 | 13.635 | 38.696 |
| IL4719850002800010 | 1985-10-15T19:10 | 34.0000 | 34.5000 | 1388.08 | 1403 | 13.635 | 38.696 |
| IL4719850002800010 | 1985-10-15T19:10 | 34.0000 | 34.5000 | 1389.06 | 1404 | 13.635 | 38.696 |
| IL4719850002800010 | 1985-10-15T19:10 | 34.0000 | 34.5000 | 1390.05 | 1405 | 13.635 | 38.696 |
| IL4719850002800010 | 1985-10-15T19:10 | 34.0000 | 34.5000 | 1391.03 | 1406 | 13.633 | 38.696 |
| IL4719850002800010 | 1985-10-15T19:10 | 34.0000 | 34.5000 | 1392.02 | 1407 | 13.633 | 38.696 |
| IL4719850002800010 | 1985-10-15T19:10 | 34.0000 | 34.5000 | 1393.01 | 1408 | 13.635 | 38.696 |
| IL4719850002800010 | 1985-10-15T19:10 | 34.0000 | 34.5000 | 1393.99 | 1409 | 13.635 | 38.695 |
| IL4719850002800010 | 1985-10-15T19:10 | 34.0000 | 34.5000 | 1394.98 | 1410 | 13.635 | 38.696 |
| IL4719850002800010 | 1985-10-15T19:10 | 34.0000 | 34.5000 | 1395.97 | 1411 | 13.633 | 38.696 |
| IL4719850002800010 | 1985-10-15T19:10 | 34.0000 | 34.5000 | 1396.95 | 1412 | 13.633 | 38.696 |
| IL4719850002800010 | 1985-10-15T19:10 | 34.0000 | 34.5000 | 1397.94 | 1413 | 13.633 | 38.696 |
| IL4719850002800010 | 1985-10-15T19:10 | 34.0000 | 34.5000 | 1398.92 | 1414 | 13.633 | 38.696 |
| IL4719850002800010 | 1985-10-15T19:10 | 34.0000 | 34.5000 | 1399.91 | 1415 | 13.635 | 38.696 |
| IL4719850002800010 | 1985-10-15T19:10 | 34.0000 | 34.5000 | 1400.90 | 1416 | 13.635 | 38.696 |
| IL4719850002800010 | 1985-10-15T19:10 | 34.0000 | 34.5000 | 1401.88 | 1417 | 13.635 | 38.696 |
| IL4719850002800010 | 1985-10-15T19:10 | 34.0000 | 34.5000 | 1402.87 | 1418 | 13.635 | 38.695 |
| IL4719850002800010 | 1985-10-15T19:10 | 34.0000 | 34.5000 | 1403.86 | 1419 | 13.635 | 38.696 |
| IL4719850002800010 | 1985-10-15T19:10 | 34.0000 | 34.5000 | 1404.84 | 1420 | 13.635 | 38.696 |
| IL4719850002800010 | 1985-10-15T19:10 | 34.0000 | 34.5000 | 1405.83 | 1421 | 13.635 | 38.696 |
| IL4719850002800010 | 1985-10-15T19:10 | 34.0000 | 34.5000 | 1406.81 | 1422 | 13.635 | 38.696 |
| IL4719850002800010 | 1985-10-15T19:10 | 34.0000 | 34.5000 | 1407.80 | 1423 | 13.635 | 38.696 |
| IL4719850002800010 | 1985-10-15T19:10 | 34.0000 | 34.5000 | 1408.79 | 1424 | 13.635 | 38.696 |
| IL4719850002800010 | 1985-10-15T19:10 | 34.0000 | 34.5000 | 1409.77 | 1425 | 13.635 | 38.696 |
| IL4719850002800010 | 1985-10-15T19:10 | 34.0000 | 34.5000 | 1410.76 | 1426 | 13.635 | 38.696 |
| IL4719850002800010 | 1985-10-15T19:10 | 34.0000 | 34.5000 | 1411.74 | 1427 | 13.635 | 38.696 |
| IL4719850002800010 | 1985-10-15T19:10 | 34.0000 | 34.5000 | 1412.73 | 1428 | 13.635 | 38.696 |
| IL4719850002800010 | 1985-10-15T19:10 | 34.0000 | 34.5000 | 1413.72 | 1429 | 13.635 | 38.696 |
| IL4719850002800010 | 1985-10-15T19:10 | 34.0000 | 34.5000 | 1414.70 | 1430 | 13.635 | 38.696 |
| IL4719850002800010 | 1985-10-15T19:10 | 34.0000 | 34.5000 | 1415.69 | 1431 | 13.635 | 38.696 |
| IL4719850002800010 | 1985-10-15T19:10 | 34.0000 | 34.5000 | 1416.68 | 1432 | 13.635 | 38.696 |
| IL4719850002800010 | 1985-10-15T19:10 | 34.0000 | 34.5000 | 1417.66 | 1433 | 13.635 | 38.696 |
| IL4719850002800010 | 1985-10-15T19:10 | 34.0000 | 34.5000 | 1418.65 | 1434 | 13.635 | 38.696 |
| IL4719850002800010 | 1985-10-15T19:10 | 34.0000 | 34.5000 | 1419.63 | 1435 | 13.635 | 38.695 |
| IL4719850002800010 | 1985-10-15T19:10 | 34.0000 | 34.5000 | 1420.62 | 1436 | 13.635 | 38.696 |
| IL4719850002800010 | 1985-10-15T19:10 | 34.0000 | 34.5000 | 1421.61 | 1437 | 13.635 | 38.696 |
| IL4719850002800010 | 1985-10-15T19:10 | 34.0000 | 34.5000 | 1422.59 | 1438 | 13.633 | 38.695 |
| IL4719850002800010 | 1985-10-15T19:10 | 34.0000 | 34.5000 | 1423.58 | 1439 | 13.635 | 38.695 |
| IL4719850002800010 | 1985-10-15T19:10 | 34.0000 | 34.5000 | 1424.56 | 1440 | 13.635 | 38.696 |
| IL4719850002800010 | 1985-10-15T19:10 | 34.0000 | 34.5000 | 1425.55 | 1441 | 13.635 | 38.695 |
| IL4719850002800010 | 1985-10-15T19:10 | 34.0000 | 34.5000 | 1426.54 | 1442 | 13.633 | 38.696 |
| IL4719850002800010 | 1985-10-15T19:10 | 34.0000 | 34.5000 | 1427.52 | 1443 | 13.633 | 38.695 |
| IL4719850002800010 | 1985-10-15T19:10 | 34.0000 | 34.5000 | 1428.51 | 1444 | 13.633 | 38.696 |
| IL4719850002800010 | 1985-10-15T19:10 | 34.0000 | 34.5000 | 1429.49 | 1445 | 13.633 | 38.695 |
| IL4719850002800010 | 1985-10-15T19:10 | 34.0000 | 34.5000 | 1430.48 | 1446 | 13.633 | 38.695 |
| IL4719850002800010 | 1985-10-15T19:10 | 34.0000 | 34.5000 | 1431.47 | 1447 | 13.633 | 38.695 |
| IL4719850002800010 | 1985-10-15T19:10 | 34.0000 | 34.5000 | 1432.45 | 1448 | 13.633 | 38.695 |
| IL4719850002800010 | 1985-10-15T19:10 | 34.0000 | 34.5000 | 1433.44 | 1449 | 13.635 | 38.695 |
| IL4719850002800010 | 1985-10-15T19:10 | 34.0000 | 34.5000 | 1434.42 | 1450 | 13.635 | 38.695 |
| IL4719850002800010 | 1985-10-15T19:10 | 34.0000 | 34.5000 | 1435.41 | 1451 | 13.635 | 38.695 |
| IL4719850002800010 | 1985-10-15T19:10 | 34.0000 | 34.5000 | 1436.40 | 1452 | 13.635 | 38.695 |
| IL4719850002800010 | 1985-10-15T19:10 | 34.0000 | 34.5000 | 1437.38 | 1453 | 13.635 | 38.695 |
| IL4719850002800010 | 1985-10-15T19:10 | 34.0000 | 34.5000 | 1438.37 | 1454 | 13.635 | 38.695 |
| IL4719850002800010 | 1985-10-15T19:10 | 34.0000 | 34.5000 | 1439.36 | 1455 | 13.635 | 38.695 |
| IL4719850002800010 | 1985-10-15T19:10 | 34.0000 | 34.5000 | 1440.34 | 1456 | 13.635 | 38.695 |
| IL4719850002800010 | 1985-10-15T19:10 | 34.0000 | 34.5000 | 1441.33 | 1457 | 13.635 | 38.695 |
| IL4719850002800010 | 1985-10-15T19:10 | 34.0000 | 34.5000 | 1442.31 | 1458 | 13.635 | 38.695 |
| IL4719850002800010 | 1985-10-15T19:10 | 34.0000 | 34.5000 | 1443.30 | 1459 | 13.635 | 38.695 |
| IL4719850002800010 | 1985-10-15T19:10 | 34.0000 | 34.5000 | 1444.29 | 1460 | 13.635 | 38.695 |
| IL4719850002800010 | 1985-10-15T19:10 | 34.0000 | 34.5000 | 1445.27 | 1461 | 13.635 | 38.695 |
| IL4719850002800010 | 1985-10-15T19:10 | 34.0000 | 34.5000 | 1446.26 | 1462 | 13.635 | 38.695 |
| IL4719850002800010 | 1985-10-15T19:10 | 34.0000 | 34.5000 | 1447.24 | 1463 | 13.635 | 38.695 |
| IL4719850002800010 | 1985-10-15T19:10 | 34.0000 | 34.5000 | 1448.23 | 1464 | 13.635 | 38.695 |
| IL4719850002800010 | 1985-10-15T19:10 | 34.0000 | 34.5000 | 1449.21 | 1465 | 13.635 | 38.695 |
| IL4719850002800010 | 1985-10-15T19:10 | 34.0000 | 34.5000 | 1450.20 | 1466 | 13.635 | 38.695 |
| IL4719850002800010 | 1985-10-15T19:10 | 34.0000 | 34.5000 | 1451.19 | 1467 | 13.635 | 38.695 |
| IL4719850002800010 | 1985-10-15T19:10 | 34.0000 | 34.5000 | 1452.17 | 1468 | 13.635 | 38.695 |
| IL4719850002800010 | 1985-10-15T19:10 | 34.0000 | 34.5000 | 1453.16 | 1469 | 13.635 | 38.695 |
| IL4719850002800010 | 1985-10-15T19:10 | 34.0000 | 34.5000 | 1454.14 | 1470 | 13.635 | 38.695 |
| IL4719850002800010 | 1985-10-15T19:10 | 34.0000 | 34.5000 | 1455.13 | 1471 | 13.635 | 38.695 |
| IL4719850002800010 | 1985-10-15T19:10 | 34.0000 | 34.5000 | 1456.12 | 1472 | 13.635 | 38.695 |
| IL4719850002800010 | 1985-10-15T19:10 | 34.0000 | 34.5000 | 1457.10 | 1473 | 13.635 | 38.695 |
| IL4719850002800010 | 1985-10-15T19:10 | 34.0000 | 34.5000 | 1458.09 | 1474 | 13.635 | 38.695 |
| IL4719850002800010 | 1985-10-15T19:10 | 34.0000 | 34.5000 | 1459.07 | 1475 | 13.635 | 38.695 |
| IL4719850002800010 | 1985-10-15T19:10 | 34.0000 | 34.5000 | 1460.06 | 1476 | 13.637 | 38.694 |
| IL4719850002800010 | 1985-10-15T19:10 | 34.0000 | 34.5000 | 1461.05 | 1477 | 13.637 | 38.695 |
| IL4719850002800010 | 1985-10-15T19:10 | 34.0000 | 34.5000 | 1462.03 | 1478 | 13.637 | 38.695 |
| IL4719850002800010 | 1985-10-15T19:10 | 34.0000 | 34.5000 | 1463.02 | 1479 | 13.637 | 38.695 |
| IL4719850002800010 | 1985-10-15T19:10 | 34.0000 | 34.5000 | 1464.00 | 1480 | 13.637 | 38.695 |
| IL4719850002800010 | 1985-10-15T19:10 | 34.0000 | 34.5000 | 1464.99 | 1481 | 13.637 | 38.694 |
| IL4719850002800010 | 1985-10-15T19:10 | 34.0000 | 34.5000 | 1465.98 | 1482 | 13.637 | 38.695 |
| IL4719850002800010 | 1985-10-15T19:10 | 34.0000 | 34.5000 | 1466.96 | 1483 | 13.637 | 38.695 |
| IL4719850002800010 | 1985-10-15T19:10 | 34.0000 | 34.5000 | 1467.95 | 1484 | 13.637 | 38.695 |
| IL4719850002800010 | 1985-10-15T19:10 | 34.0000 | 34.5000 | 1468.93 | 1485 | 13.637 | 38.694 |
| IL4719850002800010 | 1985-10-15T19:10 | 34.0000 | 34.5000 | 1469.92 | 1486 | 13.637 | 38.695 |
| IL4719850002800010 | 1985-10-15T19:10 | 34.0000 | 34.5000 | 1470.91 | 1487 | 13.637 | 38.694 |
| IL4719850002800010 | 1985-10-15T19:10 | 34.0000 | 34.5000 | 1471.89 | 1488 | 13.637 | 38.695 |
| IL4719850002800010 | 1985-10-15T19:10 | 34.0000 | 34.5000 | 1472.88 | 1489 | 13.637 | 38.695 |
| IL4719850002800010 | 1985-10-15T19:10 | 34.0000 | 34.5000 | 1473.86 | 1490 | 13.637 | 38.695 |
| IL4719850002800010 | 1985-10-15T19:10 | 34.0000 | 34.5000 | 1474.85 | 1491 | 13.637 | 38.695 |
| IL4719850002800010 | 1985-10-15T19:10 | 34.0000 | 34.5000 | 1475.83 | 1492 | 13.637 | 38.695 |
| IL4719850002800010 | 1985-10-15T19:10 | 34.0000 | 34.5000 | 1476.82 | 1493 | 13.637 | 38.695 |
| IL4719850002800010 | 1985-10-15T19:10 | 34.0000 | 34.5000 | 1477.81 | 1494 | 13.637 | 38.695 |
| IL4719850002800010 | 1985-10-15T19:10 | 34.0000 | 34.5000 | 1478.79 | 1495 | 13.637 | 38.695 |
| IL4719850002800010 | 1985-10-15T19:10 | 34.0000 | 34.5000 | 1479.78 | 1496 | 13.637 | 38.694 |
| IL4719850002800010 | 1985-10-15T19:10 | 34.0000 | 34.5000 | 1480.76 | 1497 | 13.637 | 38.695 |
| IL4719850002800010 | 1985-10-15T19:10 | 34.0000 | 34.5000 | 1481.75 | 1498 | 13.637 | 38.695 |
| IL4719850002800010 | 1985-10-15T19:10 | 34.0000 | 34.5000 | 1482.74 | 1499 | 13.637 | 38.695 |
| IL4719850002800010 | 1985-10-15T19:10 | 34.0000 | 34.5000 | 1483.72 | 1500 | 13.637 | 38.695 |
| IL4719850002800010 | 1985-10-15T19:10 | 34.0000 | 34.5000 | 1484.71 | 1501 | 13.637 | 38.695 |
| IL4719850002800010 | 1985-10-15T19:10 | 34.0000 | 34.5000 | 1485.69 | 1502 | 13.637 | 38.695 |
| IL4719850002800010 | 1985-10-15T19:10 | 34.0000 | 34.5000 | 1486.68 | 1503 | 13.637 | 38.695 |
| IL4719850002800010 | 1985-10-15T19:10 | 34.0000 | 34.5000 | 1487.66 | 1504 | 13.637 | 38.695 |
| IL4719850002800010 | 1985-10-15T19:10 | 34.0000 | 34.5000 | 1488.65 | 1505 | 13.637 | 38.694 |
| IL4719850002800010 | 1985-10-15T19:10 | 34.0000 | 34.5000 | 1489.64 | 1506 | 13.637 | 38.694 |
| IL4719850002800010 | 1985-10-15T19:10 | 34.0000 | 34.5000 | 1490.62 | 1507 | 13.637 | 38.694 |
| IL4719850002800010 | 1985-10-15T19:10 | 34.0000 | 34.5000 | 1491.61 | 1508 | 13.637 | 38.694 |
| IL4719850002800010 | 1985-10-15T19:10 | 34.0000 | 34.5000 | 1492.59 | 1509 | 13.637 | 38.694 |
| IL4719850002800010 | 1985-10-15T19:10 | 34.0000 | 34.5000 | 1493.58 | 1510 | 13.637 | 38.694 |
| IL4719850002800010 | 1985-10-15T19:10 | 34.0000 | 34.5000 | 1494.57 | 1511 | 13.637 | 38.694 |
| IL4719850002800010 | 1985-10-15T19:10 | 34.0000 | 34.5000 | 1495.55 | 1512 | 13.637 | 38.695 |
| IL4719850002800010 | 1985-10-15T19:10 | 34.0000 | 34.5000 | 1496.54 | 1513 | 13.637 | 38.694 |
| IL4719850002800010 | 1985-10-15T19:10 | 34.0000 | 34.5000 | 1497.52 | 1514 | 13.637 | 38.694 |
| IL4719850002800010 | 1985-10-15T19:10 | 34.0000 | 34.5000 | 1498.51 | 1515 | 13.637 | 38.694 |
| IL4719850002800010 | 1985-10-15T19:10 | 34.0000 | 34.5000 | 1499.49 | 1516 | 13.637 | 38.694 |
| IL4719850002800010 | 1985-10-15T19:10 | 34.0000 | 34.5000 | 1500.48 | 1517 | 13.637 | 38.694 |
| IL4719850002800010 | 1985-10-15T19:10 | 34.0000 | 34.5000 | 1501.47 | 1518 | 13.637 | 38.694 |
| IL4719850002800010 | 1985-10-15T19:10 | 34.0000 | 34.5000 | 1502.45 | 1519 | 13.637 | 38.694 |
| IL4719850002800010 | 1985-10-15T19:10 | 34.0000 | 34.5000 | 1503.44 | 1520 | 13.637 | 38.694 |
| IL4719850002800010 | 1985-10-15T19:10 | 34.0000 | 34.5000 | 1504.42 | 1521 | 13.637 | 38.694 |
| IL4719850002800010 | 1985-10-15T19:10 | 34.0000 | 34.5000 | 1505.41 | 1522 | 13.637 | 38.694 |
| IL4719850002800010 | 1985-10-15T19:10 | 34.0000 | 34.5000 | 1506.39 | 1523 | 13.637 | 38.694 |
| IL4719850002800010 | 1985-10-15T19:10 | 34.0000 | 34.5000 | 1507.38 | 1524 | 13.637 | 38.694 |
| IL4719850002800010 | 1985-10-15T19:10 | 34.0000 | 34.5000 | 1508.37 | 1525 | 13.637 | 38.694 |
| IL4719850002800010 | 1985-10-15T19:10 | 34.0000 | 34.5000 | 1509.35 | 1526 | 13.637 | 38.694 |
| IL4719850002800010 | 1985-10-15T19:10 | 34.0000 | 34.5000 | 1510.34 | 1527 | 13.637 | 38.694 |
| IL4719850002800010 | 1985-10-15T19:10 | 34.0000 | 34.5000 | 1511.32 | 1528 | 13.637 | 38.694 |
| IL4719850002800010 | 1985-10-15T19:10 | 34.0000 | 34.5000 | 1512.31 | 1529 | 13.637 | 38.694 |
| IL4719850002800010 | 1985-10-15T19:10 | 34.0000 | 34.5000 | 1513.29 | 1530 | 13.637 | 38.694 |
| IL4719850002800010 | 1985-10-15T19:10 | 34.0000 | 34.5000 | 1514.28 | 1531 | 13.637 | 38.694 |
| IL4719850002800010 | 1985-10-15T19:10 | 34.0000 | 34.5000 | 1515.27 | 1532 | 13.637 | 38.694 |
| IL4719850002800010 | 1985-10-15T19:10 | 34.0000 | 34.5000 | 1516.25 | 1533 | 13.637 | 38.694 |
| IL4719850002800010 | 1985-10-15T19:10 | 34.0000 | 34.5000 | 1517.24 | 1534 | 13.638 | 38.694 |
| IL4719850002800010 | 1985-10-15T19:10 | 34.0000 | 34.5000 | 1518.22 | 1535 | 13.638 | 38.694 |
| IL4719850002800010 | 1985-10-15T19:10 | 34.0000 | 34.5000 | 1519.21 | 1536 | 13.638 | 38.694 |
| IL4719850002800010 | 1985-10-15T19:10 | 34.0000 | 34.5000 | 1520.19 | 1537 | 13.638 | 38.694 |
| IL4719850002800010 | 1985-10-15T19:10 | 34.0000 | 34.5000 | 1521.18 | 1538 | 13.638 | 38.694 |
| IL4719850002800010 | 1985-10-15T19:10 | 34.0000 | 34.5000 | 1522.16 | 1539 | 13.638 | 38.694 |
| IL4719850002800010 | 1985-10-15T19:10 | 34.0000 | 34.5000 | 1523.15 | 1540 | 13.640 | 38.694 |
| IL4719850002800010 | 1985-10-15T19:10 | 34.0000 | 34.5000 | 1524.14 | 1541 | 13.638 | 38.694 |
| IL4719850002800010 | 1985-10-15T19:10 | 34.0000 | 34.5000 | 1525.12 | 1542 | 13.638 | 38.694 |
| IL4719850002800010 | 1985-10-15T19:10 | 34.0000 | 34.5000 | 1526.11 | 1543 | 13.638 | 38.694 |
| IL4719850002800010 | 1985-10-15T19:10 | 34.0000 | 34.5000 | 1527.09 | 1544 | 13.638 | 38.694 |
| IL4719850002800010 | 1985-10-15T19:10 | 34.0000 | 34.5000 | 1528.08 | 1545 | 13.638 | 38.694 |
| IL4719850002800010 | 1985-10-15T19:10 | 34.0000 | 34.5000 | 1529.06 | 1546 | 13.638 | 38.694 |
| IL4719850002800010 | 1985-10-15T19:10 | 34.0000 | 34.5000 | 1530.05 | 1547 | 13.638 | 38.694 |
| IL4719850002800010 | 1985-10-15T19:10 | 34.0000 | 34.5000 | 1531.04 | 1548 | 13.640 | 38.694 |
| IL4719850002800010 | 1985-10-15T19:10 | 34.0000 | 34.5000 | 1532.02 | 1549 | 13.640 | 38.694 |
| IL4719850002800010 | 1985-10-15T19:10 | 34.0000 | 34.5000 | 1533.01 | 1550 | 13.640 | 38.694 |
| IL4719850002800010 | 1985-10-15T19:10 | 34.0000 | 34.5000 | 1533.99 | 1551 | 13.640 | 38.694 |
| IL4719850002800010 | 1985-10-15T19:10 | 34.0000 | 34.5000 | 1534.98 | 1552 | 13.640 | 38.694 |
| IL4719850002800010 | 1985-10-15T19:10 | 34.0000 | 34.5000 | 1535.96 | 1553 | 13.640 | 38.694 |
| IL4719850002800010 | 1985-10-15T19:10 | 34.0000 | 34.5000 | 1536.95 | 1554 | 13.640 | 38.694 |
| IL4719850002800010 | 1985-10-15T19:10 | 34.0000 | 34.5000 | 1537.93 | 1555 | 13.640 | 38.694 |
| IL4719850002800010 | 1985-10-15T19:10 | 34.0000 | 34.5000 | 1538.92 | 1556 | 13.638 | 38.694 |
| IL4719850002800010 | 1985-10-15T19:10 | 34.0000 | 34.5000 | 1539.91 | 1557 | 13.640 | 38.694 |
| IL4719850002800010 | 1985-10-15T19:10 | 34.0000 | 34.5000 | 1540.89 | 1558 | 13.640 | 38.694 |
| IL4719850002800010 | 1985-10-15T19:10 | 34.0000 | 34.5000 | 1541.88 | 1559 | 13.640 | 38.694 |
| IL4719850002800010 | 1985-10-15T19:10 | 34.0000 | 34.5000 | 1542.86 | 1560 | 13.640 | 38.694 |
| IL4719850002800010 | 1985-10-15T19:10 | 34.0000 | 34.5000 | 1543.85 | 1561 | 13.640 | 38.694 |
| IL4719850002800010 | 1985-10-15T19:10 | 34.0000 | 34.5000 | 1544.83 | 1562 | 13.640 | 38.694 |
| IL4719850002800010 | 1985-10-15T19:10 | 34.0000 | 34.5000 | 1545.82 | 1563 | 13.638 | 38.694 |
| IL4719850002800010 | 1985-10-15T19:10 | 34.0000 | 34.5000 | 1546.80 | 1564 | 13.640 | 38.694 |
| IL4719850002800010 | 1985-10-15T19:10 | 34.0000 | 34.5000 | 1547.79 | 1565 | 13.638 | 38.694 |
| IL4719850002800010 | 1985-10-15T19:10 | 34.0000 | 34.5000 | 1548.78 | 1566 | 13.638 | 38.694 |
| IL4719850002800010 | 1985-10-15T19:10 | 34.0000 | 34.5000 | 1549.76 | 1567 | 13.638 | 38.694 |
| IL4719850002800010 | 1985-10-15T19:10 | 34.0000 | 34.5000 | 1550.75 | 1568 | 13.638 | 38.694 |
| IL4719850002800010 | 1985-10-15T19:10 | 34.0000 | 34.5000 | 1551.73 | 1569 | 13.637 | 38.694 |
| IL4719850002800010 | 1985-10-15T19:10 | 34.0000 | 34.5000 | 1552.72 | 1570 | 13.638 | 38.694 |
| IL4719850002800010 | 1985-10-15T19:10 | 34.0000 | 34.5000 | 1553.70 | 1571 | 13.638 | 38.693 |
| IL4719850002800010 | 1985-10-15T19:10 | 34.0000 | 34.5000 | 1554.69 | 1572 | 13.638 | 38.693 |
| IL4719850002800010 | 1985-10-15T19:10 | 34.0000 | 34.5000 | 1555.67 | 1573 | 13.638 | 38.694 |
| IL4719850002800010 | 1985-10-15T19:10 | 34.0000 | 34.5000 | 1556.66 | 1574 | 13.638 | 38.694 |
| IL4719850002800010 | 1985-10-15T19:10 | 34.0000 | 34.5000 | 1557.65 | 1575 | 13.638 | 38.694 |
| IL4719850002800010 | 1985-10-15T19:10 | 34.0000 | 34.5000 | 1558.63 | 1576 | 13.638 | 38.694 |
| IL4719850002800010 | 1985-10-15T19:10 | 34.0000 | 34.5000 | 1559.62 | 1577 | 13.638 | 38.694 |
| IL4719850002800010 | 1985-10-15T19:10 | 34.0000 | 34.5000 | 1560.60 | 1578 | 13.640 | 38.694 |
| IL4719850002800010 | 1985-10-15T19:10 | 34.0000 | 34.5000 | 1561.59 | 1579 | 13.638 | 38.694 |
| IL4719850002800010 | 1985-10-15T19:10 | 34.0000 | 34.5000 | 1562.57 | 1580 | 13.640 | 38.694 |
| IL4719850002800010 | 1985-10-15T19:10 | 34.0000 | 34.5000 | 1563.56 | 1581 | 13.640 | 38.694 |
| IL4719850002800010 | 1985-10-15T19:10 | 34.0000 | 34.5000 | 1564.54 | 1582 | 13.640 | 38.694 |
| IL4719850002800010 | 1985-10-15T19:10 | 34.0000 | 34.5000 | 1565.53 | 1583 | 13.640 | 38.694 |
| IL4719850002800010 | 1985-10-15T19:10 | 34.0000 | 34.5000 | 1566.51 | 1584 | 13.640 | 38.694 |
| IL4719850002800010 | 1985-10-15T19:10 | 34.0000 | 34.5000 | 1567.50 | 1585 | 13.640 | 38.694 |
| IL4719850002800010 | 1985-10-15T19:10 | 34.0000 | 34.5000 | 1568.49 | 1586 | 13.640 | 38.694 |
| IL4719850002800010 | 1985-10-15T19:10 | 34.0000 | 34.5000 | 1569.47 | 1587 | 13.640 | 38.694 |
| IL4719850002800010 | 1985-10-15T19:10 | 34.0000 | 34.5000 | 1570.46 | 1588 | 13.640 | 38.694 |
| IL4719850002800010 | 1985-10-15T19:10 | 34.0000 | 34.5000 | 1571.44 | 1589 | 13.638 | 38.694 |
| IL4719850002800010 | 1985-10-15T19:10 | 34.0000 | 34.5000 | 1572.43 | 1590 | 13.640 | 38.693 |
| IL4719850002800010 | 1985-10-15T19:10 | 34.0000 | 34.5000 | 1573.41 | 1591 | 13.638 | 38.693 |
| IL4719850002800010 | 1985-10-15T19:10 | 34.0000 | 34.5000 | 1574.40 | 1592 | 13.638 | 38.693 |
| IL4719850002800010 | 1985-10-15T19:10 | 34.0000 | 34.5000 | 1575.38 | 1593 | 13.638 | 38.694 |
| IL4719850002800010 | 1985-10-15T19:10 | 34.0000 | 34.5000 | 1576.37 | 1594 | 13.638 | 38.693 |
| IL4719850002800010 | 1985-10-15T19:10 | 34.0000 | 34.5000 | 1577.35 | 1595 | 13.637 | 38.693 |
| IL4719850002800010 | 1985-10-15T19:10 | 34.0000 | 34.5000 | 1578.34 | 1596 | 13.638 | 38.693 |
| IL4719850002800010 | 1985-10-15T19:10 | 34.0000 | 34.5000 | 1579.32 | 1597 | 13.638 | 38.693 |
| IL4719850002800010 | 1985-10-15T19:10 | 34.0000 | 34.5000 | 1580.31 | 1598 | 13.638 | 38.693 |
| IL4719850002800010 | 1985-10-15T19:10 | 34.0000 | 34.5000 | 1581.30 | 1599 | 13.638 | 38.694 |
| IL4719850002800010 | 1985-10-15T19:10 | 34.0000 | 34.5000 | 1582.28 | 1600 | 13.638 | 38.693 |
| IL4719850002800010 | 1985-10-15T19:10 | 34.0000 | 34.5000 | 1583.27 | 1601 | 13.638 | 38.693 |
| IL4719850002800010 | 1985-10-15T19:10 | 34.0000 | 34.5000 | 1584.25 | 1602 | 13.638 | 38.693 |
| IL4719850002800010 | 1985-10-15T19:10 | 34.0000 | 34.5000 | 1585.24 | 1603 | 13.638 | 38.693 |
| IL4719850002800010 | 1985-10-15T19:10 | 34.0000 | 34.5000 | 1586.22 | 1604 | 13.638 | 38.693 |
| IL4719850002800010 | 1985-10-15T19:10 | 34.0000 | 34.5000 | 1587.21 | 1605 | 13.638 | 38.693 |
| IL4719850002800010 | 1985-10-15T19:10 | 34.0000 | 34.5000 | 1588.19 | 1606 | 13.638 | 38.693 |
| IL4719850002800010 | 1985-10-15T19:10 | 34.0000 | 34.5000 | 1589.18 | 1607 | 13.640 | 38.693 |
| IL4719850002800010 | 1985-10-15T19:10 | 34.0000 | 34.5000 | 1590.16 | 1608 | 13.640 | 38.693 |
| IL4719850002800010 | 1985-10-15T19:10 | 34.0000 | 34.5000 | 1591.15 | 1609 | 13.640 | 38.693 |
| IL4719850002800010 | 1985-10-15T19:10 | 34.0000 | 34.5000 | 1592.13 | 1610 | 13.640 | 38.693 |
| IL4719850002800010 | 1985-10-15T19:10 | 34.0000 | 34.5000 | 1593.12 | 1611 | 13.640 | 38.693 |
| IL4719850002800010 | 1985-10-15T19:10 | 34.0000 | 34.5000 | 1594.11 | 1612 | 13.640 | 38.693 |
| IL4719850002800010 | 1985-10-15T19:10 | 34.0000 | 34.5000 | 1595.09 | 1613 | 13.640 | 38.693 |
| IL4719850002800010 | 1985-10-15T19:10 | 34.0000 | 34.5000 | 1596.08 | 1614 | 13.640 | 38.693 |
| IL4719850002800010 | 1985-10-15T19:10 | 34.0000 | 34.5000 | 1597.06 | 1615 | 13.638 | 38.693 |
| IL4719850002800010 | 1985-10-15T19:10 | 34.0000 | 34.5000 | 1598.05 | 1616 | 13.640 | 38.693 |
| IL4719850002800010 | 1985-10-15T19:10 | 34.0000 | 34.5000 | 1599.03 | 1617 | 13.640 | 38.693 |
| IL4719850002800010 | 1985-10-15T19:10 | 34.0000 | 34.5000 | 1600.02 | 1618 | 13.638 | 38.693 |
| IL4719850002800010 | 1985-10-15T19:10 | 34.0000 | 34.5000 | 1601.00 | 1619 | 13.638 | 38.693 |
| IL4719850002800010 | 1985-10-15T19:10 | 34.0000 | 34.5000 | 1601.99 | 1620 | 13.640 | 38.693 |
| IL4719850002800010 | 1985-10-15T19:10 | 34.0000 | 34.5000 | 1602.97 | 1621 | 13.640 | 38.693 |
| IL4719850002800010 | 1985-10-15T19:10 | 34.0000 | 34.5000 | 1603.96 | 1622 | 13.640 | 38.693 |
| IL4719850002800010 | 1985-10-15T19:10 | 34.0000 | 34.5000 | 1604.94 | 1623 | 13.640 | 38.693 |
| IL4719850002800010 | 1985-10-15T19:10 | 34.0000 | 34.5000 | 1605.93 | 1624 | 13.638 | 38.692 |
| IL4719850002800010 | 1985-10-15T19:10 | 34.0000 | 34.5000 | 1606.91 | 1625 | 13.638 | 38.693 |
| IL4719850002800010 | 1985-10-15T19:10 | 34.0000 | 34.5000 | 1607.90 | 1626 | 13.638 | 38.693 |
| IL4719850002800010 | 1985-10-15T19:10 | 34.0000 | 34.5000 | 1608.88 | 1627 | 13.638 | 38.693 |
| IL4719850002800010 | 1985-10-15T19:10 | 34.0000 | 34.5000 | 1609.87 | 1628 | 13.638 | 38.693 |
| IL4719850002800010 | 1985-10-15T19:10 | 34.0000 | 34.5000 | 1610.85 | 1629 | 13.638 | 38.693 |
| IL4719850002800010 | 1985-10-15T19:10 | 34.0000 | 34.5000 | 1611.84 | 1630 | 13.638 | 38.693 |
| IL4719850002800010 | 1985-10-15T19:10 | 34.0000 | 34.5000 | 1612.83 | 1631 | 13.638 | 38.692 |
| IL4719850002800010 | 1985-10-15T19:10 | 34.0000 | 34.5000 | 1613.81 | 1632 | 13.640 | 38.692 |
| IL4719850002800010 | 1985-10-15T19:10 | 34.0000 | 34.5000 | 1614.80 | 1633 | 13.638 | 38.692 |
| IL4719850002800010 | 1985-10-15T19:10 | 34.0000 | 34.5000 | 1615.78 | 1634 | 13.640 | 38.693 |
| IL4719850002800010 | 1985-10-15T19:10 | 34.0000 | 34.5000 | 1616.77 | 1635 | 13.638 | 38.692 |
| IL4719850002800010 | 1985-10-15T19:10 | 34.0000 | 34.5000 | 1617.75 | 1636 | 13.640 | 38.693 |
| IL4719850002800010 | 1985-10-15T19:10 | 34.0000 | 34.5000 | 1618.74 | 1637 | 13.640 | 38.693 |
| IL4719850002800010 | 1985-10-15T19:10 | 34.0000 | 34.5000 | 1619.72 | 1638 | 13.640 | 38.693 |
| IL4719850002800010 | 1985-10-15T19:10 | 34.0000 | 34.5000 | 1620.71 | 1639 | 13.640 | 38.693 |
| IL4719850002800010 | 1985-10-15T19:10 | 34.0000 | 34.5000 | 1621.69 | 1640 | 13.640 | 38.693 |
| IL4719850002800010 | 1985-10-15T19:10 | 34.0000 | 34.5000 | 1622.68 | 1641 | 13.640 | 38.692 |
| IL4719850002800010 | 1985-10-15T19:10 | 34.0000 | 34.5000 | 1623.66 | 1642 | 13.640 | 38.692 |
| IL4719850002800010 | 1985-10-15T19:10 | 34.0000 | 34.5000 | 1624.65 | 1643 | 13.640 | 38.693 |
| IL4719850002800010 | 1985-10-15T19:10 | 34.0000 | 34.5000 | 1625.63 | 1644 | 13.640 | 38.693 |
| IL4719850002800010 | 1985-10-15T19:10 | 34.0000 | 34.5000 | 1626.62 | 1645 | 13.640 | 38.693 |
| IL4719850002800010 | 1985-10-15T19:10 | 34.0000 | 34.5000 | 1627.60 | 1646 | 13.640 | 38.693 |
| IL4719850002800010 | 1985-10-15T19:10 | 34.0000 | 34.5000 | 1628.59 | 1647 | 13.642 | 38.692 |
| IL4719850002800010 | 1985-10-15T19:10 | 34.0000 | 34.5000 | 1629.57 | 1648 | 13.642 | 38.693 |
| IL4719850002800010 | 1985-10-15T19:10 | 34.0000 | 34.5000 | 1630.56 | 1649 | 13.642 | 38.693 |
| IL4719850002800010 | 1985-10-15T19:10 | 34.0000 | 34.5000 | 1631.54 | 1650 | 13.642 | 38.693 |
| IL4719850002800010 | 1985-10-15T19:10 | 34.0000 | 34.5000 | 1632.53 | 1651 | 13.642 | 38.693 |
| IL4719850002800010 | 1985-10-15T19:10 | 34.0000 | 34.5000 | 1633.51 | 1652 | 13.642 | 38.693 |
| IL4719850002800010 | 1985-10-15T19:10 | 34.0000 | 34.5000 | 1634.50 | 1653 | 13.642 | 38.693 |
| IL4719850002800010 | 1985-10-15T19:10 | 34.0000 | 34.5000 | 1635.48 | 1654 | 13.642 | 38.693 |
| IL4719850002800010 | 1985-10-15T19:10 | 34.0000 | 34.5000 | 1636.47 | 1655 | 13.642 | 38.693 |
| IL4719850002800010 | 1985-10-15T19:10 | 34.0000 | 34.5000 | 1637.45 | 1656 | 13.642 | 38.692 |
| IL4719850002800010 | 1985-10-15T19:10 | 34.0000 | 34.5000 | 1638.44 | 1657 | 13.642 | 38.693 |
| IL4719850002800010 | 1985-10-15T19:10 | 34.0000 | 34.5000 | 1639.43 | 1658 | 13.642 | 38.693 |
| IL4719850002800010 | 1985-10-15T19:10 | 34.0000 | 34.5000 | 1640.41 | 1659 | 13.642 | 38.693 |
| IL4719850002800010 | 1985-10-15T19:10 | 34.0000 | 34.5000 | 1641.40 | 1660 | 13.642 | 38.693 |
| IL4719850002800010 | 1985-10-15T19:10 | 34.0000 | 34.5000 | 1642.38 | 1661 | 13.642 | 38.693 |
| IL4719850002800010 | 1985-10-15T19:10 | 34.0000 | 34.5000 | 1643.37 | 1662 | 13.642 | 38.693 |
| IL4719850002800010 | 1985-10-15T19:10 | 34.0000 | 34.5000 | 1644.35 | 1663 | 13.642 | 38.693 |
| IL4719850002800010 | 1985-10-15T19:10 | 34.0000 | 34.5000 | 1645.34 | 1664 | 13.642 | 38.692 |
| IL4719850002800010 | 1985-10-15T19:10 | 34.0000 | 34.5000 | 1646.32 | 1665 | 13.642 | 38.692 |
| IL4719850002800010 | 1985-10-15T19:10 | 34.0000 | 34.5000 | 1647.31 | 1666 | 13.642 | 38.692 |
| IL4719850002800010 | 1985-10-15T19:10 | 34.0000 | 34.5000 | 1648.29 | 1667 | 13.642 | 38.692 |
| IL4719850002800010 | 1985-10-15T19:10 | 34.0000 | 34.5000 | 1649.28 | 1668 | 13.642 | 38.693 |
| IL4719850002800010 | 1985-10-15T19:10 | 34.0000 | 34.5000 | 1650.26 | 1669 | 13.642 | 38.693 |
| IL4719850002800010 | 1985-10-15T19:10 | 34.0000 | 34.5000 | 1651.25 | 1670 | 13.642 | 38.692 |
| IL4719850002800010 | 1985-10-15T19:10 | 34.0000 | 34.5000 | 1652.23 | 1671 | 13.642 | 38.692 |
| IL4719850002800010 | 1985-10-15T19:10 | 34.0000 | 34.5000 | 1653.22 | 1672 | 13.642 | 38.692 |
| IL4719850002800010 | 1985-10-15T19:10 | 34.0000 | 34.5000 | 1654.20 | 1673 | 13.642 | 38.692 |
| IL4719850002800010 | 1985-10-15T19:10 | 34.0000 | 34.5000 | 1655.19 | 1674 | 13.642 | 38.692 |
| IL4719850002800010 | 1985-10-15T19:10 | 34.0000 | 34.5000 | 1656.17 | 1675 | 13.642 | 38.692 |
| IL4719850002800010 | 1985-10-15T19:10 | 34.0000 | 34.5000 | 1657.16 | 1676 | 13.642 | 38.693 |
| IL4719850002800010 | 1985-10-15T19:10 | 34.0000 | 34.5000 | 1658.14 | 1677 | 13.642 | 38.692 |
| IL4719850002800010 | 1985-10-15T19:10 | 34.0000 | 34.5000 | 1659.13 | 1678 | 13.644 | 38.692 |
| IL4719850002800010 | 1985-10-15T19:10 | 34.0000 | 34.5000 | 1660.11 | 1679 | 13.642 | 38.692 |
| IL4719850002800010 | 1985-10-15T19:10 | 34.0000 | 34.5000 | 1661.10 | 1680 | 13.644 | 38.692 |
| IL4719850002800010 | 1985-10-15T19:10 | 34.0000 | 34.5000 | 1662.08 | 1681 | 13.642 | 38.692 |
| IL4719850002800010 | 1985-10-15T19:10 | 34.0000 | 34.5000 | 1663.07 | 1682 | 13.642 | 38.692 |
| IL4719850002800010 | 1985-10-15T19:10 | 34.0000 | 34.5000 | 1664.05 | 1683 | 13.642 | 38.692 |
| IL4719850002800010 | 1985-10-15T19:10 | 34.0000 | 34.5000 | 1665.04 | 1684 | 13.642 | 38.692 |
| IL4719850002800010 | 1985-10-15T19:10 | 34.0000 | 34.5000 | 1666.02 | 1685 | 13.642 | 38.693 |
| IL4719850002800010 | 1985-10-15T19:10 | 34.0000 | 34.5000 | 1667.01 | 1686 | 13.642 | 38.693 |
| IL4719850002800010 | 1985-10-15T19:10 | 34.0000 | 34.5000 | 1667.99 | 1687 | 13.642 | 38.692 |
| IL4719850002800010 | 1985-10-15T19:10 | 34.0000 | 34.5000 | 1668.98 | 1688 | 13.644 | 38.692 |
| IL4719850002800010 | 1985-10-15T19:10 | 34.0000 | 34.5000 | 1669.96 | 1689 | 13.642 | 38.692 |
| IL4719850002800010 | 1985-10-15T19:10 | 34.0000 | 34.5000 | 1670.95 | 1690 | 13.644 | 38.692 |
| IL4719850002800010 | 1985-10-15T19:10 | 34.0000 | 34.5000 | 1671.93 | 1691 | 13.644 | 38.692 |
| IL4719850002800010 | 1985-10-15T19:10 | 34.0000 | 34.5000 | 1672.92 | 1692 | 13.644 | 38.692 |
| IL4719850002800010 | 1985-10-15T19:10 | 34.0000 | 34.5000 | 1673.90 | 1693 | 13.644 | 38.693 |
| IL4719850002800010 | 1985-10-15T19:10 | 34.0000 | 34.5000 | 1674.89 | 1694 | 13.644 | 38.693 |
| IL4719850002800010 | 1985-10-15T19:10 | 34.0000 | 34.5000 | 1675.87 | 1695 | 13.644 | 38.692 |
| IL4719850002800010 | 1985-10-15T19:10 | 34.0000 | 34.5000 | 1676.86 | 1696 | 13.644 | 38.692 |
| IL4719850002800010 | 1985-10-15T19:10 | 34.0000 | 34.5000 | 1677.84 | 1697 | 13.645 | 38.692 |
| IL4719850002800010 | 1985-10-15T19:10 | 34.0000 | 34.5000 | 1678.83 | 1698 | 13.645 | 38.692 |
| IL4719850002800010 | 1985-10-15T19:10 | 34.0000 | 34.5000 | 1679.81 | 1699 | 13.645 | 38.692 |
| IL4719850002800010 | 1985-10-15T19:10 | 34.0000 | 34.5000 | 1680.80 | 1700 | 13.645 | 38.692 |
| IL4719850002800010 | 1985-10-15T19:10 | 34.0000 | 34.5000 | 1681.78 | 1701 | 13.645 | 38.692 |
| IL4719850002800010 | 1985-10-15T19:10 | 34.0000 | 34.5000 | 1682.77 | 1702 | 13.645 | 38.692 |
| IL4719850002800010 | 1985-10-15T19:10 | 34.0000 | 34.5000 | 1683.75 | 1703 | 13.645 | 38.692 |
| IL4719850002800010 | 1985-10-15T19:10 | 34.0000 | 34.5000 | 1684.74 | 1704 | 13.645 | 38.692 |
| IL4719850002800010 | 1985-10-15T19:10 | 34.0000 | 34.5000 | 1685.72 | 1705 | 13.645 | 38.692 |
| IL4719850002800010 | 1985-10-15T19:10 | 34.0000 | 34.5000 | 1686.71 | 1706 | 13.645 | 38.692 |
| IL4719850002800010 | 1985-10-15T19:10 | 34.0000 | 34.5000 | 1687.69 | 1707 | 13.644 | 38.692 |
| IL4719850002800010 | 1985-10-15T19:10 | 34.0000 | 34.5000 | 1688.68 | 1708 | 13.645 | 38.692 |
| IL4719850002800010 | 1985-10-15T19:10 | 34.0000 | 34.5000 | 1689.66 | 1709 | 13.645 | 38.692 |
| IL4719850002800010 | 1985-10-15T19:10 | 34.0000 | 34.5000 | 1690.65 | 1710 | 13.645 | 38.692 |
| IL4719850002800010 | 1985-10-15T19:10 | 34.0000 | 34.5000 | 1691.63 | 1711 | 13.645 | 38.692 |
| IL4719850002800010 | 1985-10-15T19:10 | 34.0000 | 34.5000 | 1692.62 | 1712 | 13.645 | 38.692 |
| IL4719850002800010 | 1985-10-15T19:10 | 34.0000 | 34.5000 | 1693.60 | 1713 | 13.645 | 38.692 |
| IL4719850002800010 | 1985-10-15T19:10 | 34.0000 | 34.5000 | 1694.58 | 1714 | 13.645 | 38.691 |
| IL4719850002800010 | 1985-10-15T19:10 | 34.0000 | 34.5000 | 1695.57 | 1715 | 13.645 | 38.692 |
| IL4719850002800010 | 1985-10-15T19:10 | 34.0000 | 34.5000 | 1696.55 | 1716 | 13.645 | 38.692 |
| IL4719850002800010 | 1985-10-15T19:10 | 34.0000 | 34.5000 | 1697.54 | 1717 | 13.645 | 38.692 |
| IL4719850002800010 | 1985-10-15T19:10 | 34.0000 | 34.5000 | 1698.52 | 1718 | 13.645 | 38.691 |
| IL4719850002800010 | 1985-10-15T19:10 | 34.0000 | 34.5000 | 1699.51 | 1719 | 13.645 | 38.692 |
| IL4719850002800010 | 1985-10-15T19:10 | 34.0000 | 34.5000 | 1700.49 | 1720 | 13.645 | 38.692 |
| IL4719850002800010 | 1985-10-15T19:10 | 34.0000 | 34.5000 | 1701.48 | 1721 | 13.645 | 38.692 |
| IL4719850002800010 | 1985-10-15T19:10 | 34.0000 | 34.5000 | 1702.46 | 1722 | 13.645 | 38.692 |
| IL4719850002800010 | 1985-10-15T19:10 | 34.0000 | 34.5000 | 1703.45 | 1723 | 13.645 | 38.692 |
| IL4719850002800010 | 1985-10-15T19:10 | 34.0000 | 34.5000 | 1704.43 | 1724 | 13.645 | 38.692 |
| IL4719850002800010 | 1985-10-15T19:10 | 34.0000 | 34.5000 | 1705.42 | 1725 | 13.645 | 38.692 |
| IL4719850002800010 | 1985-10-15T19:10 | 34.0000 | 34.5000 | 1706.40 | 1726 | 13.645 | 38.692 |
| IL4719850002800010 | 1985-10-15T19:10 | 34.0000 | 34.5000 | 1707.39 | 1727 | 13.645 | 38.692 |
| IL4719850002800010 | 1985-10-15T19:10 | 34.0000 | 34.5000 | 1708.37 | 1728 | 13.645 | 38.692 |
| IL4719850002800010 | 1985-10-15T19:10 | 34.0000 | 34.5000 | 1709.36 | 1729 | 13.645 | 38.693 |
| IL4719850002800010 | 1985-10-15T19:10 | 34.0000 | 34.5000 | 1710.34 | 1730 | 13.645 | 38.692 |
| IL4719850002800010 | 1985-10-15T19:10 | 34.0000 | 34.5000 | 1711.33 | 1731 | 13.645 | 38.691 |
| IL4719850002800010 | 1985-10-15T19:10 | 34.0000 | 34.5000 | 1712.31 | 1732 | 13.647 | 38.691 |
| IL4719850002800010 | 1985-10-15T19:10 | 34.0000 | 34.5000 | 1713.30 | 1733 | 13.647 | 38.691 |
| IL4719850002800010 | 1985-10-15T19:10 | 34.0000 | 34.5000 | 1714.28 | 1734 | 13.645 | 38.692 |
| IL4719850002800010 | 1985-10-15T19:10 | 34.0000 | 34.5000 | 1715.27 | 1735 | 13.647 | 38.692 |
| IL4719850002800010 | 1985-10-15T19:10 | 34.0000 | 34.5000 | 1716.25 | 1736 | 13.647 | 38.692 |
| IL4719850002800010 | 1985-10-15T19:10 | 34.0000 | 34.5000 | 1717.24 | 1737 | 13.647 | 38.692 |
| IL4719850002800010 | 1985-10-15T19:10 | 34.0000 | 34.5000 | 1718.22 | 1738 | 13.647 | 38.692 |
| IL4719850002800010 | 1985-10-15T19:10 | 34.0000 | 34.5000 | 1719.21 | 1739 | 13.647 | 38.692 |
| IL4719850002800010 | 1985-10-15T19:10 | 34.0000 | 34.5000 | 1720.19 | 1740 | 13.647 | 38.692 |
| IL4719850002800010 | 1985-10-15T19:10 | 34.0000 | 34.5000 | 1721.17 | 1741 | 13.647 | 38.692 |
| IL4719850002800010 | 1985-10-15T19:10 | 34.0000 | 34.5000 | 1722.16 | 1742 | 13.647 | 38.692 |
| IL4719850002800010 | 1985-10-15T19:10 | 34.0000 | 34.5000 | 1723.14 | 1743 | 13.647 | 38.692 |
| IL4719850002800010 | 1985-10-15T19:10 | 34.0000 | 34.5000 | 1724.13 | 1744 | 13.647 | 38.692 |
| IL4719850002800010 | 1985-10-15T19:10 | 34.0000 | 34.5000 | 1725.11 | 1745 | 13.647 | 38.692 |
| IL4719850002800010 | 1985-10-15T19:10 | 34.0000 | 34.5000 | 1726.10 | 1746 | 13.647 | 38.692 |
| IL4719850002800010 | 1985-10-15T19:10 | 34.0000 | 34.5000 | 1727.08 | 1747 | 13.647 | 38.692 |
| IL4719850002800010 | 1985-10-15T19:10 | 34.0000 | 34.5000 | 1728.07 | 1748 | 13.647 | 38.691 |
| IL4719850002800010 | 1985-10-15T19:10 | 34.0000 | 34.5000 | 1729.05 | 1749 | 13.647 | 38.692 |
| IL4719850002800010 | 1985-10-15T19:10 | 34.0000 | 34.5000 | 1730.04 | 1750 | 13.647 | 38.692 |
| IL4719850002800010 | 1985-10-15T19:10 | 34.0000 | 34.5000 | 1731.02 | 1751 | 13.647 | 38.692 |
| IL4719850002800010 | 1985-10-15T19:10 | 34.0000 | 34.5000 | 1732.01 | 1752 | 13.649 | 38.691 |
| IL4719850002800010 | 1985-10-15T19:10 | 34.0000 | 34.5000 | 1732.99 | 1753 | 13.649 | 38.692 |
| IL4719850002800010 | 1985-10-15T19:10 | 34.0000 | 34.5000 | 1733.98 | 1754 | 13.649 | 38.692 |
| IL4719850002800010 | 1985-10-15T19:10 | 34.0000 | 34.5000 | 1734.96 | 1755 | 13.649 | 38.691 |
| IL4719850002800010 | 1985-10-15T19:10 | 34.0000 | 34.5000 | 1735.95 | 1756 | 13.649 | 38.691 |
| IL4719850002800010 | 1985-10-15T19:10 | 34.0000 | 34.5000 | 1736.93 | 1757 | 13.649 | 38.692 |
| IL4719850002800010 | 1985-10-15T19:10 | 34.0000 | 34.5000 | 1737.91 | 1758 | 13.649 | 38.692 |
| IL4719850002800010 | 1985-10-15T19:10 | 34.0000 | 34.5000 | 1738.90 | 1759 | 13.649 | 38.692 |
| IL4719850002800010 | 1985-10-15T19:10 | 34.0000 | 34.5000 | 1739.88 | 1760 | 13.649 | 38.692 |
| IL4719850002800010 | 1985-10-15T19:10 | 34.0000 | 34.5000 | 1740.87 | 1761 | 13.649 | 38.691 |
| IL4719850002800010 | 1985-10-15T19:10 | 34.0000 | 34.5000 | 1741.85 | 1762 | 13.649 | 38.692 |
| IL4719850002800010 | 1985-10-15T19:10 | 34.0000 | 34.5000 | 1742.84 | 1763 | 13.649 | 38.691 |
| IL4719850002800010 | 1985-10-15T19:10 | 34.0000 | 34.5000 | 1743.82 | 1764 | 13.649 | 38.691 |
| IL4719850002800010 | 1985-10-15T19:10 | 34.0000 | 34.5000 | 1744.81 | 1765 | 13.649 | 38.692 |
| IL4719850002800010 | 1985-10-15T19:10 | 34.0000 | 34.5000 | 1745.79 | 1766 | 13.649 | 38.692 |
| IL4719850002800010 | 1985-10-15T19:10 | 34.0000 | 34.5000 | 1746.78 | 1767 | 13.649 | 38.692 |
| IL4719850002800010 | 1985-10-15T19:10 | 34.0000 | 34.5000 | 1747.76 | 1768 | 13.649 | 38.691 |
| IL4719850002800010 | 1985-10-15T19:10 | 34.0000 | 34.5000 | 1748.75 | 1769 | 13.649 | 38.692 |
| IL4719850002800010 | 1985-10-15T19:10 | 34.0000 | 34.5000 | 1749.73 | 1770 | 13.649 | 38.692 |
| IL4719850002800010 | 1985-10-15T19:10 | 34.0000 | 34.5000 | 1750.72 | 1771 | 13.649 | 38.692 |
| IL4719850002800010 | 1985-10-15T19:10 | 34.0000 | 34.5000 | 1751.70 | 1772 | 13.649 | 38.691 |
| IL4719850002800010 | 1985-10-15T19:10 | 34.0000 | 34.5000 | 1752.68 | 1773 | 13.651 | 38.691 |
| IL4719850002800010 | 1985-10-15T19:10 | 34.0000 | 34.5000 | 1753.67 | 1774 | 13.651 | 38.691 |
| IL4719850002800010 | 1985-10-15T19:10 | 34.0000 | 34.5000 | 1754.65 | 1775 | 13.651 | 38.691 |
| IL4719850002800010 | 1985-10-15T19:10 | 34.0000 | 34.5000 | 1755.64 | 1776 | 13.651 | 38.692 |
| IL4719850002800010 | 1985-10-15T19:10 | 34.0000 | 34.5000 | 1756.62 | 1777 | 13.649 | 38.692 |
| IL4719850002800010 | 1985-10-15T19:10 | 34.0000 | 34.5000 | 1757.61 | 1778 | 13.651 | 38.692 |
| IL4719850002800010 | 1985-10-15T19:10 | 34.0000 | 34.5000 | 1758.59 | 1779 | 13.651 | 38.691 |
| IL4719850002800010 | 1985-10-15T19:10 | 34.0000 | 34.5000 | 1759.58 | 1780 | 13.651 | 38.691 |
| IL4719850002800010 | 1985-10-15T19:10 | 34.0000 | 34.5000 | 1760.56 | 1781 | 13.651 | 38.691 |
| IL4719850002800010 | 1985-10-15T19:10 | 34.0000 | 34.5000 | 1761.55 | 1782 | 13.651 | 38.691 |
| IL4719850002800010 | 1985-10-15T19:10 | 34.0000 | 34.5000 | 1762.53 | 1783 | 13.651 | 38.692 |
| IL4719850002800010 | 1985-10-15T19:10 | 34.0000 | 34.5000 | 1763.52 | 1784 | 13.651 | 38.692 |
| IL4719850002800010 | 1985-10-15T19:10 | 34.0000 | 34.5000 | 1764.50 | 1785 | 13.651 | 38.692 |
| IL4719850002800010 | 1985-10-15T19:10 | 34.0000 | 34.5000 | 1765.48 | 1786 | 13.651 | 38.691 |
| IL4719850002800010 | 1985-10-15T19:10 | 34.0000 | 34.5000 | 1766.47 | 1787 | 13.651 | 38.691 |
| IL4719850002800010 | 1985-10-15T19:10 | 34.0000 | 34.5000 | 1767.45 | 1788 | 13.651 | 38.691 |
| IL4719850002800010 | 1985-10-15T19:10 | 34.0000 | 34.5000 | 1768.44 | 1789 | 13.651 | 38.691 |
| IL4719850002800010 | 1985-10-15T19:10 | 34.0000 | 34.5000 | 1769.42 | 1790 | 13.651 | 38.691 |
| IL4719850002800010 | 1985-10-15T19:10 | 34.0000 | 34.5000 | 1770.41 | 1791 | 13.651 | 38.691 |
| IL4719850002800010 | 1985-10-15T19:10 | 34.0000 | 34.5000 | 1771.39 | 1792 | 13.652 | 38.691 |
| IL4719850002800010 | 1985-10-15T19:10 | 34.0000 | 34.5000 | 1772.38 | 1793 | 13.652 | 38.691 |
| IL4719850002800010 | 1985-10-15T19:10 | 34.0000 | 34.5000 | 1773.36 | 1794 | 13.652 | 38.691 |
| IL4719850002800010 | 1985-10-15T19:10 | 34.0000 | 34.5000 | 1774.34 | 1795 | 13.652 | 38.691 |
| IL4719850002800010 | 1985-10-15T19:10 | 34.0000 | 34.5000 | 1775.33 | 1796 | 13.652 | 38.691 |
| IL4719850002800010 | 1985-10-15T19:10 | 34.0000 | 34.5000 | 1776.31 | 1797 | 13.652 | 38.691 |
| IL4719850002800010 | 1985-10-15T19:10 | 34.0000 | 34.5000 | 1777.30 | 1798 | 13.652 | 38.691 |
| IL4719850002800010 | 1985-10-15T19:10 | 34.0000 | 34.5000 | 1778.28 | 1799 | 13.652 | 38.692 |
| IL4719850002800010 | 1985-10-15T19:10 | 34.0000 | 34.5000 | 1779.27 | 1800 | 13.652 | 38.691 |
| IL4719850002800010 | 1985-10-15T19:10 | 34.0000 | 34.5000 | 1780.25 | 1801 | 13.652 | 38.691 |
| IL4719850002800010 | 1985-10-15T19:10 | 34.0000 | 34.5000 | 1781.24 | 1802 | 13.652 | 38.691 |
| IL4719850002800010 | 1985-10-15T19:10 | 34.0000 | 34.5000 | 1782.22 | 1803 | 13.652 | 38.691 |
| IL4719850002800010 | 1985-10-15T19:10 | 34.0000 | 34.5000 | 1783.21 | 1804 | 13.652 | 38.691 |
| IL4719850002800010 | 1985-10-15T19:10 | 34.0000 | 34.5000 | 1784.19 | 1805 | 13.652 | 38.691 |
| IL4719850002800010 | 1985-10-15T19:10 | 34.0000 | 34.5000 | 1785.17 | 1806 | 13.652 | 38.691 |
| IL4719850002800010 | 1985-10-15T19:10 | 34.0000 | 34.5000 | 1786.16 | 1807 | 13.652 | 38.691 |
| IL4719850002800010 | 1985-10-15T19:10 | 34.0000 | 34.5000 | 1787.14 | 1808 | 13.652 | 38.691 |
| IL4719850002800010 | 1985-10-15T19:10 | 34.0000 | 34.5000 | 1788.13 | 1809 | 13.652 | 38.691 |
| IL4719850002800010 | 1985-10-15T19:10 | 34.0000 | 34.5000 | 1789.11 | 1810 | 13.652 | 38.691 |
| IL4719850002800010 | 1985-10-15T19:10 | 34.0000 | 34.5000 | 1790.10 | 1811 | 13.652 | 38.691 |
| IL4719850002800010 | 1985-10-15T19:10 | 34.0000 | 34.5000 | 1791.08 | 1812 | 13.652 | 38.691 |
| IL4719850002800010 | 1985-10-15T19:10 | 34.0000 | 34.5000 | 1792.07 | 1813 | 13.654 | 38.691 |
| IL4719850002800010 | 1985-10-15T19:10 | 34.0000 | 34.5000 | 1793.05 | 1814 | 13.654 | 38.691 |
| IL4719850002800010 | 1985-10-15T19:10 | 34.0000 | 34.5000 | 1794.03 | 1815 | 13.652 | 38.691 |
| IL4719850002800010 | 1985-10-15T19:10 | 34.0000 | 34.5000 | 1795.02 | 1816 | 13.652 | 38.692 |
| IL4719850002800010 | 1985-10-15T19:10 | 34.0000 | 34.5000 | 1796.00 | 1817 | 13.654 | 38.691 |
| IL4719850002800010 | 1985-10-15T19:10 | 34.0000 | 34.5000 | 1796.99 | 1818 | 13.652 | 38.691 |
| IL4719850002800010 | 1985-10-15T19:10 | 34.0000 | 34.5000 | 1797.97 | 1819 | 13.652 | 38.691 |
| IL4719850002800010 | 1985-10-15T19:10 | 34.0000 | 34.5000 | 1798.96 | 1820 | 13.652 | 38.691 |
| IL4719850002800010 | 1985-10-15T19:10 | 34.0000 | 34.5000 | 1799.94 | 1821 | 13.654 | 38.691 |
| IL4719850002800010 | 1985-10-15T19:10 | 34.0000 | 34.5000 | 1800.93 | 1822 | 13.654 | 38.691 |
| IL4719850002800010 | 1985-10-15T19:10 | 34.0000 | 34.5000 | 1801.91 | 1823 | 13.654 | 38.691 |
| IL4719850002800010 | 1985-10-15T19:10 | 34.0000 | 34.5000 | 1802.89 | 1824 | 13.654 | 38.691 |
| IL4719850002800010 | 1985-10-15T19:10 | 34.0000 | 34.5000 | 1803.88 | 1825 | 13.654 | 38.691 |
| IL4719850002800010 | 1985-10-15T19:10 | 34.0000 | 34.5000 | 1804.86 | 1826 | 13.654 | 38.691 |
| IL4719850002800010 | 1985-10-15T19:10 | 34.0000 | 34.5000 | 1805.85 | 1827 | 13.654 | 38.691 |
| IL4719850002800010 | 1985-10-15T19:10 | 34.0000 | 34.5000 | 1806.83 | 1828 | 13.654 | 38.691 |
| IL4719850002800010 | 1985-10-15T19:10 | 34.0000 | 34.5000 | 1807.82 | 1829 | 13.654 | 38.691 |
| IL4719850002800010 | 1985-10-15T19:10 | 34.0000 | 34.5000 | 1808.80 | 1830 | 13.654 | 38.691 |
| IL4719850002800010 | 1985-10-15T19:10 | 34.0000 | 34.5000 | 1809.78 | 1831 | 13.654 | 38.691 |
| IL4719850002800010 | 1985-10-15T19:10 | 34.0000 | 34.5000 | 1810.77 | 1832 | 13.654 | 38.691 |
| IL4719850002800010 | 1985-10-15T19:10 | 34.0000 | 34.5000 | 1811.75 | 1833 | 13.654 | 38.691 |
| IL4719850002800010 | 1985-10-15T19:10 | 34.0000 | 34.5000 | 1812.74 | 1834 | 13.654 | 38.691 |
| IL4719850002800010 | 1985-10-15T19:10 | 34.0000 | 34.5000 | 1813.72 | 1835 | 13.654 | 38.691 |
| IL4719850002800010 | 1985-10-15T19:10 | 34.0000 | 34.5000 | 1814.71 | 1836 | 13.654 | 38.691 |
| IL4719850002800010 | 1985-10-15T19:10 | 34.0000 | 34.5000 | 1815.69 | 1837 | 13.654 | 38.691 |
| IL4719850002800010 | 1985-10-15T19:10 | 34.0000 | 34.5000 | 1816.67 | 1838 | 13.654 | 38.691 |
| IL4719850002800010 | 1985-10-15T19:10 | 34.0000 | 34.5000 | 1817.66 | 1839 | 13.654 | 38.691 |
| IL4719850002800010 | 1985-10-15T19:10 | 34.0000 | 34.5000 | 1818.64 | 1840 | 13.654 | 38.691 |
| IL4719850002800010 | 1985-10-15T19:10 | 34.0000 | 34.5000 | 1819.63 | 1841 | 13.654 | 38.691 |
| IL4719850002800010 | 1985-10-15T19:10 | 34.0000 | 34.5000 | 1820.61 | 1842 | 13.654 | 38.691 |
| IL4719850002800010 | 1985-10-15T19:10 | 34.0000 | 34.5000 | 1821.60 | 1843 | 13.654 | 38.691 |
| IL4719850002800010 | 1985-10-15T19:10 | 34.0000 | 34.5000 | 1822.58 | 1844 | 13.654 | 38.691 |
| IL4719850002800010 | 1985-10-15T19:10 | 34.0000 | 34.5000 | 1823.57 | 1845 | 13.654 | 38.691 |
| IL4719850002800010 | 1985-10-15T19:10 | 34.0000 | 34.5000 | 1824.55 | 1846 | 13.654 | 38.691 |
| IL4719850002800010 | 1985-10-15T19:10 | 34.0000 | 34.5000 | 1825.53 | 1847 | 13.654 | 38.691 |
| IL4719850002800010 | 1985-10-15T19:10 | 34.0000 | 34.5000 | 1826.52 | 1848 | 13.654 | 38.689 |
| IL4719850002800010 | 1985-10-15T19:10 | 34.0000 | 34.5000 | 1827.50 | 1849 | 13.654 | 38.689 |
| IL4719850002800010 | 1985-10-15T19:10 | 34.0000 | 34.5000 | 1828.49 | 1850 | 13.654 | 38.691 |
| IL4719850002800010 | 1985-10-15T19:10 | 34.0000 | 34.5000 | 1829.47 | 1851 | 13.654 | 38.691 |
| IL4719850002800010 | 1985-10-15T19:10 | 34.0000 | 34.5000 | 1830.46 | 1852 | 13.656 | 38.691 |
| IL4719850002800010 | 1985-10-15T19:10 | 34.0000 | 34.5000 | 1831.44 | 1853 | 13.654 | 38.691 |
| IL4719850002800010 | 1985-10-15T19:10 | 34.0000 | 34.5000 | 1832.42 | 1854 | 13.654 | 38.691 |
| IL4719850002800010 | 1985-10-15T19:10 | 34.0000 | 34.5000 | 1833.41 | 1855 | 13.656 | 38.691 |
| IL4719850002800010 | 1985-10-15T19:10 | 34.0000 | 34.5000 | 1834.39 | 1856 | 13.656 | 38.689 |
| IL4719850002800010 | 1985-10-15T19:10 | 34.0000 | 34.5000 | 1835.38 | 1857 | 13.656 | 38.691 |
| IL4719850002800010 | 1985-10-15T19:10 | 34.0000 | 34.5000 | 1836.36 | 1858 | 13.656 | 38.691 |
| IL4719850002800010 | 1985-10-15T19:10 | 34.0000 | 34.5000 | 1837.34 | 1859 | 13.656 | 38.691 |
| IL4719850002800010 | 1985-10-15T19:10 | 34.0000 | 34.5000 | 1838.33 | 1860 | 13.656 | 38.691 |
| IL4719850002800010 | 1985-10-15T19:10 | 34.0000 | 34.5000 | 1839.31 | 1861 | 13.656 | 38.691 |
| IL4719850002800010 | 1985-10-15T19:10 | 34.0000 | 34.5000 | 1840.30 | 1862 | 13.656 | 38.691 |
| IL4719850002800010 | 1985-10-15T19:10 | 34.0000 | 34.5000 | 1841.28 | 1863 | 13.656 | 38.691 |
| IL4719850002800010 | 1985-10-15T19:10 | 34.0000 | 34.5000 | 1842.27 | 1864 | 13.656 | 38.689 |
| IL4719850002800010 | 1985-10-15T19:10 | 34.0000 | 34.5000 | 1843.25 | 1865 | 13.656 | 38.691 |
| IL4719850002800010 | 1985-10-15T19:10 | 34.0000 | 34.5000 | 1844.23 | 1866 | 13.656 | 38.689 |
| IL4719850002800010 | 1985-10-15T19:10 | 34.0000 | 34.5000 | 1845.22 | 1867 | 13.656 | 38.691 |
| IL4719850002800010 | 1985-10-15T19:10 | 34.0000 | 34.5000 | 1846.20 | 1868 | 13.656 | 38.691 |
| IL4719850002800010 | 1985-10-15T19:10 | 34.0000 | 34.5000 | 1847.19 | 1869 | 13.656 | 38.691 |
| IL4719850002800010 | 1985-10-15T19:10 | 34.0000 | 34.5000 | 1848.17 | 1870 | 13.656 | 38.691 |
| IL4719850002800010 | 1985-10-15T19:10 | 34.0000 | 34.5000 | 1849.16 | 1871 | 13.656 | 38.691 |
| IL4719850002800010 | 1985-10-15T19:10 | 34.0000 | 34.5000 | 1850.14 | 1872 | 13.656 | 38.689 |
| IL4719850002800010 | 1985-10-15T19:10 | 34.0000 | 34.5000 | 1851.12 | 1873 | 13.656 | 38.691 |
| IL4719850002800010 | 1985-10-15T19:10 | 34.0000 | 34.5000 | 1852.11 | 1874 | 13.656 | 38.689 |
| IL4719850002800010 | 1985-10-15T19:10 | 34.0000 | 34.5000 | 1853.09 | 1875 | 13.656 | 38.691 |
| IL4719850002800010 | 1985-10-15T19:10 | 34.0000 | 34.5000 | 1854.08 | 1876 | 13.656 | 38.691 |
| IL4719850002800010 | 1985-10-15T19:10 | 34.0000 | 34.5000 | 1855.06 | 1877 | 13.657 | 38.691 |
| IL4719850002800010 | 1985-10-15T19:10 | 34.0000 | 34.5000 | 1856.04 | 1878 | 13.657 | 38.689 |
| IL4719850002800010 | 1985-10-15T19:10 | 34.0000 | 34.5000 | 1857.03 | 1879 | 13.657 | 38.691 |
| IL4719850002800010 | 1985-10-15T19:10 | 34.0000 | 34.5000 | 1858.01 | 1880 | 13.657 | 38.691 |
| IL4719850002800010 | 1985-10-15T19:10 | 34.0000 | 34.5000 | 1859.00 | 1881 | 13.657 | 38.691 |
| IL4719850002800010 | 1985-10-15T19:10 | 34.0000 | 34.5000 | 1859.98 | 1882 | 13.657 | 38.691 |
| IL4719850002800010 | 1985-10-15T19:10 | 34.0000 | 34.5000 | 1860.97 | 1883 | 13.657 | 38.691 |
| IL4719850002800010 | 1985-10-15T19:10 | 34.0000 | 34.5000 | 1861.95 | 1884 | 13.659 | 38.691 |
| IL4719850002800010 | 1985-10-15T19:10 | 34.0000 | 34.5000 | 1862.93 | 1885 | 13.657 | 38.691 |
| IL4719850002800010 | 1985-10-15T19:10 | 34.0000 | 34.5000 | 1863.92 | 1886 | 13.659 | 38.691 |
| IL4719850002800010 | 1985-10-15T19:10 | 34.0000 | 34.5000 | 1864.90 | 1887 | 13.657 | 38.691 |
| IL4719850002800010 | 1985-10-15T19:10 | 34.0000 | 34.5000 | 1865.89 | 1888 | 13.659 | 38.691 |
| IL4719850002800010 | 1985-10-15T19:10 | 34.0000 | 34.5000 | 1866.87 | 1889 | 13.659 | 38.689 |
| IL4719850002800010 | 1985-10-15T19:10 | 34.0000 | 34.5000 | 1867.85 | 1890 | 13.659 | 38.691 |
| IL4719850002800010 | 1985-10-15T19:10 | 34.0000 | 34.5000 | 1868.84 | 1891 | 13.659 | 38.691 |
| IL4719850002800010 | 1985-10-15T19:10 | 34.0000 | 34.5000 | 1869.82 | 1892 | 13.659 | 38.691 |
| IL4719850002800010 | 1985-10-15T19:10 | 34.0000 | 34.5000 | 1870.81 | 1893 | 13.659 | 38.691 |
| IL4719850002800010 | 1985-10-15T19:10 | 34.0000 | 34.5000 | 1871.79 | 1894 | 13.659 | 38.689 |
| IL4719850002800010 | 1985-10-15T19:10 | 34.0000 | 34.5000 | 1872.77 | 1895 | 13.659 | 38.689 |
| IL4719850002800010 | 1985-10-15T19:10 | 34.0000 | 34.5000 | 1873.76 | 1896 | 13.659 | 38.689 |
| IL4719850002800010 | 1985-10-15T19:10 | 34.0000 | 34.5000 | 1874.74 | 1897 | 13.659 | 38.691 |
| IL4719850002800010 | 1985-10-15T19:10 | 34.0000 | 34.5000 | 1875.73 | 1898 | 13.659 | 38.689 |
| IL4719850002800010 | 1985-10-15T19:10 | 34.0000 | 34.5000 | 1876.71 | 1899 | 13.659 | 38.691 |
| IL4719850002800010 | 1985-10-15T19:10 | 34.0000 | 34.5000 | 1877.69 | 1900 | 13.659 | 38.691 |
| IL4719850002800010 | 1985-10-15T19:10 | 34.0000 | 34.5000 | 1878.68 | 1901 | 13.659 | 38.691 |
| IL4719850002800010 | 1985-10-15T19:10 | 34.0000 | 34.5000 | 1879.66 | 1902 | 13.659 | 38.691 |
| IL4719850002800010 | 1985-10-15T19:10 | 34.0000 | 34.5000 | 1880.65 | 1903 | 13.661 | 38.689 |
| IL4719850002800010 | 1985-10-15T19:10 | 34.0000 | 34.5000 | 1881.63 | 1904 | 13.661 | 38.689 |
| IL4719850002800010 | 1985-10-15T19:10 | 34.0000 | 34.5000 | 1882.61 | 1905 | 13.661 | 38.689 |
| IL4719850002800010 | 1985-10-15T19:10 | 34.0000 | 34.5000 | 1883.60 | 1906 | 13.661 | 38.691 |
| IL4719850002800010 | 1985-10-15T19:10 | 34.0000 | 34.5000 | 1884.58 | 1907 | 13.661 | 38.691 |
| IL4719850002800010 | 1985-10-15T19:10 | 34.0000 | 34.5000 | 1885.57 | 1908 | 13.661 | 38.689 |
| IL4719850002800010 | 1985-10-15T19:10 | 34.0000 | 34.5000 | 1886.55 | 1909 | 13.661 | 38.691 |
| IL4719850002800010 | 1985-10-15T19:10 | 34.0000 | 34.5000 | 1887.53 | 1910 | 13.661 | 38.691 |
| IL4719850002800010 | 1985-10-15T19:10 | 34.0000 | 34.5000 | 1888.52 | 1911 | 13.661 | 38.691 |
| IL4719850002800010 | 1985-10-15T19:10 | 34.0000 | 34.5000 | 1889.50 | 1912 | 13.661 | 38.691 |
| IL4719850002800010 | 1985-10-15T19:10 | 34.0000 | 34.5000 | 1890.49 | 1913 | 13.661 | 38.691 |
| IL4719850002800010 | 1985-10-15T19:10 | 34.0000 | 34.5000 | 1891.47 | 1914 | 13.661 | 38.691 |
| IL4719850002800010 | 1985-10-15T19:10 | 34.0000 | 34.5000 | 1892.45 | 1915 | 13.661 | 38.691 |
| IL4719850002800010 | 1985-10-15T19:10 | 34.0000 | 34.5000 | 1893.44 | 1916 | 13.661 | 38.691 |
| IL4719850002800010 | 1985-10-15T19:10 | 34.0000 | 34.5000 | 1894.42 | 1917 | 13.661 | 38.691 |
| IL4719850002800010 | 1985-10-15T19:10 | 34.0000 | 34.5000 | 1895.41 | 1918 | 13.661 | 38.691 |
| IL4719850002800010 | 1985-10-15T19:10 | 34.0000 | 34.5000 | 1896.39 | 1919 | 13.661 | 38.691 |
| IL4719850002800010 | 1985-10-15T19:10 | 34.0000 | 34.5000 | 1897.37 | 1920 | 13.661 | 38.691 |
| IL4719850002800010 | 1985-10-15T19:10 | 34.0000 | 34.5000 | 1898.36 | 1921 | 13.661 | 38.691 |
| IL4719850002800010 | 1985-10-15T19:10 | 34.0000 | 34.5000 | 1899.34 | 1922 | 13.661 | 38.691 |
| IL4719850002800010 | 1985-10-15T19:10 | 34.0000 | 34.5000 | 1900.33 | 1923 | 13.663 | 38.691 |
| IL4719850002800010 | 1985-10-15T19:10 | 34.0000 | 34.5000 | 1901.31 | 1924 | 13.663 | 38.691 |
| IL4719850002800010 | 1985-10-15T19:10 | 34.0000 | 34.5000 | 1902.29 | 1925 | 13.663 | 38.689 |
| IL4719850002800010 | 1985-10-15T19:10 | 34.0000 | 34.5000 | 1903.28 | 1926 | 13.663 | 38.691 |
| IL4719850002800010 | 1985-10-15T19:10 | 34.0000 | 34.5000 | 1904.26 | 1927 | 13.663 | 38.689 |
| IL4719850002800010 | 1985-10-15T19:10 | 34.0000 | 34.5000 | 1905.25 | 1928 | 13.663 | 38.691 |
| IL4719850002800010 | 1985-10-15T19:10 | 34.0000 | 34.5000 | 1906.23 | 1929 | 13.663 | 38.691 |
| IL4719850002800010 | 1985-10-15T19:10 | 34.0000 | 34.5000 | 1907.21 | 1930 | 13.663 | 38.691 |
| IL4719850002800010 | 1985-10-15T19:10 | 34.0000 | 34.5000 | 1908.20 | 1931 | 13.663 | 38.689 |
| IL4719850002800010 | 1985-10-15T19:10 | 34.0000 | 34.5000 | 1909.18 | 1932 | 13.663 | 38.691 |
| IL4719850002800010 | 1985-10-15T19:10 | 34.0000 | 34.5000 | 1910.17 | 1933 | 13.663 | 38.691 |
| IL4719850002800010 | 1985-10-15T19:10 | 34.0000 | 34.5000 | 1911.15 | 1934 | 13.663 | 38.691 |
| IL4719850002800010 | 1985-10-15T19:10 | 34.0000 | 34.5000 | 1912.13 | 1935 | 13.663 | 38.691 |
| IL4719850002800010 | 1985-10-15T19:10 | 34.0000 | 34.5000 | 1913.12 | 1936 | 13.663 | 38.691 |
| IL4719850002800010 | 1985-10-15T19:10 | 34.0000 | 34.5000 | 1914.10 | 1937 | 13.663 | 38.691 |
| IL4719850002800010 | 1985-10-15T19:10 | 34.0000 | 34.5000 | 1915.09 | 1938 | 13.664 | 38.689 |
| IL4719850002800010 | 1985-10-15T19:10 | 34.0000 | 34.5000 | 1916.07 | 1939 | 13.664 | 38.691 |
| IL4719850002800010 | 1985-10-15T19:10 | 34.0000 | 34.5000 | 1917.05 | 1940 | 13.664 | 38.689 |
| IL4719850002800010 | 1985-10-15T19:10 | 34.0000 | 34.5000 | 1918.04 | 1941 | 13.664 | 38.689 |
| IL4719850002800010 | 1985-10-15T19:10 | 34.0000 | 34.5000 | 1919.02 | 1942 | 13.664 | 38.691 |
| IL4719850002800010 | 1985-10-15T19:10 | 34.0000 | 34.5000 | 1920.00 | 1943 | 13.664 | 38.691 |
| IL4719850002800010 | 1985-10-15T19:10 | 34.0000 | 34.5000 | 1920.99 | 1944 | 13.664 | 38.691 |
| IL4719850002800010 | 1985-10-15T19:10 | 34.0000 | 34.5000 | 1921.97 | 1945 | 13.664 | 38.691 |
| IL4719850002800010 | 1985-10-15T19:10 | 34.0000 | 34.5000 | 1922.96 | 1946 | 13.664 | 38.689 |
| IL4719850002800010 | 1985-10-15T19:10 | 34.0000 | 34.5000 | 1923.94 | 1947 | 13.664 | 38.691 |
| IL4719850002800010 | 1985-10-15T19:10 | 34.0000 | 34.5000 | 1924.92 | 1948 | 13.664 | 38.691 |
| IL4719850002800010 | 1985-10-15T19:10 | 34.0000 | 34.5000 | 1925.91 | 1949 | 13.664 | 38.691 |
| IL4719850002800010 | 1985-10-15T19:10 | 34.0000 | 34.5000 | 1926.89 | 1950 | 13.664 | 38.689 |
| IL4719850002800010 | 1985-10-15T19:10 | 34.0000 | 34.5000 | 1927.88 | 1951 | 13.664 | 38.691 |
| IL4719850002800010 | 1985-10-15T19:10 | 34.0000 | 34.5000 | 1928.86 | 1952 | 13.666 | 38.691 |
| IL4719850002800010 | 1985-10-15T19:10 | 34.0000 | 34.5000 | 1929.84 | 1953 | 13.666 | 38.691 |
| IL4719850002800010 | 1985-10-15T19:10 | 34.0000 | 34.5000 | 1930.83 | 1954 | 13.666 | 38.691 |
| IL4719850002800010 | 1985-10-15T19:10 | 34.0000 | 34.5000 | 1931.81 | 1955 | 13.666 | 38.691 |
| IL4719850002800010 | 1985-10-15T19:10 | 34.0000 | 34.5000 | 1932.79 | 1956 | 13.666 | 38.691 |
| IL4719850002800010 | 1985-10-15T19:10 | 34.0000 | 34.5000 | 1933.78 | 1957 | 13.666 | 38.691 |
| IL4719850002800010 | 1985-10-15T19:10 | 34.0000 | 34.5000 | 1934.76 | 1958 | 13.666 | 38.691 |
| IL4719850002800010 | 1985-10-15T19:10 | 34.0000 | 34.5000 | 1935.75 | 1959 | 13.666 | 38.691 |
| IL4719850002800010 | 1985-10-15T19:10 | 34.0000 | 34.5000 | 1936.73 | 1960 | 13.666 | 38.691 |
| IL4719850002800010 | 1985-10-15T19:10 | 34.0000 | 34.5000 | 1937.71 | 1961 | 13.666 | 38.691 |
| IL4719850002800010 | 1985-10-15T19:10 | 34.0000 | 34.5000 | 1938.70 | 1962 | 13.666 | 38.691 |
| IL4719850002800010 | 1985-10-15T19:10 | 34.0000 | 34.5000 | 1939.68 | 1963 | 13.666 | 38.689 |
| IL4719850002800010 | 1985-10-15T19:10 | 34.0000 | 34.5000 | 1940.66 | 1964 | 13.666 | 38.691 |
| IL4719850002800010 | 1985-10-15T19:10 | 34.0000 | 34.5000 | 1941.65 | 1965 | 13.666 | 38.691 |
| IL4719850002800010 | 1985-10-15T19:10 | 34.0000 | 34.5000 | 1942.63 | 1966 | 13.666 | 38.691 |
| IL4719850002800010 | 1985-10-15T19:10 | 34.0000 | 34.5000 | 1943.62 | 1967 | 13.666 | 38.691 |
| IL4719850002800010 | 1985-10-15T19:10 | 34.0000 | 34.5000 | 1944.60 | 1968 | 13.666 | 38.691 |
| IL4719850002800010 | 1985-10-15T19:10 | 34.0000 | 34.5000 | 1945.58 | 1969 | 13.668 | 38.689 |
| IL4719850002800010 | 1985-10-15T19:10 | 34.0000 | 34.5000 | 1946.57 | 1970 | 13.668 | 38.691 |
| IL4719850002800010 | 1985-10-15T19:10 | 34.0000 | 34.5000 | 1947.55 | 1971 | 13.668 | 38.691 |
| IL4719850002800010 | 1985-10-15T19:10 | 34.0000 | 34.5000 | 1948.53 | 1972 | 13.668 | 38.691 |
| IL4719850002800010 | 1985-10-15T19:10 | 34.0000 | 34.5000 | 1949.52 | 1973 | 13.668 | 38.691 |
| IL4719850002800010 | 1985-10-15T19:10 | 34.0000 | 34.5000 | 1950.50 | 1974 | 13.668 | 38.689 |
| IL4719850002800010 | 1985-10-15T19:10 | 34.0000 | 34.5000 | 1951.49 | 1975 | 13.668 | 38.691 |
| IL4719850002800010 | 1985-10-15T19:10 | 34.0000 | 34.5000 | 1952.47 | 1976 | 13.668 | 38.691 |
| IL4719850002800010 | 1985-10-15T19:10 | 34.0000 | 34.5000 | 1953.45 | 1977 | 13.668 | 38.691 |
| IL4719850002800010 | 1985-10-15T19:10 | 34.0000 | 34.5000 | 1954.44 | 1978 | 13.668 | 38.691 |
| IL4719850002800010 | 1985-10-15T19:10 | 34.0000 | 34.5000 | 1955.42 | 1979 | 13.668 | 38.691 |
| IL4719850002800010 | 1985-10-15T19:10 | 34.0000 | 34.5000 | 1956.40 | 1980 | 13.670 | 38.691 |
| IL4719850002800010 | 1985-10-15T19:10 | 34.0000 | 34.5000 | 1957.39 | 1981 | 13.670 | 38.691 |
| IL4719850002800010 | 1985-10-15T19:10 | 34.0000 | 34.5000 | 1958.37 | 1982 | 13.670 | 38.691 |
| IL4719850002800010 | 1985-10-15T19:10 | 34.0000 | 34.5000 | 1959.36 | 1983 | 13.670 | 38.691 |
| IL4719850002800010 | 1985-10-15T19:10 | 34.0000 | 34.5000 | 1960.34 | 1984 | 13.670 | 38.691 |
| IL4719850002800010 | 1985-10-15T19:10 | 34.0000 | 34.5000 | 1961.32 | 1985 | 13.670 | 38.691 |
| IL4719850002800010 | 1985-10-15T19:10 | 34.0000 | 34.5000 | 1962.31 | 1986 | 13.670 | 38.691 |
| IL4719850002800010 | 1985-10-15T19:10 | 34.0000 | 34.5000 | 1963.29 | 1987 | 13.670 | 38.691 |
| IL4719850002800010 | 1985-10-15T19:10 | 34.0000 | 34.5000 | 1964.27 | 1988 | 13.670 | 38.691 |
| IL4719850002800010 | 1985-10-15T19:10 | 34.0000 | 34.5000 | 1965.26 | 1989 | 13.670 | 38.691 |
| IL4719850002800010 | 1985-10-15T19:10 | 34.0000 | 34.5000 | 1966.24 | 1990 | 13.670 | 38.691 |
| IL4719850002800010 | 1985-10-15T19:10 | 34.0000 | 34.5000 | 1967.22 | 1991 | 13.670 | 38.691 |
| IL4719850002800010 | 1985-10-15T19:10 | 34.0000 | 34.5000 | 1968.21 | 1992 | 13.670 | 38.691 |
| IL4719850002800020 | 1985-10-16T00:10 | 34.0000 | 34.0000 | 0.00 | 0 | 24.464 | 39.562 |
| IL4719850002800020 | 1985-10-16T00:10 | 34.0000 | 34.0000 | 0.99 | 1 | 24.464 | 39.562 |
| IL4719850002800020 | 1985-10-16T00:10 | 34.0000 | 34.0000 | 1.98 | 2 | 24.464 | 39.562 |
| IL4719850002800020 | 1985-10-16T00:10 | 34.0000 | 34.0000 | 2.98 | 3 | 24.464 | 39.562 |
| IL4719850002800020 | 1985-10-16T00:10 | 34.0000 | 34.0000 | 3.97 | 4 | 24.464 | 39.562 |
| IL4719850002800020 | 1985-10-16T00:10 | 34.0000 | 34.0000 | 4.96 | 5 | 24.462 | 39.562 |
| IL4719850002800020 | 1985-10-16T00:10 | 34.0000 | 34.0000 | 5.95 | 6 | 24.461 | 39.562 |
Only the first 2000 rows were shown. To view the complete dataset, download it as tab-delimited text. You can still view the full matrix in your browser, but be aware that this may crash the browser due to the huge size.
